<?xml version="1.0" encoding="UTF-8" standalone="no" ?>
<gpx xmlns="http://www.topografix.com/GPX/1/1" xmlns:xsi="http://www.w3.org/2001/XMLSchema-instance" xsi:schemaLocation="http://www.topografix.com/GPX/1/1 http://www.topografix.com/GPX/1/1/gpx.xsd" version="1.1" creator="VisuGPX - https://www.visugpx.com">
  <metadata>
    <name>Forêt des 3 pignons</name>
    <desc><![CDATA[recherche principalement de singles.
Assez physique et technique]]></desc>
  </metadata>
  <trk>
    <name><![CDATA[Sortie Arbonne-la-Forêt nord]]></name>
    <trkseg>
      <trkpt lat="48.40127" lon="2.54703">
        <ele>75.6</ele>
        <time>2013-01-28T10:02:24Z</time>
      </trkpt>
      <trkpt lat="48.40127" lon="2.54703">
        <ele>122.7</ele>
        <time>2013-01-28T10:02:26Z</time>
      </trkpt>
      <trkpt lat="48.4014" lon="2.54712">
        <ele>122.1</ele>
        <time>2013-01-28T10:02:52Z</time>
      </trkpt>
      <trkpt lat="48.40165" lon="2.54722">
        <ele>123.5</ele>
        <time>2013-01-28T10:03:03Z</time>
      </trkpt>
      <trkpt lat="48.40175" lon="2.54726">
        <ele>125.8</ele>
        <time>2013-01-28T10:03:15Z</time>
      </trkpt>
      <trkpt lat="48.40185" lon="2.54737">
        <ele>128.6</ele>
        <time>2013-01-28T10:03:22Z</time>
      </trkpt>
      <trkpt lat="48.40187" lon="2.54743">
        <ele>127.7</ele>
        <time>2013-01-28T10:03:31Z</time>
      </trkpt>
      <trkpt lat="48.40213" lon="2.54764">
        <ele>129.4</ele>
        <time>2013-01-28T10:04:11Z</time>
      </trkpt>
      <trkpt lat="48.40221" lon="2.54765">
        <ele>126.7</ele>
        <time>2013-01-28T10:04:17Z</time>
      </trkpt>
      <trkpt lat="48.40221" lon="2.54764">
        <ele>131.9</ele>
        <time>2013-01-28T10:04:27Z</time>
      </trkpt>
      <trkpt lat="48.40238" lon="2.54751">
        <ele>139.5</ele>
        <time>2013-01-28T10:05:35Z</time>
      </trkpt>
      <trkpt lat="48.40263" lon="2.54748">
        <ele>132.6</ele>
        <time>2013-01-28T10:05:44Z</time>
      </trkpt>
      <trkpt lat="48.4028" lon="2.54753">
        <ele>131.8</ele>
        <time>2013-01-28T10:05:50Z</time>
      </trkpt>
      <trkpt lat="48.403" lon="2.54722">
        <ele>131.9</ele>
        <time>2013-01-28T10:05:58Z</time>
      </trkpt>
      <trkpt lat="48.40331" lon="2.54724">
        <ele>132.1</ele>
        <time>2013-01-28T10:06:04Z</time>
      </trkpt>
      <trkpt lat="48.40348" lon="2.54723">
        <ele>129.9</ele>
        <time>2013-01-28T10:06:08Z</time>
      </trkpt>
      <trkpt lat="48.4037" lon="2.54742">
        <ele>128</ele>
        <time>2013-01-28T10:06:13Z</time>
      </trkpt>
      <trkpt lat="48.40396" lon="2.54782">
        <ele>122.9</ele>
        <time>2013-01-28T10:06:19Z</time>
      </trkpt>
      <trkpt lat="48.40428" lon="2.54816">
        <ele>122.1</ele>
        <time>2013-01-28T10:06:24Z</time>
      </trkpt>
      <trkpt lat="48.40461" lon="2.54852">
        <ele>117.3</ele>
        <time>2013-01-28T10:06:30Z</time>
      </trkpt>
      <trkpt lat="48.40496" lon="2.54885">
        <ele>117.2</ele>
        <time>2013-01-28T10:06:36Z</time>
      </trkpt>
      <trkpt lat="48.40519" lon="2.54909">
        <ele>118.3</ele>
        <time>2013-01-28T10:06:42Z</time>
      </trkpt>
      <trkpt lat="48.4055" lon="2.54931">
        <ele>115.4</ele>
        <time>2013-01-28T10:06:48Z</time>
      </trkpt>
      <trkpt lat="48.40566" lon="2.54948">
        <ele>118.2</ele>
        <time>2013-01-28T10:06:52Z</time>
      </trkpt>
      <trkpt lat="48.40594" lon="2.54969">
        <ele>117.7</ele>
        <time>2013-01-28T10:06:59Z</time>
      </trkpt>
      <trkpt lat="48.40616" lon="2.54987">
        <ele>120.5</ele>
        <time>2013-01-28T10:07:04Z</time>
      </trkpt>
      <trkpt lat="48.40645" lon="2.54998">
        <ele>126</ele>
        <time>2013-01-28T10:07:10Z</time>
      </trkpt>
      <trkpt lat="48.40676" lon="2.55013">
        <ele>125.4</ele>
        <time>2013-01-28T10:07:16Z</time>
      </trkpt>
      <trkpt lat="48.40699" lon="2.55032">
        <ele>130.7</ele>
        <time>2013-01-28T10:07:22Z</time>
      </trkpt>
      <trkpt lat="48.40724" lon="2.55058">
        <ele>130.7</ele>
        <time>2013-01-28T10:07:28Z</time>
      </trkpt>
      <trkpt lat="48.40747" lon="2.55087">
        <ele>128.8</ele>
        <time>2013-01-28T10:07:33Z</time>
      </trkpt>
      <trkpt lat="48.40764" lon="2.55095">
        <ele>126.3</ele>
        <time>2013-01-28T10:07:36Z</time>
      </trkpt>
      <trkpt lat="48.40788" lon="2.55104">
        <ele>126.6</ele>
        <time>2013-01-28T10:07:41Z</time>
      </trkpt>
      <trkpt lat="48.40824" lon="2.55098">
        <ele>125</ele>
        <time>2013-01-28T10:07:48Z</time>
      </trkpt>
      <trkpt lat="48.40826" lon="2.55079">
        <ele>126.1</ele>
        <time>2013-01-28T10:07:55Z</time>
      </trkpt>
      <trkpt lat="48.40817" lon="2.55052">
        <ele>128.9</ele>
        <time>2013-01-28T10:08:01Z</time>
      </trkpt>
      <trkpt lat="48.40804" lon="2.5502">
        <ele>128.8</ele>
        <time>2013-01-28T10:08:07Z</time>
      </trkpt>
      <trkpt lat="48.40782" lon="2.54992">
        <ele>127.6</ele>
        <time>2013-01-28T10:08:13Z</time>
      </trkpt>
      <trkpt lat="48.40769" lon="2.54967">
        <ele>125.8</ele>
        <time>2013-01-28T10:08:18Z</time>
      </trkpt>
      <trkpt lat="48.4075" lon="2.54936">
        <ele>128.6</ele>
        <time>2013-01-28T10:08:24Z</time>
      </trkpt>
      <trkpt lat="48.4073" lon="2.54904">
        <ele>126.1</ele>
        <time>2013-01-28T10:08:30Z</time>
      </trkpt>
      <trkpt lat="48.40717" lon="2.54879">
        <ele>126.5</ele>
        <time>2013-01-28T10:08:35Z</time>
      </trkpt>
      <trkpt lat="48.4071" lon="2.54831">
        <ele>130.5</ele>
        <time>2013-01-28T10:08:42Z</time>
      </trkpt>
      <trkpt lat="48.40699" lon="2.54796">
        <ele>133.4</ele>
        <time>2013-01-28T10:08:48Z</time>
      </trkpt>
      <trkpt lat="48.40678" lon="2.54771">
        <ele>130</ele>
        <time>2013-01-28T10:08:54Z</time>
      </trkpt>
      <trkpt lat="48.40658" lon="2.54734">
        <ele>128.8</ele>
        <time>2013-01-28T10:09:02Z</time>
      </trkpt>
      <trkpt lat="48.40647" lon="2.547">
        <ele>133.6</ele>
        <time>2013-01-28T10:09:08Z</time>
      </trkpt>
      <trkpt lat="48.40646" lon="2.54668">
        <ele>135.9</ele>
        <time>2013-01-28T10:09:14Z</time>
      </trkpt>
      <trkpt lat="48.40663" lon="2.54631">
        <ele>141.5</ele>
        <time>2013-01-28T10:09:20Z</time>
      </trkpt>
      <trkpt lat="48.4067" lon="2.54596">
        <ele>141.7</ele>
        <time>2013-01-28T10:09:26Z</time>
      </trkpt>
      <trkpt lat="48.40672" lon="2.54555">
        <ele>139.7</ele>
        <time>2013-01-28T10:09:32Z</time>
      </trkpt>
      <trkpt lat="48.40672" lon="2.54515">
        <ele>141</ele>
        <time>2013-01-28T10:09:38Z</time>
      </trkpt>
      <trkpt lat="48.40673" lon="2.54476">
        <ele>141.7</ele>
        <time>2013-01-28T10:09:43Z</time>
      </trkpt>
      <trkpt lat="48.40668" lon="2.54442">
        <ele>144.7</ele>
        <time>2013-01-28T10:09:48Z</time>
      </trkpt>
      <trkpt lat="48.40657" lon="2.54385">
        <ele>145.4</ele>
        <time>2013-01-28T10:09:55Z</time>
      </trkpt>
      <trkpt lat="48.4064" lon="2.54342">
        <ele>138.6</ele>
        <time>2013-01-28T10:10:01Z</time>
      </trkpt>
      <trkpt lat="48.40631" lon="2.54311">
        <ele>137.7</ele>
        <time>2013-01-28T10:10:05Z</time>
      </trkpt>
      <trkpt lat="48.40622" lon="2.54268">
        <ele>137.1</ele>
        <time>2013-01-28T10:10:11Z</time>
      </trkpt>
      <trkpt lat="48.40616" lon="2.54246">
        <ele>142</ele>
        <time>2013-01-28T10:10:14Z</time>
      </trkpt>
      <trkpt lat="48.40613" lon="2.54224">
        <ele>141.4</ele>
        <time>2013-01-28T10:10:17Z</time>
      </trkpt>
      <trkpt lat="48.40614" lon="2.54184">
        <ele>134.6</ele>
        <time>2013-01-28T10:10:23Z</time>
      </trkpt>
      <trkpt lat="48.40613" lon="2.54152">
        <ele>139.5</ele>
        <time>2013-01-28T10:10:29Z</time>
      </trkpt>
      <trkpt lat="48.40635" lon="2.54128">
        <ele>137.3</ele>
        <time>2013-01-28T10:10:37Z</time>
      </trkpt>
      <trkpt lat="48.40657" lon="2.54116">
        <ele>135.8</ele>
        <time>2013-01-28T10:10:41Z</time>
      </trkpt>
      <trkpt lat="48.40677" lon="2.54103">
        <ele>135.6</ele>
        <time>2013-01-28T10:10:45Z</time>
      </trkpt>
      <trkpt lat="48.40702" lon="2.54083">
        <ele>134.1</ele>
        <time>2013-01-28T10:10:51Z</time>
      </trkpt>
      <trkpt lat="48.40733" lon="2.54064">
        <ele>133.2</ele>
        <time>2013-01-28T10:10:57Z</time>
      </trkpt>
      <trkpt lat="48.40769" lon="2.54039">
        <ele>133.1</ele>
        <time>2013-01-28T10:11:04Z</time>
      </trkpt>
      <trkpt lat="48.40794" lon="2.54023">
        <ele>133.8</ele>
        <time>2013-01-28T10:11:10Z</time>
      </trkpt>
      <trkpt lat="48.4082" lon="2.54004">
        <ele>135.9</ele>
        <time>2013-01-28T10:11:16Z</time>
      </trkpt>
      <trkpt lat="48.40858" lon="2.53988">
        <ele>137.8</ele>
        <time>2013-01-28T10:11:23Z</time>
      </trkpt>
      <trkpt lat="48.40886" lon="2.53977">
        <ele>136.7</ele>
        <time>2013-01-28T10:11:29Z</time>
      </trkpt>
      <trkpt lat="48.40913" lon="2.53969">
        <ele>136.1</ele>
        <time>2013-01-28T10:11:34Z</time>
      </trkpt>
      <trkpt lat="48.4095" lon="2.5396">
        <ele>135.6</ele>
        <time>2013-01-28T10:11:41Z</time>
      </trkpt>
      <trkpt lat="48.40988" lon="2.53951">
        <ele>134</ele>
        <time>2013-01-28T10:11:48Z</time>
      </trkpt>
      <trkpt lat="48.41026" lon="2.53946">
        <ele>129.4</ele>
        <time>2013-01-28T10:11:54Z</time>
      </trkpt>
      <trkpt lat="48.41064" lon="2.53935">
        <ele>126.4</ele>
        <time>2013-01-28T10:12:02Z</time>
      </trkpt>
      <trkpt lat="48.4109" lon="2.53919">
        <ele>128</ele>
        <time>2013-01-28T10:12:08Z</time>
      </trkpt>
      <trkpt lat="48.41106" lon="2.53894">
        <ele>133.9</ele>
        <time>2013-01-28T10:12:15Z</time>
      </trkpt>
      <trkpt lat="48.41129" lon="2.53891">
        <ele>131.3</ele>
        <time>2013-01-28T10:12:21Z</time>
      </trkpt>
      <trkpt lat="48.4115" lon="2.53888">
        <ele>129.6</ele>
        <time>2013-01-28T10:12:27Z</time>
      </trkpt>
      <trkpt lat="48.41174" lon="2.53881">
        <ele>131</ele>
        <time>2013-01-28T10:12:33Z</time>
      </trkpt>
      <trkpt lat="48.41191" lon="2.53869">
        <ele>127.9</ele>
        <time>2013-01-28T10:12:39Z</time>
      </trkpt>
      <trkpt lat="48.41206" lon="2.53837">
        <ele>132.7</ele>
        <time>2013-01-28T10:12:47Z</time>
      </trkpt>
      <trkpt lat="48.41219" lon="2.53819">
        <ele>131.1</ele>
        <time>2013-01-28T10:12:53Z</time>
      </trkpt>
      <trkpt lat="48.41235" lon="2.53802">
        <ele>133.8</ele>
        <time>2013-01-28T10:12:59Z</time>
      </trkpt>
      <trkpt lat="48.41256" lon="2.53781">
        <ele>134.5</ele>
        <time>2013-01-28T10:13:06Z</time>
      </trkpt>
      <trkpt lat="48.41276" lon="2.53769">
        <ele>134.9</ele>
        <time>2013-01-28T10:13:13Z</time>
      </trkpt>
      <trkpt lat="48.41301" lon="2.53759">
        <ele>130.3</ele>
        <time>2013-01-28T10:13:21Z</time>
      </trkpt>
      <trkpt lat="48.41314" lon="2.53739">
        <ele>135.2</ele>
        <time>2013-01-28T10:13:28Z</time>
      </trkpt>
      <trkpt lat="48.41356" lon="2.53694">
        <ele>131</ele>
        <time>2013-01-28T10:13:35Z</time>
      </trkpt>
      <trkpt lat="48.41378" lon="2.53683">
        <ele>125.8</ele>
        <time>2013-01-28T10:13:38Z</time>
      </trkpt>
      <trkpt lat="48.41397" lon="2.53662">
        <ele>121.3</ele>
        <time>2013-01-28T10:13:41Z</time>
      </trkpt>
      <trkpt lat="48.41415" lon="2.53641">
        <ele>120</ele>
        <time>2013-01-28T10:13:44Z</time>
      </trkpt>
      <trkpt lat="48.41458" lon="2.53633">
        <ele>123.5</ele>
        <time>2013-01-28T10:13:51Z</time>
      </trkpt>
      <trkpt lat="48.41499" lon="2.53641">
        <ele>122.3</ele>
        <time>2013-01-28T10:13:57Z</time>
      </trkpt>
      <trkpt lat="48.41539" lon="2.53613">
        <ele>120.6</ele>
        <time>2013-01-28T10:14:05Z</time>
      </trkpt>
      <trkpt lat="48.41566" lon="2.53585">
        <ele>117.7</ele>
        <time>2013-01-28T10:14:10Z</time>
      </trkpt>
      <trkpt lat="48.41596" lon="2.53547">
        <ele>123.6</ele>
        <time>2013-01-28T10:14:16Z</time>
      </trkpt>
      <trkpt lat="48.41621" lon="2.53511">
        <ele>122.9</ele>
        <time>2013-01-28T10:14:21Z</time>
      </trkpt>
      <trkpt lat="48.41638" lon="2.53479">
        <ele>124</ele>
        <time>2013-01-28T10:14:26Z</time>
      </trkpt>
      <trkpt lat="48.41657" lon="2.5344">
        <ele>125.6</ele>
        <time>2013-01-28T10:14:32Z</time>
      </trkpt>
      <trkpt lat="48.41684" lon="2.53409">
        <ele>127.2</ele>
        <time>2013-01-28T10:14:38Z</time>
      </trkpt>
      <trkpt lat="48.41706" lon="2.53381">
        <ele>126.8</ele>
        <time>2013-01-28T10:14:43Z</time>
      </trkpt>
      <trkpt lat="48.41732" lon="2.53354">
        <ele>126.7</ele>
        <time>2013-01-28T10:14:48Z</time>
      </trkpt>
      <trkpt lat="48.41749" lon="2.53328">
        <ele>129.3</ele>
        <time>2013-01-28T10:14:53Z</time>
      </trkpt>
      <trkpt lat="48.41769" lon="2.53276">
        <ele>134</ele>
        <time>2013-01-28T10:14:59Z</time>
      </trkpt>
      <trkpt lat="48.41782" lon="2.53249">
        <ele>134.5</ele>
        <time>2013-01-28T10:15:03Z</time>
      </trkpt>
      <trkpt lat="48.41796" lon="2.53203">
        <ele>134.4</ele>
        <time>2013-01-28T10:15:09Z</time>
      </trkpt>
      <trkpt lat="48.418" lon="2.53151">
        <ele>134.1</ele>
        <time>2013-01-28T10:15:14Z</time>
      </trkpt>
      <trkpt lat="48.41807" lon="2.53112">
        <ele>137.8</ele>
        <time>2013-01-28T10:15:19Z</time>
      </trkpt>
      <trkpt lat="48.41811" lon="2.5308">
        <ele>137.8</ele>
        <time>2013-01-28T10:15:24Z</time>
      </trkpt>
      <trkpt lat="48.41819" lon="2.53046">
        <ele>137.1</ele>
        <time>2013-01-28T10:15:30Z</time>
      </trkpt>
      <trkpt lat="48.41827" lon="2.53016">
        <ele>136.3</ele>
        <time>2013-01-28T10:15:35Z</time>
      </trkpt>
      <trkpt lat="48.41833" lon="2.52966">
        <ele>137.8</ele>
        <time>2013-01-28T10:15:41Z</time>
      </trkpt>
      <trkpt lat="48.41836" lon="2.52917">
        <ele>141.5</ele>
        <time>2013-01-28T10:15:47Z</time>
      </trkpt>
      <trkpt lat="48.41839" lon="2.52877">
        <ele>143.1</ele>
        <time>2013-01-28T10:15:53Z</time>
      </trkpt>
      <trkpt lat="48.41839" lon="2.52852">
        <ele>148.6</ele>
        <time>2013-01-28T10:15:58Z</time>
      </trkpt>
      <trkpt lat="48.41862" lon="2.52821">
        <ele>152.3</ele>
        <time>2013-01-28T10:16:04Z</time>
      </trkpt>
      <trkpt lat="48.41877" lon="2.52791">
        <ele>152.6</ele>
        <time>2013-01-28T10:16:10Z</time>
      </trkpt>
      <trkpt lat="48.41885" lon="2.52751">
        <ele>150.7</ele>
        <time>2013-01-28T10:16:16Z</time>
      </trkpt>
      <trkpt lat="48.41891" lon="2.5273">
        <ele>150.7</ele>
        <time>2013-01-28T10:16:19Z</time>
      </trkpt>
      <trkpt lat="48.41901" lon="2.52689">
        <ele>150</ele>
        <time>2013-01-28T10:16:25Z</time>
      </trkpt>
      <trkpt lat="48.41919" lon="2.52637">
        <ele>151.4</ele>
        <time>2013-01-28T10:16:32Z</time>
      </trkpt>
      <trkpt lat="48.4193" lon="2.52606">
        <ele>151.5</ele>
        <time>2013-01-28T10:16:38Z</time>
      </trkpt>
      <trkpt lat="48.41938" lon="2.52573">
        <ele>143.1</ele>
        <time>2013-01-28T10:16:44Z</time>
      </trkpt>
      <trkpt lat="48.41945" lon="2.5255">
        <ele>146.1</ele>
        <time>2013-01-28T10:16:48Z</time>
      </trkpt>
      <trkpt lat="48.41947" lon="2.52517">
        <ele>147.5</ele>
        <time>2013-01-28T10:16:54Z</time>
      </trkpt>
      <trkpt lat="48.41939" lon="2.52483">
        <ele>151.3</ele>
        <time>2013-01-28T10:17:00Z</time>
      </trkpt>
      <trkpt lat="48.41943" lon="2.52449">
        <ele>157.3</ele>
        <time>2013-01-28T10:17:04Z</time>
      </trkpt>
      <trkpt lat="48.4195" lon="2.52416">
        <ele>156.5</ele>
        <time>2013-01-28T10:17:09Z</time>
      </trkpt>
      <trkpt lat="48.41961" lon="2.52385">
        <ele>153.1</ele>
        <time>2013-01-28T10:17:15Z</time>
      </trkpt>
      <trkpt lat="48.41969" lon="2.5235">
        <ele>147.4</ele>
        <time>2013-01-28T10:17:21Z</time>
      </trkpt>
      <trkpt lat="48.41976" lon="2.5231">
        <ele>146.9</ele>
        <time>2013-01-28T10:17:27Z</time>
      </trkpt>
      <trkpt lat="48.41983" lon="2.52278">
        <ele>144.7</ele>
        <time>2013-01-28T10:17:32Z</time>
      </trkpt>
      <trkpt lat="48.41994" lon="2.52234">
        <ele>142.5</ele>
        <time>2013-01-28T10:17:38Z</time>
      </trkpt>
      <trkpt lat="48.42013" lon="2.52198">
        <ele>142.1</ele>
        <time>2013-01-28T10:17:44Z</time>
      </trkpt>
      <trkpt lat="48.42019" lon="2.52157">
        <ele>142.2</ele>
        <time>2013-01-28T10:17:51Z</time>
      </trkpt>
      <trkpt lat="48.42019" lon="2.52117">
        <ele>143.7</ele>
        <time>2013-01-28T10:17:57Z</time>
      </trkpt>
      <trkpt lat="48.42022" lon="2.5207">
        <ele>148.2</ele>
        <time>2013-01-28T10:18:03Z</time>
      </trkpt>
      <trkpt lat="48.42025" lon="2.52019">
        <ele>161.8</ele>
        <time>2013-01-28T10:18:11Z</time>
      </trkpt>
      <trkpt lat="48.42029" lon="2.51977">
        <ele>158.4</ele>
        <time>2013-01-28T10:18:18Z</time>
      </trkpt>
      <trkpt lat="48.42045" lon="2.5195">
        <ele>145.6</ele>
        <time>2013-01-28T10:18:23Z</time>
      </trkpt>
      <trkpt lat="48.42077" lon="2.51942">
        <ele>134.6</ele>
        <time>2013-01-28T10:18:30Z</time>
      </trkpt>
      <trkpt lat="48.42092" lon="2.51928">
        <ele>135</ele>
        <time>2013-01-28T10:18:37Z</time>
      </trkpt>
      <trkpt lat="48.42077" lon="2.51889">
        <ele>142.4</ele>
        <time>2013-01-28T10:18:44Z</time>
      </trkpt>
      <trkpt lat="48.42065" lon="2.51859">
        <ele>146.6</ele>
        <time>2013-01-28T10:18:49Z</time>
      </trkpt>
      <trkpt lat="48.4206" lon="2.51829">
        <ele>145.6</ele>
        <time>2013-01-28T10:18:54Z</time>
      </trkpt>
      <trkpt lat="48.42061" lon="2.5178">
        <ele>146.9</ele>
        <time>2013-01-28T10:19:02Z</time>
      </trkpt>
      <trkpt lat="48.42071" lon="2.51741">
        <ele>149.7</ele>
        <time>2013-01-28T10:19:09Z</time>
      </trkpt>
      <trkpt lat="48.42078" lon="2.51714">
        <ele>149.1</ele>
        <time>2013-01-28T10:19:14Z</time>
      </trkpt>
      <trkpt lat="48.42083" lon="2.51679">
        <ele>149.4</ele>
        <time>2013-01-28T10:19:21Z</time>
      </trkpt>
      <trkpt lat="48.42089" lon="2.5164">
        <ele>150.9</ele>
        <time>2013-01-28T10:19:27Z</time>
      </trkpt>
      <trkpt lat="48.42095" lon="2.51589">
        <ele>155.9</ele>
        <time>2013-01-28T10:19:33Z</time>
      </trkpt>
      <trkpt lat="48.42087" lon="2.51539">
        <ele>160.8</ele>
        <time>2013-01-28T10:19:40Z</time>
      </trkpt>
      <trkpt lat="48.4208" lon="2.51495">
        <ele>163.8</ele>
        <time>2013-01-28T10:19:46Z</time>
      </trkpt>
      <trkpt lat="48.4209" lon="2.51458">
        <ele>163.9</ele>
        <time>2013-01-28T10:19:52Z</time>
      </trkpt>
      <trkpt lat="48.42117" lon="2.51431">
        <ele>157</ele>
        <time>2013-01-28T10:19:58Z</time>
      </trkpt>
      <trkpt lat="48.42123" lon="2.51406">
        <ele>149.7</ele>
        <time>2013-01-28T10:20:04Z</time>
      </trkpt>
      <trkpt lat="48.42124" lon="2.51351">
        <ele>147</ele>
        <time>2013-01-28T10:20:10Z</time>
      </trkpt>
      <trkpt lat="48.42125" lon="2.51316">
        <ele>148.3</ele>
        <time>2013-01-28T10:20:16Z</time>
      </trkpt>
      <trkpt lat="48.42122" lon="2.51266">
        <ele>150.6</ele>
        <time>2013-01-28T10:20:23Z</time>
      </trkpt>
      <trkpt lat="48.42134" lon="2.51225">
        <ele>153.6</ele>
        <time>2013-01-28T10:20:30Z</time>
      </trkpt>
      <trkpt lat="48.42157" lon="2.5119">
        <ele>143.9</ele>
        <time>2013-01-28T10:20:37Z</time>
      </trkpt>
      <trkpt lat="48.42171" lon="2.51156">
        <ele>148.5</ele>
        <time>2013-01-28T10:20:43Z</time>
      </trkpt>
      <trkpt lat="48.42164" lon="2.51115">
        <ele>154.6</ele>
        <time>2013-01-28T10:20:49Z</time>
      </trkpt>
      <trkpt lat="48.42167" lon="2.51086">
        <ele>154.1</ele>
        <time>2013-01-28T10:20:54Z</time>
      </trkpt>
      <trkpt lat="48.4218" lon="2.51054">
        <ele>152.7</ele>
        <time>2013-01-28T10:21:00Z</time>
      </trkpt>
      <trkpt lat="48.42188" lon="2.51032">
        <ele>150.1</ele>
        <time>2013-01-28T10:21:04Z</time>
      </trkpt>
      <trkpt lat="48.42196" lon="2.50984">
        <ele>149.3</ele>
        <time>2013-01-28T10:21:10Z</time>
      </trkpt>
      <trkpt lat="48.42201" lon="2.50937">
        <ele>149.8</ele>
        <time>2013-01-28T10:21:17Z</time>
      </trkpt>
      <trkpt lat="48.42204" lon="2.50903">
        <ele>147.5</ele>
        <time>2013-01-28T10:21:23Z</time>
      </trkpt>
      <trkpt lat="48.42211" lon="2.50867">
        <ele>145.6</ele>
        <time>2013-01-28T10:21:29Z</time>
      </trkpt>
      <trkpt lat="48.42215" lon="2.50827">
        <ele>140.4</ele>
        <time>2013-01-28T10:21:36Z</time>
      </trkpt>
      <trkpt lat="48.42216" lon="2.50786">
        <ele>139.7</ele>
        <time>2013-01-28T10:21:42Z</time>
      </trkpt>
      <trkpt lat="48.42219" lon="2.50762">
        <ele>142.8</ele>
        <time>2013-01-28T10:21:48Z</time>
      </trkpt>
      <trkpt lat="48.42221" lon="2.50745">
        <ele>143.7</ele>
        <time>2013-01-28T10:21:55Z</time>
      </trkpt>
      <trkpt lat="48.4223" lon="2.5069">
        <ele>148.8</ele>
        <time>2013-01-28T10:22:07Z</time>
      </trkpt>
      <trkpt lat="48.42239" lon="2.50658">
        <ele>149.1</ele>
        <time>2013-01-28T10:22:13Z</time>
      </trkpt>
      <trkpt lat="48.42246" lon="2.50634">
        <ele>148.4</ele>
        <time>2013-01-28T10:22:20Z</time>
      </trkpt>
      <trkpt lat="48.42256" lon="2.50598">
        <ele>157.6</ele>
        <time>2013-01-28T10:22:28Z</time>
      </trkpt>
      <trkpt lat="48.42269" lon="2.50573">
        <ele>151.8</ele>
        <time>2013-01-28T10:22:37Z</time>
      </trkpt>
      <trkpt lat="48.42291" lon="2.50551">
        <ele>147.2</ele>
        <time>2013-01-28T10:22:44Z</time>
      </trkpt>
      <trkpt lat="48.4231" lon="2.5053">
        <ele>150.3</ele>
        <time>2013-01-28T10:22:49Z</time>
      </trkpt>
      <trkpt lat="48.42335" lon="2.50541">
        <ele>142.9</ele>
        <time>2013-01-28T10:22:56Z</time>
      </trkpt>
      <trkpt lat="48.42353" lon="2.50565">
        <ele>139.8</ele>
        <time>2013-01-28T10:23:01Z</time>
      </trkpt>
      <trkpt lat="48.42373" lon="2.50567">
        <ele>137.1</ele>
        <time>2013-01-28T10:23:07Z</time>
      </trkpt>
      <trkpt lat="48.42392" lon="2.50569">
        <ele>142.2</ele>
        <time>2013-01-28T10:23:12Z</time>
      </trkpt>
      <trkpt lat="48.42444" lon="2.50557">
        <ele>138.6</ele>
        <time>2013-01-28T10:23:20Z</time>
      </trkpt>
      <trkpt lat="48.42477" lon="2.50562">
        <ele>124.5</ele>
        <time>2013-01-28T10:23:27Z</time>
      </trkpt>
      <trkpt lat="48.42494" lon="2.50603">
        <ele>121.9</ele>
        <time>2013-01-28T10:23:33Z</time>
      </trkpt>
      <trkpt lat="48.42509" lon="2.50646">
        <ele>119.6</ele>
        <time>2013-01-28T10:23:40Z</time>
      </trkpt>
      <trkpt lat="48.42504" lon="2.50686">
        <ele>119.6</ele>
        <time>2013-01-28T10:23:47Z</time>
      </trkpt>
      <trkpt lat="48.42499" lon="2.50746">
        <ele>119.9</ele>
        <time>2013-01-28T10:23:56Z</time>
      </trkpt>
      <trkpt lat="48.42501" lon="2.50785">
        <ele>118.2</ele>
        <time>2013-01-28T10:24:02Z</time>
      </trkpt>
      <trkpt lat="48.425" lon="2.50825">
        <ele>119.7</ele>
        <time>2013-01-28T10:24:07Z</time>
      </trkpt>
      <trkpt lat="48.42495" lon="2.50861">
        <ele>119.2</ele>
        <time>2013-01-28T10:24:12Z</time>
      </trkpt>
      <trkpt lat="48.42484" lon="2.5091">
        <ele>120.9</ele>
        <time>2013-01-28T10:24:18Z</time>
      </trkpt>
      <trkpt lat="48.42477" lon="2.50958">
        <ele>122.5</ele>
        <time>2013-01-28T10:24:24Z</time>
      </trkpt>
      <trkpt lat="48.42469" lon="2.51002">
        <ele>124.1</ele>
        <time>2013-01-28T10:24:29Z</time>
      </trkpt>
      <trkpt lat="48.42455" lon="2.51047">
        <ele>123.9</ele>
        <time>2013-01-28T10:24:35Z</time>
      </trkpt>
      <trkpt lat="48.42444" lon="2.5109">
        <ele>120.7</ele>
        <time>2013-01-28T10:24:41Z</time>
      </trkpt>
      <trkpt lat="48.42435" lon="2.51119">
        <ele>121</ele>
        <time>2013-01-28T10:24:46Z</time>
      </trkpt>
      <trkpt lat="48.42421" lon="2.5116">
        <ele>126.1</ele>
        <time>2013-01-28T10:24:53Z</time>
      </trkpt>
      <trkpt lat="48.42414" lon="2.51203">
        <ele>123.7</ele>
        <time>2013-01-28T10:24:59Z</time>
      </trkpt>
      <trkpt lat="48.42403" lon="2.51235">
        <ele>124.9</ele>
        <time>2013-01-28T10:25:05Z</time>
      </trkpt>
      <trkpt lat="48.42397" lon="2.51263">
        <ele>126.9</ele>
        <time>2013-01-28T10:25:10Z</time>
      </trkpt>
      <trkpt lat="48.4239" lon="2.51285">
        <ele>125.9</ele>
        <time>2013-01-28T10:25:15Z</time>
      </trkpt>
      <trkpt lat="48.42387" lon="2.5133">
        <ele>128.3</ele>
        <time>2013-01-28T10:25:23Z</time>
      </trkpt>
      <trkpt lat="48.42383" lon="2.51365">
        <ele>129.8</ele>
        <time>2013-01-28T10:25:29Z</time>
      </trkpt>
      <trkpt lat="48.42377" lon="2.51393">
        <ele>127.9</ele>
        <time>2013-01-28T10:25:34Z</time>
      </trkpt>
      <trkpt lat="48.4237" lon="2.51422">
        <ele>130.5</ele>
        <time>2013-01-28T10:25:39Z</time>
      </trkpt>
      <trkpt lat="48.42359" lon="2.51454">
        <ele>129.1</ele>
        <time>2013-01-28T10:25:45Z</time>
      </trkpt>
      <trkpt lat="48.42349" lon="2.5148">
        <ele>130.1</ele>
        <time>2013-01-28T10:25:50Z</time>
      </trkpt>
      <trkpt lat="48.42335" lon="2.51502">
        <ele>132.2</ele>
        <time>2013-01-28T10:25:57Z</time>
      </trkpt>
      <trkpt lat="48.42319" lon="2.51542">
        <ele>132.2</ele>
        <time>2013-01-28T10:26:03Z</time>
      </trkpt>
      <trkpt lat="48.42302" lon="2.5158">
        <ele>132.2</ele>
        <time>2013-01-28T10:26:10Z</time>
      </trkpt>
      <trkpt lat="48.42292" lon="2.51614">
        <ele>129.1</ele>
        <time>2013-01-28T10:26:16Z</time>
      </trkpt>
      <trkpt lat="48.42288" lon="2.5164">
        <ele>130</ele>
        <time>2013-01-28T10:26:21Z</time>
      </trkpt>
      <trkpt lat="48.42272" lon="2.51661">
        <ele>134.8</ele>
        <time>2013-01-28T10:26:28Z</time>
      </trkpt>
      <trkpt lat="48.42248" lon="2.51692">
        <ele>123.8</ele>
        <time>2013-01-28T10:26:36Z</time>
      </trkpt>
      <trkpt lat="48.42242" lon="2.51725">
        <ele>126.5</ele>
        <time>2013-01-28T10:26:42Z</time>
      </trkpt>
      <trkpt lat="48.42231" lon="2.51763">
        <ele>128.1</ele>
        <time>2013-01-28T10:26:48Z</time>
      </trkpt>
      <trkpt lat="48.42221" lon="2.51783">
        <ele>141.2</ele>
        <time>2013-01-28T10:26:54Z</time>
      </trkpt>
      <trkpt lat="48.4222" lon="2.51807">
        <ele>136.6</ele>
        <time>2013-01-28T10:26:59Z</time>
      </trkpt>
      <trkpt lat="48.42217" lon="2.51841">
        <ele>135.3</ele>
        <time>2013-01-28T10:27:05Z</time>
      </trkpt>
      <trkpt lat="48.42209" lon="2.51866">
        <ele>131.2</ele>
        <time>2013-01-28T10:27:09Z</time>
      </trkpt>
      <trkpt lat="48.42176" lon="2.51913">
        <ele>129.2</ele>
        <time>2013-01-28T10:27:15Z</time>
      </trkpt>
      <trkpt lat="48.42163" lon="2.5196">
        <ele>124.7</ele>
        <time>2013-01-28T10:27:23Z</time>
      </trkpt>
      <trkpt lat="48.42157" lon="2.51963">
        <ele>123.1</ele>
        <time>2013-01-28T10:27:26Z</time>
      </trkpt>
      <trkpt lat="48.42151" lon="2.51969">
        <ele>125.1</ele>
        <time>2013-01-28T10:27:33Z</time>
      </trkpt>
      <trkpt lat="48.42163" lon="2.51951">
        <ele>121.9</ele>
        <time>2013-01-28T10:27:44Z</time>
      </trkpt>
      <trkpt lat="48.42176" lon="2.51921">
        <ele>121.9</ele>
        <time>2013-01-28T10:27:49Z</time>
      </trkpt>
      <trkpt lat="48.42187" lon="2.51893">
        <ele>123.3</ele>
        <time>2013-01-28T10:27:53Z</time>
      </trkpt>
      <trkpt lat="48.42204" lon="2.51846">
        <ele>129.4</ele>
        <time>2013-01-28T10:28:01Z</time>
      </trkpt>
      <trkpt lat="48.42211" lon="2.51816">
        <ele>130.1</ele>
        <time>2013-01-28T10:28:07Z</time>
      </trkpt>
      <trkpt lat="48.42215" lon="2.51793">
        <ele>133</ele>
        <time>2013-01-28T10:28:11Z</time>
      </trkpt>
      <trkpt lat="48.4222" lon="2.51764">
        <ele>134.2</ele>
        <time>2013-01-28T10:28:16Z</time>
      </trkpt>
      <trkpt lat="48.42223" lon="2.51767">
        <ele>134.8</ele>
        <time>2013-01-28T10:28:22Z</time>
      </trkpt>
      <trkpt lat="48.42203" lon="2.51759">
        <ele>131.9</ele>
        <time>2013-01-28T10:29:38Z</time>
      </trkpt>
      <trkpt lat="48.42203" lon="2.51759">
        <ele>131.9</ele>
        <time>2013-01-28T10:29:45Z</time>
      </trkpt>
      <trkpt lat="48.42203" lon="2.51759">
        <ele>131.9</ele>
        <time>2013-01-28T10:29:46Z</time>
      </trkpt>
      <trkpt lat="48.42199" lon="2.51733">
        <ele>128.6</ele>
        <time>2013-01-28T10:29:54Z</time>
      </trkpt>
      <trkpt lat="48.42199" lon="2.51733">
        <ele>128.6</ele>
        <time>2013-01-28T10:30:03Z</time>
      </trkpt>
      <trkpt lat="48.42199" lon="2.51733">
        <ele>128.6</ele>
        <time>2013-01-28T10:30:04Z</time>
      </trkpt>
      <trkpt lat="48.42219" lon="2.51757">
        <ele>131.6</ele>
        <time>2013-01-28T10:33:53Z</time>
      </trkpt>
      <trkpt lat="48.4222" lon="2.51778">
        <ele>124.3</ele>
        <time>2013-01-28T10:34:01Z</time>
      </trkpt>
      <trkpt lat="48.42215" lon="2.51797">
        <ele>123.1</ele>
        <time>2013-01-28T10:34:08Z</time>
      </trkpt>
      <trkpt lat="48.42213" lon="2.51824">
        <ele>126.9</ele>
        <time>2013-01-28T10:34:17Z</time>
      </trkpt>
      <trkpt lat="48.42211" lon="2.51841">
        <ele>131.1</ele>
        <time>2013-01-28T10:34:29Z</time>
      </trkpt>
      <trkpt lat="48.42177" lon="2.51919">
        <ele>126.1</ele>
        <time>2013-01-28T10:34:38Z</time>
      </trkpt>
      <trkpt lat="48.42161" lon="2.51957">
        <ele>124.2</ele>
        <time>2013-01-28T10:34:44Z</time>
      </trkpt>
      <trkpt lat="48.42144" lon="2.51964">
        <ele>125.6</ele>
        <time>2013-01-28T10:34:49Z</time>
      </trkpt>
      <trkpt lat="48.42121" lon="2.5196">
        <ele>126.2</ele>
        <time>2013-01-28T10:34:57Z</time>
      </trkpt>
      <trkpt lat="48.42091" lon="2.51944">
        <ele>134.8</ele>
        <time>2013-01-28T10:35:07Z</time>
      </trkpt>
      <trkpt lat="48.42081" lon="2.51899">
        <ele>135</ele>
        <time>2013-01-28T10:35:13Z</time>
      </trkpt>
      <trkpt lat="48.42072" lon="2.51876">
        <ele>135.7</ele>
        <time>2013-01-28T10:35:18Z</time>
      </trkpt>
      <trkpt lat="48.42063" lon="2.5182">
        <ele>140.1</ele>
        <time>2013-01-28T10:35:26Z</time>
      </trkpt>
      <trkpt lat="48.42065" lon="2.51769">
        <ele>140.5</ele>
        <time>2013-01-28T10:35:33Z</time>
      </trkpt>
      <trkpt lat="48.42076" lon="2.51726">
        <ele>137.2</ele>
        <time>2013-01-28T10:35:40Z</time>
      </trkpt>
      <trkpt lat="48.42086" lon="2.51684">
        <ele>137.7</ele>
        <time>2013-01-28T10:35:47Z</time>
      </trkpt>
      <trkpt lat="48.42095" lon="2.51647">
        <ele>139.4</ele>
        <time>2013-01-28T10:35:53Z</time>
      </trkpt>
      <trkpt lat="48.42099" lon="2.51615">
        <ele>138.3</ele>
        <time>2013-01-28T10:35:58Z</time>
      </trkpt>
      <trkpt lat="48.42104" lon="2.51568">
        <ele>132.7</ele>
        <time>2013-01-28T10:36:03Z</time>
      </trkpt>
      <trkpt lat="48.42097" lon="2.51544">
        <ele>137.7</ele>
        <time>2013-01-28T10:36:07Z</time>
      </trkpt>
      <trkpt lat="48.42092" lon="2.5151">
        <ele>136.2</ele>
        <time>2013-01-28T10:36:12Z</time>
      </trkpt>
      <trkpt lat="48.42095" lon="2.51473">
        <ele>134.2</ele>
        <time>2013-01-28T10:36:18Z</time>
      </trkpt>
      <trkpt lat="48.42115" lon="2.51437">
        <ele>133.4</ele>
        <time>2013-01-28T10:36:25Z</time>
      </trkpt>
      <trkpt lat="48.42133" lon="2.51399">
        <ele>131.5</ele>
        <time>2013-01-28T10:36:31Z</time>
      </trkpt>
      <trkpt lat="48.42138" lon="2.51357">
        <ele>130.7</ele>
        <time>2013-01-28T10:36:38Z</time>
      </trkpt>
      <trkpt lat="48.42133" lon="2.51316">
        <ele>134.5</ele>
        <time>2013-01-28T10:36:43Z</time>
      </trkpt>
      <trkpt lat="48.42137" lon="2.51271">
        <ele>130.5</ele>
        <time>2013-01-28T10:36:49Z</time>
      </trkpt>
      <trkpt lat="48.42146" lon="2.51235">
        <ele>128.1</ele>
        <time>2013-01-28T10:36:55Z</time>
      </trkpt>
      <trkpt lat="48.42153" lon="2.51205">
        <ele>126.1</ele>
        <time>2013-01-28T10:37:01Z</time>
      </trkpt>
      <trkpt lat="48.42174" lon="2.51162">
        <ele>133.6</ele>
        <time>2013-01-28T10:37:09Z</time>
      </trkpt>
      <trkpt lat="48.4217" lon="2.51123">
        <ele>135.1</ele>
        <time>2013-01-28T10:37:15Z</time>
      </trkpt>
      <trkpt lat="48.4217" lon="2.51079">
        <ele>136.7</ele>
        <time>2013-01-28T10:37:21Z</time>
      </trkpt>
      <trkpt lat="48.42186" lon="2.5104">
        <ele>138.6</ele>
        <time>2013-01-28T10:37:28Z</time>
      </trkpt>
      <trkpt lat="48.42197" lon="2.50991">
        <ele>140.3</ele>
        <time>2013-01-28T10:37:36Z</time>
      </trkpt>
      <trkpt lat="48.42199" lon="2.50957">
        <ele>140</ele>
        <time>2013-01-28T10:37:42Z</time>
      </trkpt>
      <trkpt lat="48.422" lon="2.5093">
        <ele>140.5</ele>
        <time>2013-01-28T10:37:47Z</time>
      </trkpt>
      <trkpt lat="48.42203" lon="2.50901">
        <ele>142.6</ele>
        <time>2013-01-28T10:37:52Z</time>
      </trkpt>
      <trkpt lat="48.42212" lon="2.50866">
        <ele>137.6</ele>
        <time>2013-01-28T10:37:58Z</time>
      </trkpt>
      <trkpt lat="48.42218" lon="2.50818">
        <ele>134.9</ele>
        <time>2013-01-28T10:38:05Z</time>
      </trkpt>
      <trkpt lat="48.42224" lon="2.50774">
        <ele>134.7</ele>
        <time>2013-01-28T10:38:11Z</time>
      </trkpt>
      <trkpt lat="48.42231" lon="2.50749">
        <ele>132.5</ele>
        <time>2013-01-28T10:38:16Z</time>
      </trkpt>
      <trkpt lat="48.42246" lon="2.50696">
        <ele>134.8</ele>
        <time>2013-01-28T10:38:25Z</time>
      </trkpt>
      <trkpt lat="48.42255" lon="2.50664">
        <ele>135.9</ele>
        <time>2013-01-28T10:38:31Z</time>
      </trkpt>
      <trkpt lat="48.42261" lon="2.50624">
        <ele>135.7</ele>
        <time>2013-01-28T10:38:37Z</time>
      </trkpt>
      <trkpt lat="48.42277" lon="2.50587">
        <ele>132.3</ele>
        <time>2013-01-28T10:38:43Z</time>
      </trkpt>
      <trkpt lat="48.42296" lon="2.50554">
        <ele>132.8</ele>
        <time>2013-01-28T10:38:49Z</time>
      </trkpt>
      <trkpt lat="48.42316" lon="2.50533">
        <ele>132.8</ele>
        <time>2013-01-28T10:38:54Z</time>
      </trkpt>
      <trkpt lat="48.42343" lon="2.50499">
        <ele>131.1</ele>
        <time>2013-01-28T10:39:02Z</time>
      </trkpt>
      <trkpt lat="48.42368" lon="2.50478">
        <ele>129.9</ele>
        <time>2013-01-28T10:39:08Z</time>
      </trkpt>
      <trkpt lat="48.42388" lon="2.50456">
        <ele>131</ele>
        <time>2013-01-28T10:39:14Z</time>
      </trkpt>
      <trkpt lat="48.42397" lon="2.50442">
        <ele>131.5</ele>
        <time>2013-01-28T10:39:20Z</time>
      </trkpt>
      <trkpt lat="48.42397" lon="2.50442">
        <ele>131.5</ele>
        <time>2013-01-28T10:39:25Z</time>
      </trkpt>
      <trkpt lat="48.42397" lon="2.50442">
        <ele>131.5</ele>
        <time>2013-01-28T10:39:26Z</time>
      </trkpt>
      <trkpt lat="48.42405" lon="2.50429">
        <ele>139</ele>
        <time>2013-01-28T10:39:40Z</time>
      </trkpt>
      <trkpt lat="48.42414" lon="2.50421">
        <ele>141.8</ele>
        <time>2013-01-28T10:39:47Z</time>
      </trkpt>
      <trkpt lat="48.42414" lon="2.50418">
        <ele>141.9</ele>
        <time>2013-01-28T10:39:56Z</time>
      </trkpt>
      <trkpt lat="48.42442" lon="2.50404">
        <ele>146.9</ele>
        <time>2013-01-28T10:41:10Z</time>
      </trkpt>
      <trkpt lat="48.42442" lon="2.50404">
        <ele>146.9</ele>
        <time>2013-01-28T10:41:17Z</time>
      </trkpt>
      <trkpt lat="48.42442" lon="2.50404">
        <ele>146.9</ele>
        <time>2013-01-28T10:41:18Z</time>
      </trkpt>
      <trkpt lat="48.42477" lon="2.50389">
        <ele>144</ele>
        <time>2013-01-28T10:43:31Z</time>
      </trkpt>
      <trkpt lat="48.42486" lon="2.50383">
        <ele>145.2</ele>
        <time>2013-01-28T10:43:36Z</time>
      </trkpt>
      <trkpt lat="48.42497" lon="2.50374">
        <ele>143.6</ele>
        <time>2013-01-28T10:43:46Z</time>
      </trkpt>
      <trkpt lat="48.42588" lon="2.50325">
        <ele>127.6</ele>
        <time>2013-01-28T10:44:01Z</time>
      </trkpt>
      <trkpt lat="48.42611" lon="2.50316">
        <ele>126.3</ele>
        <time>2013-01-28T10:44:09Z</time>
      </trkpt>
      <trkpt lat="48.42611" lon="2.50316">
        <ele>126.3</ele>
        <time>2013-01-28T10:44:16Z</time>
      </trkpt>
      <trkpt lat="48.42611" lon="2.50316">
        <ele>126.3</ele>
        <time>2013-01-28T10:44:17Z</time>
      </trkpt>
      <trkpt lat="48.42646" lon="2.50311">
        <ele>113.6</ele>
        <time>2013-01-28T10:44:51Z</time>
      </trkpt>
      <trkpt lat="48.42672" lon="2.50295">
        <ele>117.9</ele>
        <time>2013-01-28T10:45:01Z</time>
      </trkpt>
      <trkpt lat="48.4269" lon="2.50288">
        <ele>117.3</ele>
        <time>2013-01-28T10:45:06Z</time>
      </trkpt>
      <trkpt lat="48.42701" lon="2.50284">
        <ele>116.8</ele>
        <time>2013-01-28T10:45:09Z</time>
      </trkpt>
      <trkpt lat="48.42722" lon="2.50273">
        <ele>120.4</ele>
        <time>2013-01-28T10:45:15Z</time>
      </trkpt>
      <trkpt lat="48.42737" lon="2.50267">
        <ele>120.6</ele>
        <time>2013-01-28T10:45:19Z</time>
      </trkpt>
      <trkpt lat="48.42756" lon="2.50256">
        <ele>123.2</ele>
        <time>2013-01-28T10:45:24Z</time>
      </trkpt>
      <trkpt lat="48.42781" lon="2.50244">
        <ele>123.1</ele>
        <time>2013-01-28T10:45:30Z</time>
      </trkpt>
      <trkpt lat="48.42794" lon="2.50238">
        <ele>124.7</ele>
        <time>2013-01-28T10:45:33Z</time>
      </trkpt>
      <trkpt lat="48.42817" lon="2.50228">
        <ele>126</ele>
        <time>2013-01-28T10:45:38Z</time>
      </trkpt>
      <trkpt lat="48.42838" lon="2.50216">
        <ele>125.3</ele>
        <time>2013-01-28T10:45:43Z</time>
      </trkpt>
      <trkpt lat="48.42846" lon="2.50206">
        <ele>125.2</ele>
        <time>2013-01-28T10:45:49Z</time>
      </trkpt>
      <trkpt lat="48.42846" lon="2.50206">
        <ele>125.2</ele>
        <time>2013-01-28T10:45:58Z</time>
      </trkpt>
      <trkpt lat="48.42846" lon="2.50206">
        <ele>125.2</ele>
        <time>2013-01-28T10:46:00Z</time>
      </trkpt>
      <trkpt lat="48.42874" lon="2.50194">
        <ele>119.9</ele>
        <time>2013-01-28T10:46:40Z</time>
      </trkpt>
      <trkpt lat="48.42894" lon="2.50187">
        <ele>118.3</ele>
        <time>2013-01-28T10:46:46Z</time>
      </trkpt>
      <trkpt lat="48.42914" lon="2.50178">
        <ele>117.4</ele>
        <time>2013-01-28T10:46:53Z</time>
      </trkpt>
      <trkpt lat="48.42923" lon="2.50174">
        <ele>118.1</ele>
        <time>2013-01-28T10:46:56Z</time>
      </trkpt>
      <trkpt lat="48.42935" lon="2.50169">
        <ele>117.2</ele>
        <time>2013-01-28T10:47:00Z</time>
      </trkpt>
      <trkpt lat="48.42959" lon="2.5016">
        <ele>118.8</ele>
        <time>2013-01-28T10:47:07Z</time>
      </trkpt>
      <trkpt lat="48.42985" lon="2.50151">
        <ele>119.7</ele>
        <time>2013-01-28T10:47:15Z</time>
      </trkpt>
      <trkpt lat="48.43004" lon="2.50146">
        <ele>120.2</ele>
        <time>2013-01-28T10:47:23Z</time>
      </trkpt>
      <trkpt lat="48.43029" lon="2.50134">
        <ele>120.2</ele>
        <time>2013-01-28T10:47:31Z</time>
      </trkpt>
      <trkpt lat="48.43049" lon="2.50123">
        <ele>119.6</ele>
        <time>2013-01-28T10:47:38Z</time>
      </trkpt>
      <trkpt lat="48.43058" lon="2.50118">
        <ele>119.7</ele>
        <time>2013-01-28T10:47:41Z</time>
      </trkpt>
      <trkpt lat="48.43079" lon="2.50106">
        <ele>122.6</ele>
        <time>2013-01-28T10:47:48Z</time>
      </trkpt>
      <trkpt lat="48.43101" lon="2.50097">
        <ele>123.2</ele>
        <time>2013-01-28T10:47:56Z</time>
      </trkpt>
      <trkpt lat="48.43122" lon="2.50089">
        <ele>125.4</ele>
        <time>2013-01-28T10:48:03Z</time>
      </trkpt>
      <trkpt lat="48.43144" lon="2.50079">
        <ele>129.7</ele>
        <time>2013-01-28T10:48:11Z</time>
      </trkpt>
      <trkpt lat="48.43164" lon="2.50067">
        <ele>134.3</ele>
        <time>2013-01-28T10:48:19Z</time>
      </trkpt>
      <trkpt lat="48.43182" lon="2.50059">
        <ele>136.3</ele>
        <time>2013-01-28T10:48:27Z</time>
      </trkpt>
      <trkpt lat="48.43201" lon="2.50051">
        <ele>136.1</ele>
        <time>2013-01-28T10:48:37Z</time>
      </trkpt>
      <trkpt lat="48.43211" lon="2.50047">
        <ele>134.9</ele>
        <time>2013-01-28T10:48:43Z</time>
      </trkpt>
      <trkpt lat="48.43235" lon="2.50039">
        <ele>135.8</ele>
        <time>2013-01-28T10:48:52Z</time>
      </trkpt>
      <trkpt lat="48.43242" lon="2.50037">
        <ele>134.7</ele>
        <time>2013-01-28T10:48:55Z</time>
      </trkpt>
      <trkpt lat="48.43261" lon="2.50024">
        <ele>138.6</ele>
        <time>2013-01-28T10:49:04Z</time>
      </trkpt>
      <trkpt lat="48.43272" lon="2.50002">
        <ele>138</ele>
        <time>2013-01-28T10:49:14Z</time>
      </trkpt>
      <trkpt lat="48.43277" lon="2.49998">
        <ele>138.7</ele>
        <time>2013-01-28T10:49:19Z</time>
      </trkpt>
      <trkpt lat="48.43282" lon="2.49988">
        <ele>141.5</ele>
        <time>2013-01-28T10:49:32Z</time>
      </trkpt>
      <trkpt lat="48.4329" lon="2.49949">
        <ele>141.8</ele>
        <time>2013-01-28T10:49:49Z</time>
      </trkpt>
      <trkpt lat="48.43296" lon="2.49913">
        <ele>136.9</ele>
        <time>2013-01-28T10:49:57Z</time>
      </trkpt>
      <trkpt lat="48.43305" lon="2.49879">
        <ele>140</ele>
        <time>2013-01-28T10:50:04Z</time>
      </trkpt>
      <trkpt lat="48.43314" lon="2.49844">
        <ele>138.4</ele>
        <time>2013-01-28T10:50:11Z</time>
      </trkpt>
      <trkpt lat="48.43322" lon="2.49811">
        <ele>138.2</ele>
        <time>2013-01-28T10:50:17Z</time>
      </trkpt>
      <trkpt lat="48.43327" lon="2.49795">
        <ele>138.7</ele>
        <time>2013-01-28T10:50:20Z</time>
      </trkpt>
      <trkpt lat="48.43332" lon="2.49774">
        <ele>141.1</ele>
        <time>2013-01-28T10:50:24Z</time>
      </trkpt>
      <trkpt lat="48.43336" lon="2.49753">
        <ele>141.6</ele>
        <time>2013-01-28T10:50:28Z</time>
      </trkpt>
      <trkpt lat="48.43343" lon="2.49725">
        <ele>141.1</ele>
        <time>2013-01-28T10:50:35Z</time>
      </trkpt>
      <trkpt lat="48.43351" lon="2.49703">
        <ele>140.5</ele>
        <time>2013-01-28T10:50:47Z</time>
      </trkpt>
      <trkpt lat="48.43335" lon="2.49721">
        <ele>137.4</ele>
        <time>2013-01-28T10:51:04Z</time>
      </trkpt>
      <trkpt lat="48.43325" lon="2.49761">
        <ele>133.6</ele>
        <time>2013-01-28T10:51:10Z</time>
      </trkpt>
      <trkpt lat="48.43326" lon="2.498">
        <ele>139.1</ele>
        <time>2013-01-28T10:51:15Z</time>
      </trkpt>
      <trkpt lat="48.43309" lon="2.49841">
        <ele>138.8</ele>
        <time>2013-01-28T10:51:22Z</time>
      </trkpt>
      <trkpt lat="48.43304" lon="2.49887">
        <ele>137.8</ele>
        <time>2013-01-28T10:51:27Z</time>
      </trkpt>
      <trkpt lat="48.43292" lon="2.49926">
        <ele>137</ele>
        <time>2013-01-28T10:51:33Z</time>
      </trkpt>
      <trkpt lat="48.43287" lon="2.49969">
        <ele>134.8</ele>
        <time>2013-01-28T10:51:39Z</time>
      </trkpt>
      <trkpt lat="48.43266" lon="2.50012">
        <ele>130.4</ele>
        <time>2013-01-28T10:51:47Z</time>
      </trkpt>
      <trkpt lat="48.43253" lon="2.50032">
        <ele>128.8</ele>
        <time>2013-01-28T10:51:53Z</time>
      </trkpt>
      <trkpt lat="48.43221" lon="2.50046">
        <ele>128.5</ele>
        <time>2013-01-28T10:51:59Z</time>
      </trkpt>
      <trkpt lat="48.43181" lon="2.50063">
        <ele>131.1</ele>
        <time>2013-01-28T10:52:05Z</time>
      </trkpt>
      <trkpt lat="48.43157" lon="2.50073">
        <ele>127.4</ele>
        <time>2013-01-28T10:52:08Z</time>
      </trkpt>
      <trkpt lat="48.43134" lon="2.50083">
        <ele>124.8</ele>
        <time>2013-01-28T10:52:11Z</time>
      </trkpt>
      <trkpt lat="48.43111" lon="2.50094">
        <ele>123.4</ele>
        <time>2013-01-28T10:52:14Z</time>
      </trkpt>
      <trkpt lat="48.43088" lon="2.50103">
        <ele>123.2</ele>
        <time>2013-01-28T10:52:17Z</time>
      </trkpt>
      <trkpt lat="48.43044" lon="2.50124">
        <ele>119.8</ele>
        <time>2013-01-28T10:52:23Z</time>
      </trkpt>
      <trkpt lat="48.43027" lon="2.50135">
        <ele>117.5</ele>
        <time>2013-01-28T10:52:26Z</time>
      </trkpt>
      <trkpt lat="48.43001" lon="2.50148">
        <ele>116.3</ele>
        <time>2013-01-28T10:52:32Z</time>
      </trkpt>
      <trkpt lat="48.42979" lon="2.50154">
        <ele>119.8</ele>
        <time>2013-01-28T10:52:37Z</time>
      </trkpt>
      <trkpt lat="48.42961" lon="2.50161">
        <ele>119.3</ele>
        <time>2013-01-28T10:52:40Z</time>
      </trkpt>
      <trkpt lat="48.42933" lon="2.50174">
        <ele>118.2</ele>
        <time>2013-01-28T10:52:45Z</time>
      </trkpt>
      <trkpt lat="48.42897" lon="2.50193">
        <ele>116.4</ele>
        <time>2013-01-28T10:52:51Z</time>
      </trkpt>
      <trkpt lat="48.42878" lon="2.50204">
        <ele>116.9</ele>
        <time>2013-01-28T10:52:54Z</time>
      </trkpt>
      <trkpt lat="48.42853" lon="2.50214">
        <ele>121.6</ele>
        <time>2013-01-28T10:53:02Z</time>
      </trkpt>
      <trkpt lat="48.42853" lon="2.50214">
        <ele>72.2</ele>
        <time>2013-01-28T10:57:19Z</time>
      </trkpt>
      <trkpt lat="48.42853" lon="2.50214">
        <ele>72.2</ele>
        <time>2013-01-28T11:00:13Z</time>
      </trkpt>
      <trkpt lat="48.42848" lon="2.50219">
        <ele>121</ele>
        <time>2013-01-28T11:00:15Z</time>
      </trkpt>
      <trkpt lat="48.42837" lon="2.50228">
        <ele>123.5</ele>
        <time>2013-01-28T11:01:16Z</time>
      </trkpt>
      <trkpt lat="48.42816" lon="2.50234">
        <ele>123.3</ele>
        <time>2013-01-28T11:01:23Z</time>
      </trkpt>
      <trkpt lat="48.42776" lon="2.50253">
        <ele>125.9</ele>
        <time>2013-01-28T11:01:31Z</time>
      </trkpt>
      <trkpt lat="48.42749" lon="2.50264">
        <ele>121.6</ele>
        <time>2013-01-28T11:01:37Z</time>
      </trkpt>
      <trkpt lat="48.42726" lon="2.50275">
        <ele>119.6</ele>
        <time>2013-01-28T11:01:42Z</time>
      </trkpt>
      <trkpt lat="48.42704" lon="2.50284">
        <ele>117.7</ele>
        <time>2013-01-28T11:01:48Z</time>
      </trkpt>
      <trkpt lat="48.42676" lon="2.50293">
        <ele>117.8</ele>
        <time>2013-01-28T11:01:54Z</time>
      </trkpt>
      <trkpt lat="48.42639" lon="2.50313">
        <ele>119.6</ele>
        <time>2013-01-28T11:02:02Z</time>
      </trkpt>
      <trkpt lat="48.42611" lon="2.50331">
        <ele>119.6</ele>
        <time>2013-01-28T11:02:08Z</time>
      </trkpt>
      <trkpt lat="48.42588" lon="2.50343">
        <ele>120.4</ele>
        <time>2013-01-28T11:02:13Z</time>
      </trkpt>
      <trkpt lat="48.42566" lon="2.50348">
        <ele>119.2</ele>
        <time>2013-01-28T11:02:19Z</time>
      </trkpt>
      <trkpt lat="48.42555" lon="2.50346">
        <ele>118.5</ele>
        <time>2013-01-28T11:02:24Z</time>
      </trkpt>
      <trkpt lat="48.42532" lon="2.50363">
        <ele>119.8</ele>
        <time>2013-01-28T11:02:37Z</time>
      </trkpt>
      <trkpt lat="48.42525" lon="2.50373">
        <ele>131.6</ele>
        <time>2013-01-28T11:02:48Z</time>
      </trkpt>
      <trkpt lat="48.42517" lon="2.50378">
        <ele>137.9</ele>
        <time>2013-01-28T11:02:55Z</time>
      </trkpt>
      <trkpt lat="48.42513" lon="2.50379">
        <ele>138</ele>
        <time>2013-01-28T11:03:04Z</time>
      </trkpt>
      <trkpt lat="48.42487" lon="2.50393">
        <ele>136.2</ele>
        <time>2013-01-28T11:05:23Z</time>
      </trkpt>
      <trkpt lat="48.42461" lon="2.50406">
        <ele>149.3</ele>
        <time>2013-01-28T11:06:09Z</time>
      </trkpt>
      <trkpt lat="48.4245" lon="2.5041">
        <ele>152.5</ele>
        <time>2013-01-28T11:06:19Z</time>
      </trkpt>
      <trkpt lat="48.4245" lon="2.5041">
        <ele>152.5</ele>
        <time>2013-01-28T11:06:26Z</time>
      </trkpt>
      <trkpt lat="48.4245" lon="2.5041">
        <ele>152.5</ele>
        <time>2013-01-28T11:06:28Z</time>
      </trkpt>
      <trkpt lat="48.42434" lon="2.5041">
        <ele>147</ele>
        <time>2013-01-28T11:07:59Z</time>
      </trkpt>
      <trkpt lat="48.42434" lon="2.5041">
        <ele>147</ele>
        <time>2013-01-28T11:09:59Z</time>
      </trkpt>
      <trkpt lat="48.42406" lon="2.5043">
        <ele>137</ele>
        <time>2013-01-28T11:10:01Z</time>
      </trkpt>
      <trkpt lat="48.42383" lon="2.50467">
        <ele>131.3</ele>
        <time>2013-01-28T11:10:54Z</time>
      </trkpt>
      <trkpt lat="48.4235" lon="2.50495">
        <ele>131.3</ele>
        <time>2013-01-28T11:11:01Z</time>
      </trkpt>
      <trkpt lat="48.4235" lon="2.50495">
        <ele>131.3</ele>
        <time>2013-01-28T11:11:06Z</time>
      </trkpt>
      <trkpt lat="48.4235" lon="2.50495">
        <ele>131.3</ele>
        <time>2013-01-28T11:11:07Z</time>
      </trkpt>
      <trkpt lat="48.42326" lon="2.5053">
        <ele>129.7</ele>
        <time>2013-01-28T11:11:43Z</time>
      </trkpt>
      <trkpt lat="48.42306" lon="2.50545">
        <ele>135</ele>
        <time>2013-01-28T11:11:53Z</time>
      </trkpt>
      <trkpt lat="48.42289" lon="2.50566">
        <ele>142.5</ele>
        <time>2013-01-28T11:12:02Z</time>
      </trkpt>
      <trkpt lat="48.42278" lon="2.50583">
        <ele>143.8</ele>
        <time>2013-01-28T11:12:07Z</time>
      </trkpt>
      <trkpt lat="48.42262" lon="2.50608">
        <ele>140.4</ele>
        <time>2013-01-28T11:12:15Z</time>
      </trkpt>
      <trkpt lat="48.42252" lon="2.50626">
        <ele>144.1</ele>
        <time>2013-01-28T11:12:23Z</time>
      </trkpt>
      <trkpt lat="48.42227" lon="2.50637">
        <ele>147.8</ele>
        <time>2013-01-28T11:12:33Z</time>
      </trkpt>
      <trkpt lat="48.4222" lon="2.50634">
        <ele>143.3</ele>
        <time>2013-01-28T11:12:39Z</time>
      </trkpt>
      <trkpt lat="48.42211" lon="2.50633">
        <ele>146.4</ele>
        <time>2013-01-28T11:12:50Z</time>
      </trkpt>
      <trkpt lat="48.42208" lon="2.50632">
        <ele>147.4</ele>
        <time>2013-01-28T11:12:59Z</time>
      </trkpt>
      <trkpt lat="48.42211" lon="2.50633">
        <ele>146.4</ele>
        <time>2013-01-28T11:13:07Z</time>
      </trkpt>
      <trkpt lat="48.42186" lon="2.50638">
        <ele>149.3</ele>
        <time>2013-01-28T11:13:56Z</time>
      </trkpt>
      <trkpt lat="48.42186" lon="2.50638">
        <ele>149.3</ele>
        <time>2013-01-28T11:16:05Z</time>
      </trkpt>
      <trkpt lat="48.42158" lon="2.50665">
        <ele>147.7</ele>
        <time>2013-01-28T11:16:17Z</time>
      </trkpt>
      <trkpt lat="48.42128" lon="2.50682">
        <ele>154.4</ele>
        <time>2013-01-28T11:17:05Z</time>
      </trkpt>
      <trkpt lat="48.42116" lon="2.50677">
        <ele>152.7</ele>
        <time>2013-01-28T11:17:20Z</time>
      </trkpt>
      <trkpt lat="48.42096" lon="2.50685">
        <ele>160.5</ele>
        <time>2013-01-28T11:17:42Z</time>
      </trkpt>
      <trkpt lat="48.42092" lon="2.50682">
        <ele>159.6</ele>
        <time>2013-01-28T11:17:45Z</time>
      </trkpt>
      <trkpt lat="48.42088" lon="2.50677">
        <ele>163.7</ele>
        <time>2013-01-28T11:17:56Z</time>
      </trkpt>
      <trkpt lat="48.42088" lon="2.50677">
        <ele>163.7</ele>
        <time>2013-01-28T11:18:04Z</time>
      </trkpt>
      <trkpt lat="48.42088" lon="2.50677">
        <ele>163.7</ele>
        <time>2013-01-28T11:18:05Z</time>
      </trkpt>
      <trkpt lat="48.42057" lon="2.50677">
        <ele>165.4</ele>
        <time>2013-01-28T11:19:31Z</time>
      </trkpt>
      <trkpt lat="48.42049" lon="2.50651">
        <ele>166.4</ele>
        <time>2013-01-28T11:19:52Z</time>
      </trkpt>
      <trkpt lat="48.42063" lon="2.50603">
        <ele>165</ele>
        <time>2013-01-28T11:20:00Z</time>
      </trkpt>
      <trkpt lat="48.42065" lon="2.50553">
        <ele>165.1</ele>
        <time>2013-01-28T11:20:06Z</time>
      </trkpt>
      <trkpt lat="48.42067" lon="2.50519">
        <ele>166.1</ele>
        <time>2013-01-28T11:20:11Z</time>
      </trkpt>
      <trkpt lat="48.42077" lon="2.50487">
        <ele>165.2</ele>
        <time>2013-01-28T11:20:17Z</time>
      </trkpt>
      <trkpt lat="48.42086" lon="2.50472">
        <ele>167.6</ele>
        <time>2013-01-28T11:20:25Z</time>
      </trkpt>
      <trkpt lat="48.42095" lon="2.50437">
        <ele>171.1</ele>
        <time>2013-01-28T11:20:35Z</time>
      </trkpt>
      <trkpt lat="48.42099" lon="2.50411">
        <ele>171.7</ele>
        <time>2013-01-28T11:20:41Z</time>
      </trkpt>
      <trkpt lat="48.42104" lon="2.50391">
        <ele>174.1</ele>
        <time>2013-01-28T11:20:48Z</time>
      </trkpt>
      <trkpt lat="48.42102" lon="2.50366">
        <ele>172.6</ele>
        <time>2013-01-28T11:20:56Z</time>
      </trkpt>
      <trkpt lat="48.42104" lon="2.50333">
        <ele>172.2</ele>
        <time>2013-01-28T11:21:04Z</time>
      </trkpt>
      <trkpt lat="48.42094" lon="2.50306">
        <ele>169.2</ele>
        <time>2013-01-28T11:21:10Z</time>
      </trkpt>
      <trkpt lat="48.42092" lon="2.50274">
        <ele>166.9</ele>
        <time>2013-01-28T11:21:16Z</time>
      </trkpt>
      <trkpt lat="48.42094" lon="2.50239">
        <ele>165.8</ele>
        <time>2013-01-28T11:21:22Z</time>
      </trkpt>
      <trkpt lat="48.42088" lon="2.50211">
        <ele>165.6</ele>
        <time>2013-01-28T11:21:27Z</time>
      </trkpt>
      <trkpt lat="48.42082" lon="2.50198">
        <ele>164.9</ele>
        <time>2013-01-28T11:21:34Z</time>
      </trkpt>
      <trkpt lat="48.42064" lon="2.50161">
        <ele>173</ele>
        <time>2013-01-28T11:21:44Z</time>
      </trkpt>
      <trkpt lat="48.42069" lon="2.50114">
        <ele>172.5</ele>
        <time>2013-01-28T11:21:50Z</time>
      </trkpt>
      <trkpt lat="48.42085" lon="2.50074">
        <ele>169.3</ele>
        <time>2013-01-28T11:21:57Z</time>
      </trkpt>
      <trkpt lat="48.42097" lon="2.50058">
        <ele>168.5</ele>
        <time>2013-01-28T11:22:02Z</time>
      </trkpt>
      <trkpt lat="48.42101" lon="2.50035">
        <ele>166.4</ele>
        <time>2013-01-28T11:22:09Z</time>
      </trkpt>
      <trkpt lat="48.42115" lon="2.4997">
        <ele>157.5</ele>
        <time>2013-01-28T11:22:18Z</time>
      </trkpt>
      <trkpt lat="48.42115" lon="2.49932">
        <ele>157.8</ele>
        <time>2013-01-28T11:22:23Z</time>
      </trkpt>
      <trkpt lat="48.42123" lon="2.49912">
        <ele>157.8</ele>
        <time>2013-01-28T11:22:26Z</time>
      </trkpt>
      <trkpt lat="48.42132" lon="2.49881">
        <ele>158.2</ele>
        <time>2013-01-28T11:22:30Z</time>
      </trkpt>
      <trkpt lat="48.42127" lon="2.4985">
        <ele>158.1</ele>
        <time>2013-01-28T11:22:35Z</time>
      </trkpt>
      <trkpt lat="48.42114" lon="2.49827">
        <ele>159.5</ele>
        <time>2013-01-28T11:22:40Z</time>
      </trkpt>
      <trkpt lat="48.42119" lon="2.498">
        <ele>159.6</ele>
        <time>2013-01-28T11:22:47Z</time>
      </trkpt>
      <trkpt lat="48.42123" lon="2.49777">
        <ele>158.9</ele>
        <time>2013-01-28T11:22:55Z</time>
      </trkpt>
      <trkpt lat="48.42123" lon="2.49769">
        <ele>160.6</ele>
        <time>2013-01-28T11:22:59Z</time>
      </trkpt>
      <trkpt lat="48.42122" lon="2.49769">
        <ele>159.6</ele>
        <time>2013-01-28T11:23:07Z</time>
      </trkpt>
      <trkpt lat="48.42109" lon="2.49753">
        <ele>163.8</ele>
        <time>2013-01-28T11:23:32Z</time>
      </trkpt>
      <trkpt lat="48.421" lon="2.49745">
        <ele>162.4</ele>
        <time>2013-01-28T11:23:35Z</time>
      </trkpt>
      <trkpt lat="48.42087" lon="2.4974">
        <ele>164.5</ele>
        <time>2013-01-28T11:23:41Z</time>
      </trkpt>
      <trkpt lat="48.42064" lon="2.49737">
        <ele>163.3</ele>
        <time>2013-01-28T11:23:50Z</time>
      </trkpt>
      <trkpt lat="48.42041" lon="2.49736">
        <ele>161.7</ele>
        <time>2013-01-28T11:23:59Z</time>
      </trkpt>
      <trkpt lat="48.42033" lon="2.49735">
        <ele>162.4</ele>
        <time>2013-01-28T11:24:02Z</time>
      </trkpt>
      <trkpt lat="48.42013" lon="2.49742">
        <ele>163.3</ele>
        <time>2013-01-28T11:24:13Z</time>
      </trkpt>
      <trkpt lat="48.42006" lon="2.49753">
        <ele>163.1</ele>
        <time>2013-01-28T11:24:20Z</time>
      </trkpt>
      <trkpt lat="48.42002" lon="2.49778">
        <ele>164.9</ele>
        <time>2013-01-28T11:24:29Z</time>
      </trkpt>
      <trkpt lat="48.41999" lon="2.49805">
        <ele>165.5</ele>
        <time>2013-01-28T11:24:37Z</time>
      </trkpt>
      <trkpt lat="48.41999" lon="2.49834">
        <ele>165.5</ele>
        <time>2013-01-28T11:24:46Z</time>
      </trkpt>
      <trkpt lat="48.41991" lon="2.49866">
        <ele>166</ele>
        <time>2013-01-28T11:24:57Z</time>
      </trkpt>
      <trkpt lat="48.41987" lon="2.49889">
        <ele>167.1</ele>
        <time>2013-01-28T11:25:04Z</time>
      </trkpt>
      <trkpt lat="48.41985" lon="2.49899">
        <ele>167</ele>
        <time>2013-01-28T11:25:07Z</time>
      </trkpt>
      <trkpt lat="48.41982" lon="2.49927">
        <ele>164</ele>
        <time>2013-01-28T11:25:20Z</time>
      </trkpt>
      <trkpt lat="48.41979" lon="2.49969">
        <ele>164.9</ele>
        <time>2013-01-28T11:25:34Z</time>
      </trkpt>
      <trkpt lat="48.41973" lon="2.49993">
        <ele>165.7</ele>
        <time>2013-01-28T11:25:44Z</time>
      </trkpt>
      <trkpt lat="48.41968" lon="2.50018">
        <ele>167.7</ele>
        <time>2013-01-28T11:25:52Z</time>
      </trkpt>
      <trkpt lat="48.41966" lon="2.5003">
        <ele>167.2</ele>
        <time>2013-01-28T11:25:55Z</time>
      </trkpt>
      <trkpt lat="48.41957" lon="2.50061">
        <ele>170.2</ele>
        <time>2013-01-28T11:26:03Z</time>
      </trkpt>
      <trkpt lat="48.41944" lon="2.50091">
        <ele>170.4</ele>
        <time>2013-01-28T11:26:10Z</time>
      </trkpt>
      <trkpt lat="48.41935" lon="2.50104">
        <ele>170.5</ele>
        <time>2013-01-28T11:26:14Z</time>
      </trkpt>
      <trkpt lat="48.41916" lon="2.50115">
        <ele>169.6</ele>
        <time>2013-01-28T11:26:20Z</time>
      </trkpt>
      <trkpt lat="48.4189" lon="2.50127">
        <ele>174.4</ele>
        <time>2013-01-28T11:26:28Z</time>
      </trkpt>
      <trkpt lat="48.4188" lon="2.50146">
        <ele>173.2</ele>
        <time>2013-01-28T11:26:33Z</time>
      </trkpt>
      <trkpt lat="48.41875" lon="2.5016">
        <ele>174.8</ele>
        <time>2013-01-28T11:26:36Z</time>
      </trkpt>
      <trkpt lat="48.41871" lon="2.50174">
        <ele>174.7</ele>
        <time>2013-01-28T11:26:39Z</time>
      </trkpt>
      <trkpt lat="48.41854" lon="2.50201">
        <ele>173.1</ele>
        <time>2013-01-28T11:26:46Z</time>
      </trkpt>
      <trkpt lat="48.41821" lon="2.50211">
        <ele>171.9</ele>
        <time>2013-01-28T11:26:53Z</time>
      </trkpt>
      <trkpt lat="48.41796" lon="2.50224">
        <ele>169.6</ele>
        <time>2013-01-28T11:26:59Z</time>
      </trkpt>
      <trkpt lat="48.4177" lon="2.50208">
        <ele>170.8</ele>
        <time>2013-01-28T11:27:05Z</time>
      </trkpt>
      <trkpt lat="48.41752" lon="2.50197">
        <ele>164.8</ele>
        <time>2013-01-28T11:27:12Z</time>
      </trkpt>
      <trkpt lat="48.41747" lon="2.50209">
        <ele>160.5</ele>
        <time>2013-01-28T11:27:19Z</time>
      </trkpt>
      <trkpt lat="48.41743" lon="2.50266">
        <ele>165.4</ele>
        <time>2013-01-28T11:27:29Z</time>
      </trkpt>
      <trkpt lat="48.41739" lon="2.50315">
        <ele>165.9</ele>
        <time>2013-01-28T11:27:35Z</time>
      </trkpt>
      <trkpt lat="48.41737" lon="2.50352">
        <ele>169.1</ele>
        <time>2013-01-28T11:27:40Z</time>
      </trkpt>
      <trkpt lat="48.41735" lon="2.50384">
        <ele>170</ele>
        <time>2013-01-28T11:27:44Z</time>
      </trkpt>
      <trkpt lat="48.41728" lon="2.50417">
        <ele>169.9</ele>
        <time>2013-01-28T11:27:48Z</time>
      </trkpt>
      <trkpt lat="48.41725" lon="2.50453">
        <ele>167.1</ele>
        <time>2013-01-28T11:27:54Z</time>
      </trkpt>
      <trkpt lat="48.41712" lon="2.50507">
        <ele>169.9</ele>
        <time>2013-01-28T11:28:01Z</time>
      </trkpt>
      <trkpt lat="48.4171" lon="2.50542">
        <ele>170</ele>
        <time>2013-01-28T11:28:06Z</time>
      </trkpt>
      <trkpt lat="48.4171" lon="2.50569">
        <ele>171.4</ele>
        <time>2013-01-28T11:28:09Z</time>
      </trkpt>
      <trkpt lat="48.41708" lon="2.50624">
        <ele>173.1</ele>
        <time>2013-01-28T11:28:15Z</time>
      </trkpt>
      <trkpt lat="48.41702" lon="2.50661">
        <ele>181.6</ele>
        <time>2013-01-28T11:28:22Z</time>
      </trkpt>
      <trkpt lat="48.41694" lon="2.50714">
        <ele>181.6</ele>
        <time>2013-01-28T11:28:29Z</time>
      </trkpt>
      <trkpt lat="48.41695" lon="2.50747">
        <ele>184</ele>
        <time>2013-01-28T11:28:34Z</time>
      </trkpt>
      <trkpt lat="48.41687" lon="2.50796">
        <ele>181.1</ele>
        <time>2013-01-28T11:28:41Z</time>
      </trkpt>
      <trkpt lat="48.41687" lon="2.50867">
        <ele>182.1</ele>
        <time>2013-01-28T11:28:50Z</time>
      </trkpt>
      <trkpt lat="48.41687" lon="2.50917">
        <ele>186</ele>
        <time>2013-01-28T11:28:56Z</time>
      </trkpt>
      <trkpt lat="48.41684" lon="2.50954">
        <ele>185.7</ele>
        <time>2013-01-28T11:29:01Z</time>
      </trkpt>
      <trkpt lat="48.41677" lon="2.5101">
        <ele>183.6</ele>
        <time>2013-01-28T11:29:07Z</time>
      </trkpt>
      <trkpt lat="48.4167" lon="2.51054">
        <ele>182.8</ele>
        <time>2013-01-28T11:29:13Z</time>
      </trkpt>
      <trkpt lat="48.41664" lon="2.51095">
        <ele>184.3</ele>
        <time>2013-01-28T11:29:18Z</time>
      </trkpt>
      <trkpt lat="48.41661" lon="2.51156">
        <ele>179.4</ele>
        <time>2013-01-28T11:29:24Z</time>
      </trkpt>
      <trkpt lat="48.41659" lon="2.51184">
        <ele>178.4</ele>
        <time>2013-01-28T11:29:27Z</time>
      </trkpt>
      <trkpt lat="48.41652" lon="2.51224">
        <ele>180.4</ele>
        <time>2013-01-28T11:29:32Z</time>
      </trkpt>
      <trkpt lat="48.4164" lon="2.51246">
        <ele>181.2</ele>
        <time>2013-01-28T11:29:38Z</time>
      </trkpt>
      <trkpt lat="48.41617" lon="2.51248">
        <ele>183.7</ele>
        <time>2013-01-28T11:29:44Z</time>
      </trkpt>
      <trkpt lat="48.416" lon="2.51259">
        <ele>188.5</ele>
        <time>2013-01-28T11:29:50Z</time>
      </trkpt>
      <trkpt lat="48.41577" lon="2.51274">
        <ele>184.3</ele>
        <time>2013-01-28T11:29:57Z</time>
      </trkpt>
      <trkpt lat="48.41558" lon="2.51283">
        <ele>187.1</ele>
        <time>2013-01-28T11:30:02Z</time>
      </trkpt>
      <trkpt lat="48.41533" lon="2.51298">
        <ele>182.7</ele>
        <time>2013-01-28T11:30:09Z</time>
      </trkpt>
      <trkpt lat="48.41519" lon="2.51319">
        <ele>177.3</ele>
        <time>2013-01-28T11:30:14Z</time>
      </trkpt>
      <trkpt lat="48.41502" lon="2.51339">
        <ele>179.5</ele>
        <time>2013-01-28T11:30:19Z</time>
      </trkpt>
      <trkpt lat="48.41476" lon="2.51355">
        <ele>177.4</ele>
        <time>2013-01-28T11:30:24Z</time>
      </trkpt>
      <trkpt lat="48.41465" lon="2.51371">
        <ele>174.6</ele>
        <time>2013-01-28T11:30:27Z</time>
      </trkpt>
      <trkpt lat="48.41453" lon="2.51376">
        <ele>175.3</ele>
        <time>2013-01-28T11:30:30Z</time>
      </trkpt>
      <trkpt lat="48.41429" lon="2.51372">
        <ele>171.8</ele>
        <time>2013-01-28T11:30:35Z</time>
      </trkpt>
      <trkpt lat="48.41417" lon="2.514">
        <ele>172.2</ele>
        <time>2013-01-28T11:30:41Z</time>
      </trkpt>
      <trkpt lat="48.41419" lon="2.51442">
        <ele>176</ele>
        <time>2013-01-28T11:30:47Z</time>
      </trkpt>
      <trkpt lat="48.41416" lon="2.51491">
        <ele>174.2</ele>
        <time>2013-01-28T11:30:54Z</time>
      </trkpt>
      <trkpt lat="48.41396" lon="2.51527">
        <ele>169.5</ele>
        <time>2013-01-28T11:31:00Z</time>
      </trkpt>
      <trkpt lat="48.41385" lon="2.51564">
        <ele>168.2</ele>
        <time>2013-01-28T11:31:06Z</time>
      </trkpt>
      <trkpt lat="48.41385" lon="2.51571">
        <ele>168.3</ele>
        <time>2013-01-28T11:31:07Z</time>
      </trkpt>
      <trkpt lat="48.41384" lon="2.51568">
        <ele>168.9</ele>
        <time>2013-01-28T11:31:14Z</time>
      </trkpt>
      <trkpt lat="48.41363" lon="2.51569">
        <ele>166.5</ele>
        <time>2013-01-28T11:31:27Z</time>
      </trkpt>
      <trkpt lat="48.41348" lon="2.51567">
        <ele>166.6</ele>
        <time>2013-01-28T11:31:34Z</time>
      </trkpt>
      <trkpt lat="48.4134" lon="2.51581">
        <ele>166</ele>
        <time>2013-01-28T11:31:41Z</time>
      </trkpt>
      <trkpt lat="48.4134" lon="2.51582">
        <ele>166.1</ele>
        <time>2013-01-28T11:31:49Z</time>
      </trkpt>
      <trkpt lat="48.41348" lon="2.51563">
        <ele>162.2</ele>
        <time>2013-01-28T11:33:06Z</time>
      </trkpt>
      <trkpt lat="48.41346" lon="2.51547">
        <ele>162.9</ele>
        <time>2013-01-28T11:33:17Z</time>
      </trkpt>
      <trkpt lat="48.41346" lon="2.51547">
        <ele>163</ele>
        <time>2013-01-28T11:33:26Z</time>
      </trkpt>
      <trkpt lat="48.41326" lon="2.51543">
        <ele>161</ele>
        <time>2013-01-28T11:35:05Z</time>
      </trkpt>
      <trkpt lat="48.41298" lon="2.51565">
        <ele>156.7</ele>
        <time>2013-01-28T11:35:16Z</time>
      </trkpt>
      <trkpt lat="48.41285" lon="2.51574">
        <ele>158.9</ele>
        <time>2013-01-28T11:35:22Z</time>
      </trkpt>
      <trkpt lat="48.41262" lon="2.51602">
        <ele>152.5</ele>
        <time>2013-01-28T11:35:29Z</time>
      </trkpt>
      <trkpt lat="48.41262" lon="2.51624">
        <ele>146.3</ele>
        <time>2013-01-28T11:35:36Z</time>
      </trkpt>
      <trkpt lat="48.41235" lon="2.51675">
        <ele>143.5</ele>
        <time>2013-01-28T11:35:46Z</time>
      </trkpt>
      <trkpt lat="48.41219" lon="2.51701">
        <ele>142</ele>
        <time>2013-01-28T11:35:52Z</time>
      </trkpt>
      <trkpt lat="48.41203" lon="2.51707">
        <ele>141.4</ele>
        <time>2013-01-28T11:35:56Z</time>
      </trkpt>
      <trkpt lat="48.41188" lon="2.51712">
        <ele>140.6</ele>
        <time>2013-01-28T11:36:02Z</time>
      </trkpt>
      <trkpt lat="48.41177" lon="2.51718">
        <ele>139.2</ele>
        <time>2013-01-28T11:36:09Z</time>
      </trkpt>
      <trkpt lat="48.4114" lon="2.51735">
        <ele>137.2</ele>
        <time>2013-01-28T11:36:19Z</time>
      </trkpt>
      <trkpt lat="48.41117" lon="2.51751">
        <ele>135.9</ele>
        <time>2013-01-28T11:36:25Z</time>
      </trkpt>
      <trkpt lat="48.41087" lon="2.51758">
        <ele>133.9</ele>
        <time>2013-01-28T11:36:30Z</time>
      </trkpt>
      <trkpt lat="48.41067" lon="2.51775">
        <ele>132.1</ele>
        <time>2013-01-28T11:36:34Z</time>
      </trkpt>
      <trkpt lat="48.4104" lon="2.51808">
        <ele>128.9</ele>
        <time>2013-01-28T11:36:40Z</time>
      </trkpt>
      <trkpt lat="48.41026" lon="2.51823">
        <ele>128</ele>
        <time>2013-01-28T11:36:46Z</time>
      </trkpt>
      <trkpt lat="48.41019" lon="2.51882">
        <ele>128</ele>
        <time>2013-01-28T11:36:54Z</time>
      </trkpt>
      <trkpt lat="48.41017" lon="2.51909">
        <ele>125.4</ele>
        <time>2013-01-28T11:36:57Z</time>
      </trkpt>
      <trkpt lat="48.41011" lon="2.51934">
        <ele>126.3</ele>
        <time>2013-01-28T11:37:00Z</time>
      </trkpt>
      <trkpt lat="48.41004" lon="2.51963">
        <ele>125.8</ele>
        <time>2013-01-28T11:37:03Z</time>
      </trkpt>
      <trkpt lat="48.40992" lon="2.5203">
        <ele>124.4</ele>
        <time>2013-01-28T11:37:09Z</time>
      </trkpt>
      <trkpt lat="48.40984" lon="2.52096">
        <ele>120.7</ele>
        <time>2013-01-28T11:37:14Z</time>
      </trkpt>
      <trkpt lat="48.4097" lon="2.52177">
        <ele>125.5</ele>
        <time>2013-01-28T11:37:20Z</time>
      </trkpt>
      <trkpt lat="48.40957" lon="2.52251">
        <ele>126.3</ele>
        <time>2013-01-28T11:37:26Z</time>
      </trkpt>
      <trkpt lat="48.40948" lon="2.52328">
        <ele>124.9</ele>
        <time>2013-01-28T11:37:32Z</time>
      </trkpt>
      <trkpt lat="48.40935" lon="2.52402">
        <ele>125.8</ele>
        <time>2013-01-28T11:37:38Z</time>
      </trkpt>
      <trkpt lat="48.40926" lon="2.52448">
        <ele>126.8</ele>
        <time>2013-01-28T11:37:43Z</time>
      </trkpt>
      <trkpt lat="48.40919" lon="2.52505">
        <ele>126.4</ele>
        <time>2013-01-28T11:37:49Z</time>
      </trkpt>
      <trkpt lat="48.40909" lon="2.52545">
        <ele>126.9</ele>
        <time>2013-01-28T11:37:55Z</time>
      </trkpt>
      <trkpt lat="48.40901" lon="2.52595">
        <ele>123</ele>
        <time>2013-01-28T11:38:03Z</time>
      </trkpt>
      <trkpt lat="48.40893" lon="2.52624">
        <ele>126.3</ele>
        <time>2013-01-28T11:38:08Z</time>
      </trkpt>
      <trkpt lat="48.40886" lon="2.52651">
        <ele>126.6</ele>
        <time>2013-01-28T11:38:14Z</time>
      </trkpt>
      <trkpt lat="48.40881" lon="2.52682">
        <ele>132.5</ele>
        <time>2013-01-28T11:38:23Z</time>
      </trkpt>
      <trkpt lat="48.4088" lon="2.52687">
        <ele>132.6</ele>
        <time>2013-01-28T11:38:25Z</time>
      </trkpt>
      <trkpt lat="48.40892" lon="2.52693">
        <ele>135.7</ele>
        <time>2013-01-28T11:38:36Z</time>
      </trkpt>
      <trkpt lat="48.40898" lon="2.52729">
        <ele>134.9</ele>
        <time>2013-01-28T11:38:47Z</time>
      </trkpt>
      <trkpt lat="48.40916" lon="2.52766">
        <ele>134.2</ele>
        <time>2013-01-28T11:38:54Z</time>
      </trkpt>
      <trkpt lat="48.40927" lon="2.52802">
        <ele>136.8</ele>
        <time>2013-01-28T11:39:00Z</time>
      </trkpt>
      <trkpt lat="48.40929" lon="2.52856">
        <ele>134.7</ele>
        <time>2013-01-28T11:39:08Z</time>
      </trkpt>
      <trkpt lat="48.40941" lon="2.52873">
        <ele>136.5</ele>
        <time>2013-01-28T11:39:14Z</time>
      </trkpt>
      <trkpt lat="48.40963" lon="2.52895">
        <ele>135.7</ele>
        <time>2013-01-28T11:39:22Z</time>
      </trkpt>
      <trkpt lat="48.40964" lon="2.52913">
        <ele>140.2</ele>
        <time>2013-01-28T11:39:30Z</time>
      </trkpt>
      <trkpt lat="48.40968" lon="2.5294">
        <ele>143.2</ele>
        <time>2013-01-28T11:39:37Z</time>
      </trkpt>
      <trkpt lat="48.40975" lon="2.52959">
        <ele>142.8</ele>
        <time>2013-01-28T11:39:42Z</time>
      </trkpt>
      <trkpt lat="48.40987" lon="2.52988">
        <ele>140</ele>
        <time>2013-01-28T11:39:48Z</time>
      </trkpt>
      <trkpt lat="48.41" lon="2.5301">
        <ele>137.6</ele>
        <time>2013-01-28T11:39:53Z</time>
      </trkpt>
      <trkpt lat="48.41016" lon="2.53029">
        <ele>136.8</ele>
        <time>2013-01-28T11:39:58Z</time>
      </trkpt>
      <trkpt lat="48.41032" lon="2.53061">
        <ele>136.1</ele>
        <time>2013-01-28T11:40:04Z</time>
      </trkpt>
      <trkpt lat="48.41047" lon="2.53067">
        <ele>130.8</ele>
        <time>2013-01-28T11:40:16Z</time>
      </trkpt>
      <trkpt lat="48.41047" lon="2.53067">
        <ele>130.8</ele>
        <time>2013-01-28T11:40:23Z</time>
      </trkpt>
      <trkpt lat="48.41047" lon="2.53067">
        <ele>130.8</ele>
        <time>2013-01-28T11:40:24Z</time>
      </trkpt>
      <trkpt lat="48.41035" lon="2.53113">
        <ele>130</ele>
        <time>2013-01-28T11:40:29Z</time>
      </trkpt>
      <trkpt lat="48.41034" lon="2.5316">
        <ele>129.8</ele>
        <time>2013-01-28T11:40:36Z</time>
      </trkpt>
      <trkpt lat="48.4103" lon="2.53185">
        <ele>128</ele>
        <time>2013-01-28T11:40:41Z</time>
      </trkpt>
      <trkpt lat="48.41027" lon="2.53217">
        <ele>136.1</ele>
        <time>2013-01-28T11:40:47Z</time>
      </trkpt>
      <trkpt lat="48.41021" lon="2.5327">
        <ele>126.9</ele>
        <time>2013-01-28T11:40:55Z</time>
      </trkpt>
      <trkpt lat="48.41016" lon="2.533">
        <ele>132.2</ele>
        <time>2013-01-28T11:41:01Z</time>
      </trkpt>
      <trkpt lat="48.41011" lon="2.53337">
        <ele>125</ele>
        <time>2013-01-28T11:41:06Z</time>
      </trkpt>
      <trkpt lat="48.41002" lon="2.53392">
        <ele>125.8</ele>
        <time>2013-01-28T11:41:14Z</time>
      </trkpt>
      <trkpt lat="48.41001" lon="2.53432">
        <ele>129.9</ele>
        <time>2013-01-28T11:41:20Z</time>
      </trkpt>
      <trkpt lat="48.40993" lon="2.53473">
        <ele>129.4</ele>
        <time>2013-01-28T11:41:26Z</time>
      </trkpt>
      <trkpt lat="48.40987" lon="2.53502">
        <ele>129.5</ele>
        <time>2013-01-28T11:41:31Z</time>
      </trkpt>
      <trkpt lat="48.40976" lon="2.53523">
        <ele>131.2</ele>
        <time>2013-01-28T11:41:36Z</time>
      </trkpt>
      <trkpt lat="48.40958" lon="2.53542">
        <ele>132.8</ele>
        <time>2013-01-28T11:41:42Z</time>
      </trkpt>
      <trkpt lat="48.40944" lon="2.53567">
        <ele>135.8</ele>
        <time>2013-01-28T11:41:48Z</time>
      </trkpt>
      <trkpt lat="48.40919" lon="2.53597">
        <ele>135.9</ele>
        <time>2013-01-28T11:41:55Z</time>
      </trkpt>
      <trkpt lat="48.4089" lon="2.53598">
        <ele>135.9</ele>
        <time>2013-01-28T11:42:01Z</time>
      </trkpt>
      <trkpt lat="48.40861" lon="2.53598">
        <ele>134.9</ele>
        <time>2013-01-28T11:42:07Z</time>
      </trkpt>
      <trkpt lat="48.40836" lon="2.53599">
        <ele>132.9</ele>
        <time>2013-01-28T11:42:13Z</time>
      </trkpt>
      <trkpt lat="48.40813" lon="2.53598">
        <ele>133.9</ele>
        <time>2013-01-28T11:42:19Z</time>
      </trkpt>
      <trkpt lat="48.40789" lon="2.53587">
        <ele>134</ele>
        <time>2013-01-28T11:42:25Z</time>
      </trkpt>
      <trkpt lat="48.40762" lon="2.5358">
        <ele>133.6</ele>
        <time>2013-01-28T11:42:31Z</time>
      </trkpt>
      <trkpt lat="48.4075" lon="2.53575">
        <ele>133.7</ele>
        <time>2013-01-28T11:42:35Z</time>
      </trkpt>
      <trkpt lat="48.40741" lon="2.53576">
        <ele>133.3</ele>
        <time>2013-01-28T11:42:43Z</time>
      </trkpt>
      <trkpt lat="48.40704" lon="2.53542">
        <ele>126.9</ele>
        <time>2013-01-28T11:43:00Z</time>
      </trkpt>
      <trkpt lat="48.40697" lon="2.53535">
        <ele>130.6</ele>
        <time>2013-01-28T11:43:03Z</time>
      </trkpt>
      <trkpt lat="48.4068" lon="2.53526">
        <ele>131.5</ele>
        <time>2013-01-28T11:43:08Z</time>
      </trkpt>
      <trkpt lat="48.40656" lon="2.53519">
        <ele>130.1</ele>
        <time>2013-01-28T11:43:14Z</time>
      </trkpt>
      <trkpt lat="48.40646" lon="2.53516">
        <ele>130.6</ele>
        <time>2013-01-28T11:43:17Z</time>
      </trkpt>
      <trkpt lat="48.4062" lon="2.53509">
        <ele>131.5</ele>
        <time>2013-01-28T11:43:24Z</time>
      </trkpt>
      <trkpt lat="48.40607" lon="2.53506">
        <ele>133.1</ele>
        <time>2013-01-28T11:43:30Z</time>
      </trkpt>
      <trkpt lat="48.40596" lon="2.53492">
        <ele>124.4</ele>
        <time>2013-01-28T11:43:44Z</time>
      </trkpt>
      <trkpt lat="48.40579" lon="2.53474">
        <ele>125.4</ele>
        <time>2013-01-28T11:43:54Z</time>
      </trkpt>
      <trkpt lat="48.40568" lon="2.53461">
        <ele>126.2</ele>
        <time>2013-01-28T11:44:02Z</time>
      </trkpt>
      <trkpt lat="48.4056" lon="2.53461">
        <ele>129</ele>
        <time>2013-01-28T11:44:07Z</time>
      </trkpt>
      <trkpt lat="48.40554" lon="2.53455">
        <ele>131.4</ele>
        <time>2013-01-28T11:44:23Z</time>
      </trkpt>
      <trkpt lat="48.40527" lon="2.53471">
        <ele>136.6</ele>
        <time>2013-01-28T11:45:22Z</time>
      </trkpt>
      <trkpt lat="48.40504" lon="2.5345">
        <ele>138.9</ele>
        <time>2013-01-28T11:45:40Z</time>
      </trkpt>
      <trkpt lat="48.40488" lon="2.53433">
        <ele>146.6</ele>
        <time>2013-01-28T11:45:52Z</time>
      </trkpt>
      <trkpt lat="48.40482" lon="2.53431">
        <ele>141.1</ele>
        <time>2013-01-28T11:45:59Z</time>
      </trkpt>
      <trkpt lat="48.40473" lon="2.53427">
        <ele>144.7</ele>
        <time>2013-01-28T11:46:09Z</time>
      </trkpt>
      <trkpt lat="48.40464" lon="2.53421">
        <ele>140.6</ele>
        <time>2013-01-28T11:46:15Z</time>
      </trkpt>
      <trkpt lat="48.40451" lon="2.53419">
        <ele>136.7</ele>
        <time>2013-01-28T11:46:24Z</time>
      </trkpt>
      <trkpt lat="48.40447" lon="2.5342">
        <ele>137.8</ele>
        <time>2013-01-28T11:46:27Z</time>
      </trkpt>
      <trkpt lat="48.40447" lon="2.53421">
        <ele>138.9</ele>
        <time>2013-01-28T11:46:34Z</time>
      </trkpt>
      <trkpt lat="48.40447" lon="2.5345">
        <ele>141</ele>
        <time>2013-01-28T11:46:52Z</time>
      </trkpt>
      <trkpt lat="48.40431" lon="2.53513">
        <ele>142.4</ele>
        <time>2013-01-28T11:47:03Z</time>
      </trkpt>
      <trkpt lat="48.40426" lon="2.53543">
        <ele>142.9</ele>
        <time>2013-01-28T11:47:09Z</time>
      </trkpt>
      <trkpt lat="48.40429" lon="2.53604">
        <ele>137.3</ele>
        <time>2013-01-28T11:47:17Z</time>
      </trkpt>
      <trkpt lat="48.40429" lon="2.53642">
        <ele>134.8</ele>
        <time>2013-01-28T11:47:24Z</time>
      </trkpt>
      <trkpt lat="48.40425" lon="2.53649">
        <ele>136.3</ele>
        <time>2013-01-28T11:47:32Z</time>
      </trkpt>
      <trkpt lat="48.40411" lon="2.53664">
        <ele>138.8</ele>
        <time>2013-01-28T11:47:43Z</time>
      </trkpt>
      <trkpt lat="48.40404" lon="2.53695">
        <ele>141.2</ele>
        <time>2013-01-28T11:47:50Z</time>
      </trkpt>
      <trkpt lat="48.40404" lon="2.53736">
        <ele>141.7</ele>
        <time>2013-01-28T11:47:58Z</time>
      </trkpt>
      <trkpt lat="48.40394" lon="2.53779">
        <ele>146.4</ele>
        <time>2013-01-28T11:48:05Z</time>
      </trkpt>
      <trkpt lat="48.40382" lon="2.53826">
        <ele>146.2</ele>
        <time>2013-01-28T11:48:11Z</time>
      </trkpt>
      <trkpt lat="48.40372" lon="2.53842">
        <ele>147.1</ele>
        <time>2013-01-28T11:48:14Z</time>
      </trkpt>
      <trkpt lat="48.40362" lon="2.53868">
        <ele>145.7</ele>
        <time>2013-01-28T11:48:17Z</time>
      </trkpt>
      <trkpt lat="48.40346" lon="2.53937">
        <ele>144.4</ele>
        <time>2013-01-28T11:48:23Z</time>
      </trkpt>
      <trkpt lat="48.40338" lon="2.54009">
        <ele>141.3</ele>
        <time>2013-01-28T11:48:29Z</time>
      </trkpt>
      <trkpt lat="48.40336" lon="2.5408">
        <ele>140.1</ele>
        <time>2013-01-28T11:48:35Z</time>
      </trkpt>
      <trkpt lat="48.40328" lon="2.54145">
        <ele>138.2</ele>
        <time>2013-01-28T11:48:41Z</time>
      </trkpt>
      <trkpt lat="48.4032" lon="2.54179">
        <ele>135.4</ele>
        <time>2013-01-28T11:48:44Z</time>
      </trkpt>
      <trkpt lat="48.40314" lon="2.5423">
        <ele>132.1</ele>
        <time>2013-01-28T11:48:50Z</time>
      </trkpt>
      <trkpt lat="48.40312" lon="2.54262">
        <ele>131.1</ele>
        <time>2013-01-28T11:48:53Z</time>
      </trkpt>
      <trkpt lat="48.40314" lon="2.5431">
        <ele>131.1</ele>
        <time>2013-01-28T11:48:58Z</time>
      </trkpt>
      <trkpt lat="48.40292" lon="2.54354">
        <ele>127.9</ele>
        <time>2013-01-28T11:49:04Z</time>
      </trkpt>
      <trkpt lat="48.40305" lon="2.54392">
        <ele>129.6</ele>
        <time>2013-01-28T11:49:11Z</time>
      </trkpt>
      <trkpt lat="48.40308" lon="2.54431">
        <ele>132.1</ele>
        <time>2013-01-28T11:49:19Z</time>
      </trkpt>
      <trkpt lat="48.40298" lon="2.54455">
        <ele>133.7</ele>
        <time>2013-01-28T11:49:24Z</time>
      </trkpt>
      <trkpt lat="48.4029" lon="2.54486">
        <ele>133.7</ele>
        <time>2013-01-28T11:49:30Z</time>
      </trkpt>
      <trkpt lat="48.40276" lon="2.54535">
        <ele>133.9</ele>
        <time>2013-01-28T11:49:37Z</time>
      </trkpt>
      <trkpt lat="48.40301" lon="2.54562">
        <ele>135.1</ele>
        <time>2013-01-28T11:49:44Z</time>
      </trkpt>
      <trkpt lat="48.40309" lon="2.54603">
        <ele>139.6</ele>
        <time>2013-01-28T11:49:53Z</time>
      </trkpt>
      <trkpt lat="48.40317" lon="2.5461">
        <ele>142.5</ele>
        <time>2013-01-28T11:49:59Z</time>
      </trkpt>
      <trkpt lat="48.40317" lon="2.5461">
        <ele>142.5</ele>
        <time>2013-01-28T11:50:08Z</time>
      </trkpt>
      <trkpt lat="48.40317" lon="2.5461">
        <ele>142.5</ele>
        <time>2013-01-28T11:50:10Z</time>
      </trkpt>
      <trkpt lat="48.40336" lon="2.54622">
        <ele>137.2</ele>
        <time>2013-01-28T11:51:22Z</time>
      </trkpt>
      <trkpt lat="48.40346" lon="2.54662">
        <ele>137.7</ele>
        <time>2013-01-28T11:51:30Z</time>
      </trkpt>
      <trkpt lat="48.40337" lon="2.54683">
        <ele>137.1</ele>
        <time>2013-01-28T11:51:37Z</time>
      </trkpt>
      <trkpt lat="48.40337" lon="2.54707">
        <ele>131</ele>
        <time>2013-01-28T11:51:44Z</time>
      </trkpt>
      <trkpt lat="48.4033" lon="2.54719">
        <ele>132.4</ele>
        <time>2013-01-28T11:51:54Z</time>
      </trkpt>
      <trkpt lat="48.40308" lon="2.5472">
        <ele>133.9</ele>
        <time>2013-01-28T11:52:03Z</time>
      </trkpt>
      <trkpt lat="48.4029" lon="2.5474">
        <ele>140</ele>
        <time>2013-01-28T11:52:12Z</time>
      </trkpt>
      <trkpt lat="48.40283" lon="2.54763">
        <ele>139.8</ele>
        <time>2013-01-28T11:52:21Z</time>
      </trkpt>
      <trkpt lat="48.40286" lon="2.54781">
        <ele>140.4</ele>
        <time>2013-01-28T11:52:27Z</time>
      </trkpt>
      <trkpt lat="48.40282" lon="2.54783">
        <ele>138.6</ele>
        <time>2013-01-28T11:52:35Z</time>
      </trkpt>
      <trkpt lat="48.40262" lon="2.54787">
        <ele>149.6</ele>
        <time>2013-01-28T11:52:57Z</time>
      </trkpt>
      <trkpt lat="48.40248" lon="2.54787">
        <ele>150.4</ele>
        <time>2013-01-28T11:53:15Z</time>
      </trkpt>
      <trkpt lat="48.40243" lon="2.54785">
        <ele>150.9</ele>
        <time>2013-01-28T11:53:20Z</time>
      </trkpt>
      <trkpt lat="48.40241" lon="2.54793">
        <ele>150.4</ele>
        <time>2013-01-28T11:53:28Z</time>
      </trkpt>
      <trkpt lat="48.40245" lon="2.54842">
        <ele>161.5</ele>
        <time>2013-01-28T11:54:54Z</time>
      </trkpt>
      <trkpt lat="48.40245" lon="2.54879">
        <ele>154.4</ele>
        <time>2013-01-28T11:55:08Z</time>
      </trkpt>
      <trkpt lat="48.40247" lon="2.54909">
        <ele>156.6</ele>
        <time>2013-01-28T11:55:21Z</time>
      </trkpt>
      <trkpt lat="48.40239" lon="2.54916">
        <ele>158</ele>
        <time>2013-01-28T11:55:32Z</time>
      </trkpt>
      <trkpt lat="48.40237" lon="2.54921">
        <ele>158.3</ele>
        <time>2013-01-28T11:55:42Z</time>
      </trkpt>
      <trkpt lat="48.40242" lon="2.54945">
        <ele>150</ele>
        <time>2013-01-28T11:56:53Z</time>
      </trkpt>
      <trkpt lat="48.40258" lon="2.54973">
        <ele>154</ele>
        <time>2013-01-28T11:57:10Z</time>
      </trkpt>
      <trkpt lat="48.4027" lon="2.54985">
        <ele>156.6</ele>
        <time>2013-01-28T11:57:21Z</time>
      </trkpt>
      <trkpt lat="48.40297" lon="2.54989">
        <ele>157.3</ele>
        <time>2013-01-28T11:57:37Z</time>
      </trkpt>
      <trkpt lat="48.40306" lon="2.55009">
        <ele>157.4</ele>
        <time>2013-01-28T11:57:48Z</time>
      </trkpt>
      <trkpt lat="48.40312" lon="2.55069">
        <ele>150.6</ele>
        <time>2013-01-28T11:58:01Z</time>
      </trkpt>
      <trkpt lat="48.40316" lon="2.55079">
        <ele>148.4</ele>
        <time>2013-01-28T11:58:04Z</time>
      </trkpt>
      <trkpt lat="48.40319" lon="2.55081">
        <ele>145.9</ele>
        <time>2013-01-28T11:58:11Z</time>
      </trkpt>
      <trkpt lat="48.40319" lon="2.55081">
        <ele>93.8</ele>
        <time>2013-01-28T11:59:07Z</time>
      </trkpt>
      <trkpt lat="48.40319" lon="2.55081">
        <ele>93.8</ele>
        <time>2013-01-28T12:01:08Z</time>
      </trkpt>
      <trkpt lat="48.40316" lon="2.55094">
        <ele>145.5</ele>
        <time>2013-01-28T12:01:09Z</time>
      </trkpt>
      <trkpt lat="48.40317" lon="2.55115">
        <ele>149.8</ele>
        <time>2013-01-28T12:02:09Z</time>
      </trkpt>
      <trkpt lat="48.40315" lon="2.55122">
        <ele>148.3</ele>
        <time>2013-01-28T12:02:13Z</time>
      </trkpt>
      <trkpt lat="48.40313" lon="2.55126">
        <ele>145.9</ele>
        <time>2013-01-28T12:02:22Z</time>
      </trkpt>
      <trkpt lat="48.40307" lon="2.55158">
        <ele>147.2</ele>
        <time>2013-01-28T12:02:44Z</time>
      </trkpt>
      <trkpt lat="48.40281" lon="2.55181">
        <ele>143.1</ele>
        <time>2013-01-28T12:02:55Z</time>
      </trkpt>
      <trkpt lat="48.40264" lon="2.55204">
        <ele>141.3</ele>
        <time>2013-01-28T12:03:03Z</time>
      </trkpt>
      <trkpt lat="48.40251" lon="2.55207">
        <ele>147.1</ele>
        <time>2013-01-28T12:03:11Z</time>
      </trkpt>
      <trkpt lat="48.40228" lon="2.55223">
        <ele>144.7</ele>
        <time>2013-01-28T12:03:23Z</time>
      </trkpt>
      <trkpt lat="48.40222" lon="2.55226">
        <ele>143.8</ele>
        <time>2013-01-28T12:03:28Z</time>
      </trkpt>
      <trkpt lat="48.40222" lon="2.55227">
        <ele>142.8</ele>
        <time>2013-01-28T12:03:35Z</time>
      </trkpt>
      <trkpt lat="48.40237" lon="2.55221">
        <ele>137.4</ele>
        <time>2013-01-28T12:04:03Z</time>
      </trkpt>
      <trkpt lat="48.40247" lon="2.55213">
        <ele>137.2</ele>
        <time>2013-01-28T12:04:12Z</time>
      </trkpt>
      <trkpt lat="48.40271" lon="2.55194">
        <ele>139.3</ele>
        <time>2013-01-28T12:04:32Z</time>
      </trkpt>
      <trkpt lat="48.40281" lon="2.55182">
        <ele>138.5</ele>
        <time>2013-01-28T12:04:38Z</time>
      </trkpt>
      <trkpt lat="48.40282" lon="2.5518">
        <ele>137.8</ele>
        <time>2013-01-28T12:04:47Z</time>
      </trkpt>
      <trkpt lat="48.40293" lon="2.55172">
        <ele>137.7</ele>
        <time>2013-01-28T12:05:17Z</time>
      </trkpt>
      <trkpt lat="48.40306" lon="2.55154">
        <ele>136.1</ele>
        <time>2013-01-28T12:05:27Z</time>
      </trkpt>
      <trkpt lat="48.40308" lon="2.55136">
        <ele>133.7</ele>
        <time>2013-01-28T12:05:35Z</time>
      </trkpt>
      <trkpt lat="48.40308" lon="2.55135">
        <ele>134.6</ele>
        <time>2013-01-28T12:05:43Z</time>
      </trkpt>
      <trkpt lat="48.40321" lon="2.55145">
        <ele>134</ele>
        <time>2013-01-28T12:06:08Z</time>
      </trkpt>
      <trkpt lat="48.40325" lon="2.55147">
        <ele>134.4</ele>
        <time>2013-01-28T12:06:10Z</time>
      </trkpt>
      <trkpt lat="48.4033" lon="2.55163">
        <ele>141.3</ele>
        <time>2013-01-28T12:06:29Z</time>
      </trkpt>
      <trkpt lat="48.40329" lon="2.55181">
        <ele>137.7</ele>
        <time>2013-01-28T12:06:39Z</time>
      </trkpt>
      <trkpt lat="48.40331" lon="2.55196">
        <ele>136.7</ele>
        <time>2013-01-28T12:06:47Z</time>
      </trkpt>
      <trkpt lat="48.4033" lon="2.5522">
        <ele>138.8</ele>
        <time>2013-01-28T12:06:58Z</time>
      </trkpt>
      <trkpt lat="48.40331" lon="2.55227">
        <ele>139.6</ele>
        <time>2013-01-28T12:07:02Z</time>
      </trkpt>
      <trkpt lat="48.40331" lon="2.55241">
        <ele>139.6</ele>
        <time>2013-01-28T12:07:14Z</time>
      </trkpt>
      <trkpt lat="48.40339" lon="2.55281">
        <ele>134.6</ele>
        <time>2013-01-28T12:08:30Z</time>
      </trkpt>
      <trkpt lat="48.4034" lon="2.55285">
        <ele>133.7</ele>
        <time>2013-01-28T12:08:32Z</time>
      </trkpt>
      <trkpt lat="48.40339" lon="2.55289">
        <ele>132.8</ele>
        <time>2013-01-28T12:08:38Z</time>
      </trkpt>
      <trkpt lat="48.4035" lon="2.55274">
        <ele>128.3</ele>
        <time>2013-01-28T12:09:18Z</time>
      </trkpt>
      <trkpt lat="48.40365" lon="2.55266">
        <ele>124.4</ele>
        <time>2013-01-28T12:09:27Z</time>
      </trkpt>
      <trkpt lat="48.40385" lon="2.55259">
        <ele>122.6</ele>
        <time>2013-01-28T12:09:37Z</time>
      </trkpt>
      <trkpt lat="48.40385" lon="2.55281">
        <ele>121.6</ele>
        <time>2013-01-28T12:09:49Z</time>
      </trkpt>
      <trkpt lat="48.40378" lon="2.55312">
        <ele>128.9</ele>
        <time>2013-01-28T12:10:01Z</time>
      </trkpt>
      <trkpt lat="48.40373" lon="2.55345">
        <ele>125.9</ele>
        <time>2013-01-28T12:10:09Z</time>
      </trkpt>
      <trkpt lat="48.40358" lon="2.55378">
        <ele>127.8</ele>
        <time>2013-01-28T12:10:17Z</time>
      </trkpt>
      <trkpt lat="48.40338" lon="2.55404">
        <ele>129.1</ele>
        <time>2013-01-28T12:10:24Z</time>
      </trkpt>
      <trkpt lat="48.40319" lon="2.55425">
        <ele>132.1</ele>
        <time>2013-01-28T12:10:32Z</time>
      </trkpt>
      <trkpt lat="48.40319" lon="2.55425">
        <ele>132.1</ele>
        <time>2013-01-28T12:10:38Z</time>
      </trkpt>
      <trkpt lat="48.40319" lon="2.55425">
        <ele>132.1</ele>
        <time>2013-01-28T12:10:41Z</time>
      </trkpt>
      <trkpt lat="48.40308" lon="2.55404">
        <ele>132.5</ele>
        <time>2013-01-28T12:10:58Z</time>
      </trkpt>
      <trkpt lat="48.4029" lon="2.55379">
        <ele>129.6</ele>
        <time>2013-01-28T12:11:10Z</time>
      </trkpt>
      <trkpt lat="48.40284" lon="2.55369">
        <ele>129.5</ele>
        <time>2013-01-28T12:11:15Z</time>
      </trkpt>
      <trkpt lat="48.40276" lon="2.55363">
        <ele>130.8</ele>
        <time>2013-01-28T12:11:22Z</time>
      </trkpt>
      <trkpt lat="48.40275" lon="2.55342">
        <ele>137.8</ele>
        <time>2013-01-28T12:11:39Z</time>
      </trkpt>
      <trkpt lat="48.40271" lon="2.55304">
        <ele>138.4</ele>
        <time>2013-01-28T12:12:46Z</time>
      </trkpt>
      <trkpt lat="48.40264" lon="2.55285">
        <ele>133.2</ele>
        <time>2013-01-28T12:12:58Z</time>
      </trkpt>
      <trkpt lat="48.40244" lon="2.55281">
        <ele>135.2</ele>
        <time>2013-01-28T12:13:16Z</time>
      </trkpt>
      <trkpt lat="48.40216" lon="2.55277">
        <ele>128.6</ele>
        <time>2013-01-28T12:14:19Z</time>
      </trkpt>
      <trkpt lat="48.402" lon="2.55294">
        <ele>123.2</ele>
        <time>2013-01-28T12:14:26Z</time>
      </trkpt>
      <trkpt lat="48.40178" lon="2.55298">
        <ele>122.6</ele>
        <time>2013-01-28T12:14:36Z</time>
      </trkpt>
      <trkpt lat="48.40164" lon="2.55272">
        <ele>124.6</ele>
        <time>2013-01-28T12:14:45Z</time>
      </trkpt>
      <trkpt lat="48.40155" lon="2.55253">
        <ele>124.9</ele>
        <time>2013-01-28T12:14:50Z</time>
      </trkpt>
      <trkpt lat="48.40145" lon="2.55228">
        <ele>124.4</ele>
        <time>2013-01-28T12:14:57Z</time>
      </trkpt>
      <trkpt lat="48.40141" lon="2.55205">
        <ele>120.7</ele>
        <time>2013-01-28T12:15:03Z</time>
      </trkpt>
      <trkpt lat="48.40131" lon="2.55169">
        <ele>122.5</ele>
        <time>2013-01-28T12:15:12Z</time>
      </trkpt>
      <trkpt lat="48.40128" lon="2.55141">
        <ele>125.2</ele>
        <time>2013-01-28T12:15:19Z</time>
      </trkpt>
      <trkpt lat="48.40126" lon="2.55099">
        <ele>121.5</ele>
        <time>2013-01-28T12:15:28Z</time>
      </trkpt>
      <trkpt lat="48.40108" lon="2.55068">
        <ele>119.6</ele>
        <time>2013-01-28T12:15:36Z</time>
      </trkpt>
      <trkpt lat="48.40107" lon="2.55021">
        <ele>119.5</ele>
        <time>2013-01-28T12:15:41Z</time>
      </trkpt>
      <trkpt lat="48.40111" lon="2.54964">
        <ele>120.1</ele>
        <time>2013-01-28T12:15:46Z</time>
      </trkpt>
      <trkpt lat="48.40115" lon="2.54932">
        <ele>120.7</ele>
        <time>2013-01-28T12:15:49Z</time>
      </trkpt>
      <trkpt lat="48.40118" lon="2.549">
        <ele>120</ele>
        <time>2013-01-28T12:15:52Z</time>
      </trkpt>
      <trkpt lat="48.40128" lon="2.54846">
        <ele>119.3</ele>
        <time>2013-01-28T12:15:58Z</time>
      </trkpt>
      <trkpt lat="48.40135" lon="2.54784">
        <ele>121</ele>
        <time>2013-01-28T12:16:05Z</time>
      </trkpt>
      <trkpt lat="48.40143" lon="2.54749">
        <ele>121.1</ele>
        <time>2013-01-28T12:16:10Z</time>
      </trkpt>
      <trkpt lat="48.40145" lon="2.5472">
        <ele>123.8</ele>
        <time>2013-01-28T12:16:16Z</time>
      </trkpt>
      <trkpt lat="48.40133" lon="2.54705">
        <ele>122.1</ele>
        <time>2013-01-28T12:16:22Z</time>
      </trkpt>
      <trkpt lat="48.40129" lon="2.54704">
        <ele>120.6</ele>
        <time>2013-01-28T12:16:26Z</time>
      </trkpt>
      <trkpt lat="48.40133" lon="2.54705">
        <ele>122.1</ele>
        <time>2013-01-28T12:16:33Z</time>
      </trkpt>
      <trkpt lat="48.40133" lon="2.54705">
        <ele>75.8</ele>
        <time>2013-01-28T12:17:16Z</time>
      </trkpt>
      <trkpt lat="48.40131" lon="2.54692">
        <ele>75.7</ele>
        <time>2013-01-28T13:01:45Z</time>
      </trkpt>
      <trkpt lat="48.40131" lon="2.54692">
        <ele>123.3</ele>
        <time>2013-01-28T13:01:46Z</time>
      </trkpt>
      <trkpt lat="48.40135" lon="2.54655">
        <ele>121.1</ele>
        <time>2013-01-28T13:02:21Z</time>
      </trkpt>
      <trkpt lat="48.40131" lon="2.54628">
        <ele>123.6</ele>
        <time>2013-01-28T13:02:26Z</time>
      </trkpt>
      <trkpt lat="48.40129" lon="2.54613">
        <ele>122.4</ele>
        <time>2013-01-28T13:02:29Z</time>
      </trkpt>
      <trkpt lat="48.4012" lon="2.54589">
        <ele>122.2</ele>
        <time>2013-01-28T13:02:35Z</time>
      </trkpt>
      <trkpt lat="48.40106" lon="2.546">
        <ele>122.4</ele>
        <time>2013-01-28T13:02:40Z</time>
      </trkpt>
      <trkpt lat="48.40098" lon="2.54584">
        <ele>125.5</ele>
        <time>2013-01-28T13:02:47Z</time>
      </trkpt>
      <trkpt lat="48.40097" lon="2.54581">
        <ele>126</ele>
        <time>2013-01-28T13:02:48Z</time>
      </trkpt>
      <trkpt lat="48.40098" lon="2.54584">
        <ele>125.5</ele>
        <time>2013-01-28T13:02:55Z</time>
      </trkpt>
      <trkpt lat="48.40103" lon="2.54616">
        <ele>119</ele>
        <time>2013-01-28T13:03:23Z</time>
      </trkpt>
      <trkpt lat="48.40097" lon="2.54611">
        <ele>119.1</ele>
        <time>2013-01-28T13:03:36Z</time>
      </trkpt>
      <trkpt lat="48.40077" lon="2.54622">
        <ele>119.3</ele>
        <time>2013-01-28T13:03:44Z</time>
      </trkpt>
      <trkpt lat="48.40063" lon="2.54608">
        <ele>117.1</ele>
        <time>2013-01-28T13:03:53Z</time>
      </trkpt>
      <trkpt lat="48.40011" lon="2.54581">
        <ele>117</ele>
        <time>2013-01-28T13:04:04Z</time>
      </trkpt>
      <trkpt lat="48.40002" lon="2.54575">
        <ele>118.4</ele>
        <time>2013-01-28T13:04:09Z</time>
      </trkpt>
      <trkpt lat="48.39993" lon="2.54572">
        <ele>117.8</ele>
        <time>2013-01-28T13:04:16Z</time>
      </trkpt>
      <trkpt lat="48.39984" lon="2.5455">
        <ele>120.2</ele>
        <time>2013-01-28T13:04:32Z</time>
      </trkpt>
      <trkpt lat="48.4" lon="2.54526">
        <ele>122</ele>
        <time>2013-01-28T13:04:41Z</time>
      </trkpt>
      <trkpt lat="48.40003" lon="2.54498">
        <ele>123.1</ele>
        <time>2013-01-28T13:04:48Z</time>
      </trkpt>
      <trkpt lat="48.40011" lon="2.54457">
        <ele>125.4</ele>
        <time>2013-01-28T13:04:58Z</time>
      </trkpt>
      <trkpt lat="48.40019" lon="2.54431">
        <ele>126.8</ele>
        <time>2013-01-28T13:05:04Z</time>
      </trkpt>
      <trkpt lat="48.40023" lon="2.54408">
        <ele>127.6</ele>
        <time>2013-01-28T13:05:11Z</time>
      </trkpt>
      <trkpt lat="48.40021" lon="2.54381">
        <ele>128.6</ele>
        <time>2013-01-28T13:05:18Z</time>
      </trkpt>
      <trkpt lat="48.40016" lon="2.54366">
        <ele>129.9</ele>
        <time>2013-01-28T13:05:24Z</time>
      </trkpt>
      <trkpt lat="48.40015" lon="2.54339">
        <ele>131.8</ele>
        <time>2013-01-28T13:05:31Z</time>
      </trkpt>
      <trkpt lat="48.40016" lon="2.54315">
        <ele>129.8</ele>
        <time>2013-01-28T13:05:37Z</time>
      </trkpt>
      <trkpt lat="48.40018" lon="2.54294">
        <ele>132.1</ele>
        <time>2013-01-28T13:05:42Z</time>
      </trkpt>
      <trkpt lat="48.4002" lon="2.54279">
        <ele>131.6</ele>
        <time>2013-01-28T13:05:45Z</time>
      </trkpt>
      <trkpt lat="48.40029" lon="2.54248">
        <ele>134.5</ele>
        <time>2013-01-28T13:05:53Z</time>
      </trkpt>
      <trkpt lat="48.40038" lon="2.54222">
        <ele>136.4</ele>
        <time>2013-01-28T13:06:01Z</time>
      </trkpt>
      <trkpt lat="48.40038" lon="2.54195">
        <ele>135.7</ele>
        <time>2013-01-28T13:06:07Z</time>
      </trkpt>
      <trkpt lat="48.40042" lon="2.5418">
        <ele>135.4</ele>
        <time>2013-01-28T13:06:12Z</time>
      </trkpt>
      <trkpt lat="48.40055" lon="2.54165">
        <ele>137.2</ele>
        <time>2013-01-28T13:06:22Z</time>
      </trkpt>
      <trkpt lat="48.40054" lon="2.5413">
        <ele>138.7</ele>
        <time>2013-01-28T13:06:31Z</time>
      </trkpt>
      <trkpt lat="48.40058" lon="2.54115">
        <ele>140.7</ele>
        <time>2013-01-28T13:06:35Z</time>
      </trkpt>
      <trkpt lat="48.40045" lon="2.54112">
        <ele>143</ele>
        <time>2013-01-28T13:06:48Z</time>
      </trkpt>
      <trkpt lat="48.40029" lon="2.54106">
        <ele>142.2</ele>
        <time>2013-01-28T13:06:58Z</time>
      </trkpt>
      <trkpt lat="48.40008" lon="2.54096">
        <ele>142.3</ele>
        <time>2013-01-28T13:07:07Z</time>
      </trkpt>
      <trkpt lat="48.39991" lon="2.54085">
        <ele>142.5</ele>
        <time>2013-01-28T13:07:16Z</time>
      </trkpt>
      <trkpt lat="48.39965" lon="2.54051">
        <ele>139.7</ele>
        <time>2013-01-28T13:07:28Z</time>
      </trkpt>
      <trkpt lat="48.39979" lon="2.54035">
        <ele>145.2</ele>
        <time>2013-01-28T13:07:38Z</time>
      </trkpt>
      <trkpt lat="48.39974" lon="2.53998">
        <ele>148.4</ele>
        <time>2013-01-28T13:07:50Z</time>
      </trkpt>
      <trkpt lat="48.39969" lon="2.53972">
        <ele>153.4</ele>
        <time>2013-01-28T13:08:02Z</time>
      </trkpt>
      <trkpt lat="48.39975" lon="2.53946">
        <ele>155.8</ele>
        <time>2013-01-28T13:08:19Z</time>
      </trkpt>
      <trkpt lat="48.39975" lon="2.53946">
        <ele>155.8</ele>
        <time>2013-01-28T13:08:26Z</time>
      </trkpt>
      <trkpt lat="48.39975" lon="2.53946">
        <ele>155.8</ele>
        <time>2013-01-28T13:08:27Z</time>
      </trkpt>
      <trkpt lat="48.39987" lon="2.53963">
        <ele>159.2</ele>
        <time>2013-01-28T13:09:10Z</time>
      </trkpt>
      <trkpt lat="48.39998" lon="2.53971">
        <ele>158.3</ele>
        <time>2013-01-28T13:09:19Z</time>
      </trkpt>
      <trkpt lat="48.40007" lon="2.53977">
        <ele>159.8</ele>
        <time>2013-01-28T13:09:34Z</time>
      </trkpt>
      <trkpt lat="48.40011" lon="2.53981">
        <ele>162</ele>
        <time>2013-01-28T13:09:38Z</time>
      </trkpt>
      <trkpt lat="48.40009" lon="2.53979">
        <ele>163.3</ele>
        <time>2013-01-28T13:09:46Z</time>
      </trkpt>
      <trkpt lat="48.40007" lon="2.53946">
        <ele>165</ele>
        <time>2013-01-28T13:10:52Z</time>
      </trkpt>
      <trkpt lat="48.40013" lon="2.53888">
        <ele>165.9</ele>
        <time>2013-01-28T13:11:00Z</time>
      </trkpt>
      <trkpt lat="48.40025" lon="2.53836">
        <ele>165.4</ele>
        <time>2013-01-28T13:11:06Z</time>
      </trkpt>
      <trkpt lat="48.40023" lon="2.53795">
        <ele>164.1</ele>
        <time>2013-01-28T13:11:11Z</time>
      </trkpt>
      <trkpt lat="48.40027" lon="2.5375">
        <ele>163.7</ele>
        <time>2013-01-28T13:11:18Z</time>
      </trkpt>
      <trkpt lat="48.40027" lon="2.53718">
        <ele>160.8</ele>
        <time>2013-01-28T13:11:24Z</time>
      </trkpt>
      <trkpt lat="48.40025" lon="2.53692">
        <ele>163.3</ele>
        <time>2013-01-28T13:11:30Z</time>
      </trkpt>
      <trkpt lat="48.40018" lon="2.53662">
        <ele>164.8</ele>
        <time>2013-01-28T13:11:38Z</time>
      </trkpt>
      <trkpt lat="48.40014" lon="2.53635">
        <ele>161.5</ele>
        <time>2013-01-28T13:11:45Z</time>
      </trkpt>
      <trkpt lat="48.39988" lon="2.53604">
        <ele>160.3</ele>
        <time>2013-01-28T13:11:52Z</time>
      </trkpt>
      <trkpt lat="48.39969" lon="2.53582">
        <ele>162.3</ele>
        <time>2013-01-28T13:12:00Z</time>
      </trkpt>
      <trkpt lat="48.39965" lon="2.53556">
        <ele>165.8</ele>
        <time>2013-01-28T13:12:13Z</time>
      </trkpt>
      <trkpt lat="48.39975" lon="2.53523">
        <ele>167.1</ele>
        <time>2013-01-28T13:12:25Z</time>
      </trkpt>
      <trkpt lat="48.39991" lon="2.53488">
        <ele>166.9</ele>
        <time>2013-01-28T13:12:35Z</time>
      </trkpt>
      <trkpt lat="48.39997" lon="2.53452">
        <ele>168.6</ele>
        <time>2013-01-28T13:12:43Z</time>
      </trkpt>
      <trkpt lat="48.40004" lon="2.5343">
        <ele>166.3</ele>
        <time>2013-01-28T13:12:49Z</time>
      </trkpt>
      <trkpt lat="48.40012" lon="2.53414">
        <ele>164.7</ele>
        <time>2013-01-28T13:12:58Z</time>
      </trkpt>
      <trkpt lat="48.40016" lon="2.53414">
        <ele>164.3</ele>
        <time>2013-01-28T13:13:06Z</time>
      </trkpt>
      <trkpt lat="48.40002" lon="2.53385">
        <ele>158.2</ele>
        <time>2013-01-28T13:13:48Z</time>
      </trkpt>
      <trkpt lat="48.39994" lon="2.53359">
        <ele>151.1</ele>
        <time>2013-01-28T13:13:56Z</time>
      </trkpt>
      <trkpt lat="48.39992" lon="2.53355">
        <ele>151.1</ele>
        <time>2013-01-28T13:13:58Z</time>
      </trkpt>
      <trkpt lat="48.39994" lon="2.53359">
        <ele>151.1</ele>
        <time>2013-01-28T13:14:04Z</time>
      </trkpt>
      <trkpt lat="48.39983" lon="2.53356">
        <ele>147.7</ele>
        <time>2013-01-28T13:14:16Z</time>
      </trkpt>
      <trkpt lat="48.39932" lon="2.53348">
        <ele>137.8</ele>
        <time>2013-01-28T13:14:27Z</time>
      </trkpt>
      <trkpt lat="48.39928" lon="2.53343">
        <ele>138.9</ele>
        <time>2013-01-28T13:14:30Z</time>
      </trkpt>
      <trkpt lat="48.39926" lon="2.53338">
        <ele>137.8</ele>
        <time>2013-01-28T13:14:36Z</time>
      </trkpt>
      <trkpt lat="48.39919" lon="2.53312">
        <ele>138.7</ele>
        <time>2013-01-28T13:15:14Z</time>
      </trkpt>
      <trkpt lat="48.39914" lon="2.5328">
        <ele>136.6</ele>
        <time>2013-01-28T13:15:18Z</time>
      </trkpt>
      <trkpt lat="48.39905" lon="2.53253">
        <ele>133.6</ele>
        <time>2013-01-28T13:15:22Z</time>
      </trkpt>
      <trkpt lat="48.39896" lon="2.53224">
        <ele>134.6</ele>
        <time>2013-01-28T13:15:27Z</time>
      </trkpt>
      <trkpt lat="48.39899" lon="2.53183">
        <ele>132.8</ele>
        <time>2013-01-28T13:15:34Z</time>
      </trkpt>
      <trkpt lat="48.39903" lon="2.53147">
        <ele>132.4</ele>
        <time>2013-01-28T13:15:39Z</time>
      </trkpt>
      <trkpt lat="48.39913" lon="2.53092">
        <ele>129.2</ele>
        <time>2013-01-28T13:15:45Z</time>
      </trkpt>
      <trkpt lat="48.39922" lon="2.53048">
        <ele>126.7</ele>
        <time>2013-01-28T13:15:50Z</time>
      </trkpt>
      <trkpt lat="48.39929" lon="2.53001">
        <ele>125.4</ele>
        <time>2013-01-28T13:15:55Z</time>
      </trkpt>
      <trkpt lat="48.39942" lon="2.52944">
        <ele>126.4</ele>
        <time>2013-01-28T13:16:01Z</time>
      </trkpt>
      <trkpt lat="48.39965" lon="2.52881">
        <ele>125.7</ele>
        <time>2013-01-28T13:16:08Z</time>
      </trkpt>
      <trkpt lat="48.39973" lon="2.52834">
        <ele>125.2</ele>
        <time>2013-01-28T13:16:14Z</time>
      </trkpt>
      <trkpt lat="48.39982" lon="2.5278">
        <ele>125.3</ele>
        <time>2013-01-28T13:16:20Z</time>
      </trkpt>
      <trkpt lat="48.39991" lon="2.52747">
        <ele>125.6</ele>
        <time>2013-01-28T13:16:25Z</time>
      </trkpt>
      <trkpt lat="48.4001" lon="2.52695">
        <ele>126.4</ele>
        <time>2013-01-28T13:16:32Z</time>
      </trkpt>
      <trkpt lat="48.40019" lon="2.52665">
        <ele>122.3</ele>
        <time>2013-01-28T13:16:37Z</time>
      </trkpt>
      <trkpt lat="48.40052" lon="2.52674">
        <ele>122.4</ele>
        <time>2013-01-28T13:16:45Z</time>
      </trkpt>
      <trkpt lat="48.40085" lon="2.52694">
        <ele>123.2</ele>
        <time>2013-01-28T13:16:51Z</time>
      </trkpt>
      <trkpt lat="48.40109" lon="2.52725">
        <ele>118.3</ele>
        <time>2013-01-28T13:16:58Z</time>
      </trkpt>
      <trkpt lat="48.40127" lon="2.52745">
        <ele>121.9</ele>
        <time>2013-01-28T13:17:03Z</time>
      </trkpt>
      <trkpt lat="48.40145" lon="2.52775">
        <ele>123.7</ele>
        <time>2013-01-28T13:17:10Z</time>
      </trkpt>
      <trkpt lat="48.4016" lon="2.52803">
        <ele>124.8</ele>
        <time>2013-01-28T13:17:17Z</time>
      </trkpt>
      <trkpt lat="48.40173" lon="2.52829">
        <ele>125.2</ele>
        <time>2013-01-28T13:17:23Z</time>
      </trkpt>
      <trkpt lat="48.40181" lon="2.52842">
        <ele>125.1</ele>
        <time>2013-01-28T13:17:26Z</time>
      </trkpt>
      <trkpt lat="48.40191" lon="2.52846">
        <ele>125.4</ele>
        <time>2013-01-28T13:17:32Z</time>
      </trkpt>
      <trkpt lat="48.40203" lon="2.52799">
        <ele>129.4</ele>
        <time>2013-01-28T13:17:44Z</time>
      </trkpt>
      <trkpt lat="48.40204" lon="2.52783">
        <ele>131</ele>
        <time>2013-01-28T13:17:51Z</time>
      </trkpt>
      <trkpt lat="48.40248" lon="2.52743">
        <ele>119</ele>
        <time>2013-01-28T13:18:03Z</time>
      </trkpt>
      <trkpt lat="48.4026" lon="2.52739">
        <ele>116.4</ele>
        <time>2013-01-28T13:18:07Z</time>
      </trkpt>
      <trkpt lat="48.40267" lon="2.52729">
        <ele>121.3</ele>
        <time>2013-01-28T13:18:21Z</time>
      </trkpt>
      <trkpt lat="48.40288" lon="2.52738">
        <ele>124.3</ele>
        <time>2013-01-28T13:18:39Z</time>
      </trkpt>
      <trkpt lat="48.40311" lon="2.52746">
        <ele>126.1</ele>
        <time>2013-01-28T13:18:50Z</time>
      </trkpt>
      <trkpt lat="48.40333" lon="2.52775">
        <ele>131</ele>
        <time>2013-01-28T13:19:00Z</time>
      </trkpt>
      <trkpt lat="48.40347" lon="2.52818">
        <ele>126</ele>
        <time>2013-01-28T13:19:08Z</time>
      </trkpt>
      <trkpt lat="48.40354" lon="2.52844">
        <ele>130.9</ele>
        <time>2013-01-28T13:19:15Z</time>
      </trkpt>
      <trkpt lat="48.40357" lon="2.52875">
        <ele>129.1</ele>
        <time>2013-01-28T13:19:23Z</time>
      </trkpt>
      <trkpt lat="48.40358" lon="2.52914">
        <ele>132.7</ele>
        <time>2013-01-28T13:19:34Z</time>
      </trkpt>
      <trkpt lat="48.40361" lon="2.52938">
        <ele>131.2</ele>
        <time>2013-01-28T13:19:41Z</time>
      </trkpt>
      <trkpt lat="48.40364" lon="2.52964">
        <ele>134.9</ele>
        <time>2013-01-28T13:19:47Z</time>
      </trkpt>
      <trkpt lat="48.40368" lon="2.52994">
        <ele>137.8</ele>
        <time>2013-01-28T13:19:54Z</time>
      </trkpt>
      <trkpt lat="48.40375" lon="2.53023">
        <ele>142.5</ele>
        <time>2013-01-28T13:20:01Z</time>
      </trkpt>
      <trkpt lat="48.40384" lon="2.53061">
        <ele>135.1</ele>
        <time>2013-01-28T13:20:08Z</time>
      </trkpt>
      <trkpt lat="48.40386" lon="2.53092">
        <ele>137.8</ele>
        <time>2013-01-28T13:20:14Z</time>
      </trkpt>
      <trkpt lat="48.40385" lon="2.53126">
        <ele>139.7</ele>
        <time>2013-01-28T13:20:20Z</time>
      </trkpt>
      <trkpt lat="48.40384" lon="2.53159">
        <ele>141.1</ele>
        <time>2013-01-28T13:20:26Z</time>
      </trkpt>
      <trkpt lat="48.40385" lon="2.53189">
        <ele>141.4</ele>
        <time>2013-01-28T13:20:32Z</time>
      </trkpt>
      <trkpt lat="48.40382" lon="2.53221">
        <ele>138.9</ele>
        <time>2013-01-28T13:20:38Z</time>
      </trkpt>
      <trkpt lat="48.40373" lon="2.53245">
        <ele>140.2</ele>
        <time>2013-01-28T13:20:43Z</time>
      </trkpt>
      <trkpt lat="48.40363" lon="2.5327">
        <ele>137.3</ele>
        <time>2013-01-28T13:20:50Z</time>
      </trkpt>
      <trkpt lat="48.40358" lon="2.53295">
        <ele>135.8</ele>
        <time>2013-01-28T13:20:56Z</time>
      </trkpt>
      <trkpt lat="48.40358" lon="2.53323">
        <ele>140</ele>
        <time>2013-01-28T13:21:02Z</time>
      </trkpt>
      <trkpt lat="48.4036" lon="2.53346">
        <ele>148</ele>
        <time>2013-01-28T13:21:07Z</time>
      </trkpt>
      <trkpt lat="48.40362" lon="2.53368">
        <ele>151.5</ele>
        <time>2013-01-28T13:21:12Z</time>
      </trkpt>
      <trkpt lat="48.40365" lon="2.53392">
        <ele>155</ele>
        <time>2013-01-28T13:21:19Z</time>
      </trkpt>
      <trkpt lat="48.4036" lon="2.53404">
        <ele>151.5</ele>
        <time>2013-01-28T13:21:29Z</time>
      </trkpt>
      <trkpt lat="48.40365" lon="2.53392">
        <ele>155</ele>
        <time>2013-01-28T13:21:38Z</time>
      </trkpt>
      <trkpt lat="48.40347" lon="2.53391">
        <ele>147.4</ele>
        <time>2013-01-28T13:21:45Z</time>
      </trkpt>
      <trkpt lat="48.40338" lon="2.53389">
        <ele>146.8</ele>
        <time>2013-01-28T13:21:48Z</time>
      </trkpt>
      <trkpt lat="48.4033" lon="2.53386">
        <ele>146.9</ele>
        <time>2013-01-28T13:21:51Z</time>
      </trkpt>
      <trkpt lat="48.40311" lon="2.53378">
        <ele>149.3</ele>
        <time>2013-01-28T13:22:05Z</time>
      </trkpt>
      <trkpt lat="48.40291" lon="2.53365">
        <ele>150.2</ele>
        <time>2013-01-28T13:22:22Z</time>
      </trkpt>
      <trkpt lat="48.40283" lon="2.53361">
        <ele>150.8</ele>
        <time>2013-01-28T13:22:30Z</time>
      </trkpt>
      <trkpt lat="48.40268" lon="2.5335">
        <ele>155.7</ele>
        <time>2013-01-28T13:22:46Z</time>
      </trkpt>
      <trkpt lat="48.40263" lon="2.53346">
        <ele>156.4</ele>
        <time>2013-01-28T13:22:54Z</time>
      </trkpt>
      <trkpt lat="48.40263" lon="2.53348">
        <ele>155.1</ele>
        <time>2013-01-28T13:23:04Z</time>
      </trkpt>
      <trkpt lat="48.40236" lon="2.53334">
        <ele>159</ele>
        <time>2013-01-28T13:24:23Z</time>
      </trkpt>
      <trkpt lat="48.40221" lon="2.5333">
        <ele>164.9</ele>
        <time>2013-01-28T13:24:41Z</time>
      </trkpt>
      <trkpt lat="48.40213" lon="2.53327">
        <ele>167.5</ele>
        <time>2013-01-28T13:24:51Z</time>
      </trkpt>
      <trkpt lat="48.40209" lon="2.53329">
        <ele>166.2</ele>
        <time>2013-01-28T13:25:01Z</time>
      </trkpt>
      <trkpt lat="48.40198" lon="2.5332">
        <ele>167</ele>
        <time>2013-01-28T13:25:14Z</time>
      </trkpt>
      <trkpt lat="48.40182" lon="2.53306">
        <ele>165.8</ele>
        <time>2013-01-28T13:25:26Z</time>
      </trkpt>
      <trkpt lat="48.40171" lon="2.53296">
        <ele>165.8</ele>
        <time>2013-01-28T13:25:38Z</time>
      </trkpt>
      <trkpt lat="48.40152" lon="2.53288">
        <ele>166</ele>
        <time>2013-01-28T13:25:54Z</time>
      </trkpt>
      <trkpt lat="48.40131" lon="2.53277">
        <ele>166.7</ele>
        <time>2013-01-28T13:26:11Z</time>
      </trkpt>
      <trkpt lat="48.40122" lon="2.53288">
        <ele>171.9</ele>
        <time>2013-01-28T13:26:24Z</time>
      </trkpt>
      <trkpt lat="48.40123" lon="2.53313">
        <ele>176.7</ele>
        <time>2013-01-28T13:26:33Z</time>
      </trkpt>
      <trkpt lat="48.4012" lon="2.53349">
        <ele>178.2</ele>
        <time>2013-01-28T13:26:45Z</time>
      </trkpt>
      <trkpt lat="48.4012" lon="2.53396">
        <ele>178.5</ele>
        <time>2013-01-28T13:26:56Z</time>
      </trkpt>
      <trkpt lat="48.40121" lon="2.53421">
        <ele>178.3</ele>
        <time>2013-01-28T13:27:02Z</time>
      </trkpt>
      <trkpt lat="48.40123" lon="2.53453">
        <ele>178.9</ele>
        <time>2013-01-28T13:27:09Z</time>
      </trkpt>
      <trkpt lat="48.40114" lon="2.53468">
        <ele>177.3</ele>
        <time>2013-01-28T13:27:17Z</time>
      </trkpt>
      <trkpt lat="48.40093" lon="2.53447">
        <ele>176.7</ele>
        <time>2013-01-28T13:27:25Z</time>
      </trkpt>
      <trkpt lat="48.40083" lon="2.53437">
        <ele>176.2</ele>
        <time>2013-01-28T13:27:28Z</time>
      </trkpt>
      <trkpt lat="48.4007" lon="2.53425">
        <ele>179.7</ele>
        <time>2013-01-28T13:27:31Z</time>
      </trkpt>
      <trkpt lat="48.40058" lon="2.53416">
        <ele>179.4</ele>
        <time>2013-01-28T13:27:35Z</time>
      </trkpt>
      <trkpt lat="48.40038" lon="2.53422">
        <ele>176.7</ele>
        <time>2013-01-28T13:27:40Z</time>
      </trkpt>
      <trkpt lat="48.40017" lon="2.53426">
        <ele>175.4</ele>
        <time>2013-01-28T13:27:48Z</time>
      </trkpt>
      <trkpt lat="48.40017" lon="2.53426">
        <ele>175.4</ele>
        <time>2013-01-28T13:27:56Z</time>
      </trkpt>
      <trkpt lat="48.40017" lon="2.53426">
        <ele>175.4</ele>
        <time>2013-01-28T13:27:58Z</time>
      </trkpt>
      <trkpt lat="48.40014" lon="2.53402">
        <ele>165.3</ele>
        <time>2013-01-28T13:28:30Z</time>
      </trkpt>
      <trkpt lat="48.40001" lon="2.53375">
        <ele>155.9</ele>
        <time>2013-01-28T13:28:37Z</time>
      </trkpt>
      <trkpt lat="48.3999" lon="2.53355">
        <ele>149.3</ele>
        <time>2013-01-28T13:28:43Z</time>
      </trkpt>
      <trkpt lat="48.39979" lon="2.53351">
        <ele>145.5</ele>
        <time>2013-01-28T13:28:51Z</time>
      </trkpt>
      <trkpt lat="48.39929" lon="2.53347">
        <ele>138</ele>
        <time>2013-01-28T13:29:02Z</time>
      </trkpt>
      <trkpt lat="48.39925" lon="2.5334">
        <ele>136.8</ele>
        <time>2013-01-28T13:29:08Z</time>
      </trkpt>
      <trkpt lat="48.39916" lon="2.53293">
        <ele>136.5</ele>
        <time>2013-01-28T13:29:48Z</time>
      </trkpt>
      <trkpt lat="48.39908" lon="2.53263">
        <ele>134.5</ele>
        <time>2013-01-28T13:29:53Z</time>
      </trkpt>
      <trkpt lat="48.3989" lon="2.53249">
        <ele>133.9</ele>
        <time>2013-01-28T13:29:58Z</time>
      </trkpt>
      <trkpt lat="48.39888" lon="2.53274">
        <ele>135.1</ele>
        <time>2013-01-28T13:30:09Z</time>
      </trkpt>
      <trkpt lat="48.39883" lon="2.53305">
        <ele>136.3</ele>
        <time>2013-01-28T13:30:18Z</time>
      </trkpt>
      <trkpt lat="48.39878" lon="2.53326">
        <ele>137.5</ele>
        <time>2013-01-28T13:30:24Z</time>
      </trkpt>
      <trkpt lat="48.39871" lon="2.53364">
        <ele>140.4</ele>
        <time>2013-01-28T13:30:32Z</time>
      </trkpt>
      <trkpt lat="48.39867" lon="2.53393">
        <ele>142</ele>
        <time>2013-01-28T13:30:40Z</time>
      </trkpt>
      <trkpt lat="48.39867" lon="2.5343">
        <ele>142.7</ele>
        <time>2013-01-28T13:30:49Z</time>
      </trkpt>
      <trkpt lat="48.39859" lon="2.53452">
        <ele>141.9</ele>
        <time>2013-01-28T13:30:55Z</time>
      </trkpt>
      <trkpt lat="48.39855" lon="2.5347">
        <ele>148</ele>
        <time>2013-01-28T13:31:02Z</time>
      </trkpt>
      <trkpt lat="48.39853" lon="2.53478">
        <ele>148.2</ele>
        <time>2013-01-28T13:31:05Z</time>
      </trkpt>
      <trkpt lat="48.3985" lon="2.53485">
        <ele>142.3</ele>
        <time>2013-01-28T13:31:23Z</time>
      </trkpt>
      <trkpt lat="48.39838" lon="2.53498">
        <ele>143.1</ele>
        <time>2013-01-28T13:31:29Z</time>
      </trkpt>
      <trkpt lat="48.39829" lon="2.53515">
        <ele>147.7</ele>
        <time>2013-01-28T13:31:37Z</time>
      </trkpt>
      <trkpt lat="48.39826" lon="2.53524">
        <ele>147.8</ele>
        <time>2013-01-28T13:31:42Z</time>
      </trkpt>
      <trkpt lat="48.39821" lon="2.53531">
        <ele>147.1</ele>
        <time>2013-01-28T13:31:47Z</time>
      </trkpt>
      <trkpt lat="48.39826" lon="2.53524">
        <ele>147.8</ele>
        <time>2013-01-28T13:31:56Z</time>
      </trkpt>
      <trkpt lat="48.39813" lon="2.53506">
        <ele>144.5</ele>
        <time>2013-01-28T13:32:03Z</time>
      </trkpt>
      <trkpt lat="48.39798" lon="2.53481">
        <ele>146.8</ele>
        <time>2013-01-28T13:32:10Z</time>
      </trkpt>
      <trkpt lat="48.39788" lon="2.53456">
        <ele>147.7</ele>
        <time>2013-01-28T13:32:14Z</time>
      </trkpt>
      <trkpt lat="48.39774" lon="2.53436">
        <ele>150.8</ele>
        <time>2013-01-28T13:32:20Z</time>
      </trkpt>
      <trkpt lat="48.39762" lon="2.53429">
        <ele>150.4</ele>
        <time>2013-01-28T13:32:30Z</time>
      </trkpt>
      <trkpt lat="48.39756" lon="2.53423">
        <ele>152</ele>
        <time>2013-01-28T13:32:37Z</time>
      </trkpt>
      <trkpt lat="48.39755" lon="2.53424">
        <ele>155</ele>
        <time>2013-01-28T13:32:47Z</time>
      </trkpt>
      <trkpt lat="48.39764" lon="2.53405">
        <ele>153.6</ele>
        <time>2013-01-28T13:33:29Z</time>
      </trkpt>
      <trkpt lat="48.39767" lon="2.53377">
        <ele>158.8</ele>
        <time>2013-01-28T13:33:43Z</time>
      </trkpt>
      <trkpt lat="48.39764" lon="2.53367">
        <ele>157.2</ele>
        <time>2013-01-28T13:33:51Z</time>
      </trkpt>
      <trkpt lat="48.39762" lon="2.53366">
        <ele>158.5</ele>
        <time>2013-01-28T13:34:00Z</time>
      </trkpt>
      <trkpt lat="48.39747" lon="2.53326">
        <ele>161.5</ele>
        <time>2013-01-28T13:35:04Z</time>
      </trkpt>
      <trkpt lat="48.39747" lon="2.53326">
        <ele>161.5</ele>
        <time>2013-01-28T13:35:12Z</time>
      </trkpt>
      <trkpt lat="48.39747" lon="2.53326">
        <ele>161.5</ele>
        <time>2013-01-28T13:35:13Z</time>
      </trkpt>
      <trkpt lat="48.39738" lon="2.53341">
        <ele>166</ele>
        <time>2013-01-28T13:36:27Z</time>
      </trkpt>
      <trkpt lat="48.39734" lon="2.53356">
        <ele>166.1</ele>
        <time>2013-01-28T13:36:34Z</time>
      </trkpt>
      <trkpt lat="48.39729" lon="2.53376">
        <ele>165.5</ele>
        <time>2013-01-28T13:36:41Z</time>
      </trkpt>
      <trkpt lat="48.39722" lon="2.53391">
        <ele>165</ele>
        <time>2013-01-28T13:36:47Z</time>
      </trkpt>
      <trkpt lat="48.39719" lon="2.534">
        <ele>164.5</ele>
        <time>2013-01-28T13:36:50Z</time>
      </trkpt>
      <trkpt lat="48.3971" lon="2.53425">
        <ele>165.2</ele>
        <time>2013-01-28T13:36:59Z</time>
      </trkpt>
      <trkpt lat="48.39706" lon="2.53432">
        <ele>165.9</ele>
        <time>2013-01-28T13:37:02Z</time>
      </trkpt>
      <trkpt lat="48.39696" lon="2.53459">
        <ele>167.2</ele>
        <time>2013-01-28T13:37:12Z</time>
      </trkpt>
      <trkpt lat="48.39694" lon="2.53472">
        <ele>168.6</ele>
        <time>2013-01-28T13:37:18Z</time>
      </trkpt>
      <trkpt lat="48.39688" lon="2.5349">
        <ele>166.3</ele>
        <time>2013-01-28T13:37:27Z</time>
      </trkpt>
      <trkpt lat="48.39684" lon="2.53518">
        <ele>166.1</ele>
        <time>2013-01-28T13:37:37Z</time>
      </trkpt>
      <trkpt lat="48.39682" lon="2.53544">
        <ele>166.6</ele>
        <time>2013-01-28T13:37:47Z</time>
      </trkpt>
      <trkpt lat="48.39676" lon="2.53556">
        <ele>163.4</ele>
        <time>2013-01-28T13:38:03Z</time>
      </trkpt>
      <trkpt lat="48.39687" lon="2.53596">
        <ele>166.9</ele>
        <time>2013-01-28T13:38:48Z</time>
      </trkpt>
      <trkpt lat="48.39679" lon="2.53631">
        <ele>166.6</ele>
        <time>2013-01-28T13:39:03Z</time>
      </trkpt>
      <trkpt lat="48.3967" lon="2.53635">
        <ele>167.7</ele>
        <time>2013-01-28T13:39:10Z</time>
      </trkpt>
      <trkpt lat="48.39649" lon="2.53649">
        <ele>166.6</ele>
        <time>2013-01-28T13:39:23Z</time>
      </trkpt>
      <trkpt lat="48.39644" lon="2.53651">
        <ele>165.2</ele>
        <time>2013-01-28T13:39:26Z</time>
      </trkpt>
      <trkpt lat="48.3964" lon="2.5365">
        <ele>167.1</ele>
        <time>2013-01-28T13:39:34Z</time>
      </trkpt>
      <trkpt lat="48.39637" lon="2.53689">
        <ele>169.2</ele>
        <time>2013-01-28T13:40:06Z</time>
      </trkpt>
      <trkpt lat="48.39641" lon="2.53717">
        <ele>167.6</ele>
        <time>2013-01-28T13:40:14Z</time>
      </trkpt>
      <trkpt lat="48.39639" lon="2.53735">
        <ele>166.8</ele>
        <time>2013-01-28T13:40:20Z</time>
      </trkpt>
      <trkpt lat="48.39643" lon="2.5376">
        <ele>165.8</ele>
        <time>2013-01-28T13:40:29Z</time>
      </trkpt>
      <trkpt lat="48.39653" lon="2.5378">
        <ele>166</ele>
        <time>2013-01-28T13:40:38Z</time>
      </trkpt>
      <trkpt lat="48.39654" lon="2.53793">
        <ele>163.5</ele>
        <time>2013-01-28T13:40:44Z</time>
      </trkpt>
      <trkpt lat="48.39654" lon="2.53792">
        <ele>163</ele>
        <time>2013-01-28T13:40:51Z</time>
      </trkpt>
      <trkpt lat="48.39641" lon="2.53801">
        <ele>163.8</ele>
        <time>2013-01-28T13:41:30Z</time>
      </trkpt>
      <trkpt lat="48.39622" lon="2.53804">
        <ele>162.8</ele>
        <time>2013-01-28T13:41:39Z</time>
      </trkpt>
      <trkpt lat="48.39605" lon="2.53799">
        <ele>164.8</ele>
        <time>2013-01-28T13:41:49Z</time>
      </trkpt>
      <trkpt lat="48.39591" lon="2.53799">
        <ele>164.8</ele>
        <time>2013-01-28T13:41:55Z</time>
      </trkpt>
      <trkpt lat="48.39585" lon="2.53804">
        <ele>163.7</ele>
        <time>2013-01-28T13:42:06Z</time>
      </trkpt>
      <trkpt lat="48.39567" lon="2.53798">
        <ele>163.5</ele>
        <time>2013-01-28T13:42:15Z</time>
      </trkpt>
      <trkpt lat="48.39567" lon="2.53798">
        <ele>163.5</ele>
        <time>2013-01-28T13:42:21Z</time>
      </trkpt>
      <trkpt lat="48.39567" lon="2.53798">
        <ele>163.5</ele>
        <time>2013-01-28T13:42:22Z</time>
      </trkpt>
      <trkpt lat="48.3955" lon="2.53805">
        <ele>166.4</ele>
        <time>2013-01-28T13:42:41Z</time>
      </trkpt>
      <trkpt lat="48.39526" lon="2.53803">
        <ele>167.3</ele>
        <time>2013-01-28T13:42:50Z</time>
      </trkpt>
      <trkpt lat="48.39507" lon="2.53802">
        <ele>164.1</ele>
        <time>2013-01-28T13:42:57Z</time>
      </trkpt>
      <trkpt lat="48.39485" lon="2.538">
        <ele>164.5</ele>
        <time>2013-01-28T13:43:07Z</time>
      </trkpt>
      <trkpt lat="48.3947" lon="2.53798">
        <ele>164.2</ele>
        <time>2013-01-28T13:43:14Z</time>
      </trkpt>
      <trkpt lat="48.39451" lon="2.53778">
        <ele>164</ele>
        <time>2013-01-28T13:43:22Z</time>
      </trkpt>
      <trkpt lat="48.39429" lon="2.53768">
        <ele>166.1</ele>
        <time>2013-01-28T13:43:29Z</time>
      </trkpt>
      <trkpt lat="48.3941" lon="2.5377">
        <ele>166.4</ele>
        <time>2013-01-28T13:43:34Z</time>
      </trkpt>
      <trkpt lat="48.39384" lon="2.53767">
        <ele>169</ele>
        <time>2013-01-28T13:43:40Z</time>
      </trkpt>
      <trkpt lat="48.39371" lon="2.53772">
        <ele>171.7</ele>
        <time>2013-01-28T13:43:46Z</time>
      </trkpt>
      <trkpt lat="48.39349" lon="2.53808">
        <ele>168.8</ele>
        <time>2013-01-28T13:43:55Z</time>
      </trkpt>
      <trkpt lat="48.39315" lon="2.53826">
        <ele>168.8</ele>
        <time>2013-01-28T13:44:03Z</time>
      </trkpt>
      <trkpt lat="48.39282" lon="2.53847">
        <ele>164.2</ele>
        <time>2013-01-28T13:44:11Z</time>
      </trkpt>
      <trkpt lat="48.39276" lon="2.53874">
        <ele>159.4</ele>
        <time>2013-01-28T13:44:18Z</time>
      </trkpt>
      <trkpt lat="48.39265" lon="2.53897">
        <ele>157</ele>
        <time>2013-01-28T13:44:25Z</time>
      </trkpt>
      <trkpt lat="48.3925" lon="2.53918">
        <ele>157.8</ele>
        <time>2013-01-28T13:44:31Z</time>
      </trkpt>
      <trkpt lat="48.39234" lon="2.53936">
        <ele>157.5</ele>
        <time>2013-01-28T13:44:37Z</time>
      </trkpt>
      <trkpt lat="48.3923" lon="2.53963">
        <ele>153.4</ele>
        <time>2013-01-28T13:44:44Z</time>
      </trkpt>
      <trkpt lat="48.39236" lon="2.54">
        <ele>152.3</ele>
        <time>2013-01-28T13:44:53Z</time>
      </trkpt>
      <trkpt lat="48.39247" lon="2.54048">
        <ele>153.4</ele>
        <time>2013-01-28T13:45:02Z</time>
      </trkpt>
      <trkpt lat="48.39244" lon="2.54069">
        <ele>154.8</ele>
        <time>2013-01-28T13:45:08Z</time>
      </trkpt>
      <trkpt lat="48.39246" lon="2.54091">
        <ele>153.2</ele>
        <time>2013-01-28T13:45:13Z</time>
      </trkpt>
      <trkpt lat="48.39256" lon="2.5412">
        <ele>150.1</ele>
        <time>2013-01-28T13:45:21Z</time>
      </trkpt>
      <trkpt lat="48.39245" lon="2.54146">
        <ele>152.7</ele>
        <time>2013-01-28T13:45:29Z</time>
      </trkpt>
      <trkpt lat="48.3922" lon="2.54178">
        <ele>153.7</ele>
        <time>2013-01-28T13:45:37Z</time>
      </trkpt>
      <trkpt lat="48.39212" lon="2.54191">
        <ele>153.2</ele>
        <time>2013-01-28T13:45:40Z</time>
      </trkpt>
      <trkpt lat="48.39206" lon="2.54225">
        <ele>156</ele>
        <time>2013-01-28T13:45:47Z</time>
      </trkpt>
      <trkpt lat="48.39209" lon="2.54256">
        <ele>154.8</ele>
        <time>2013-01-28T13:45:53Z</time>
      </trkpt>
      <trkpt lat="48.39206" lon="2.54302">
        <ele>156</ele>
        <time>2013-01-28T13:45:59Z</time>
      </trkpt>
      <trkpt lat="48.39209" lon="2.54337">
        <ele>153.8</ele>
        <time>2013-01-28T13:46:06Z</time>
      </trkpt>
      <trkpt lat="48.39203" lon="2.54369">
        <ele>152.7</ele>
        <time>2013-01-28T13:46:13Z</time>
      </trkpt>
      <trkpt lat="48.39186" lon="2.54389">
        <ele>148.2</ele>
        <time>2013-01-28T13:46:19Z</time>
      </trkpt>
      <trkpt lat="48.39175" lon="2.54413">
        <ele>145.6</ele>
        <time>2013-01-28T13:46:24Z</time>
      </trkpt>
      <trkpt lat="48.39166" lon="2.54468">
        <ele>142</ele>
        <time>2013-01-28T13:46:32Z</time>
      </trkpt>
      <trkpt lat="48.39153" lon="2.54514">
        <ele>135.8</ele>
        <time>2013-01-28T13:46:38Z</time>
      </trkpt>
      <trkpt lat="48.39154" lon="2.54547">
        <ele>134.6</ele>
        <time>2013-01-28T13:46:44Z</time>
      </trkpt>
      <trkpt lat="48.39158" lon="2.54568">
        <ele>133.8</ele>
        <time>2013-01-28T13:46:49Z</time>
      </trkpt>
      <trkpt lat="48.39168" lon="2.54581">
        <ele>131.2</ele>
        <time>2013-01-28T13:46:54Z</time>
      </trkpt>
      <trkpt lat="48.39169" lon="2.54647">
        <ele>127.1</ele>
        <time>2013-01-28T13:47:02Z</time>
      </trkpt>
      <trkpt lat="48.39154" lon="2.54711">
        <ele>125.3</ele>
        <time>2013-01-28T13:47:08Z</time>
      </trkpt>
      <trkpt lat="48.39135" lon="2.54768">
        <ele>124.4</ele>
        <time>2013-01-28T13:47:13Z</time>
      </trkpt>
      <trkpt lat="48.39123" lon="2.54816">
        <ele>123.9</ele>
        <time>2013-01-28T13:47:18Z</time>
      </trkpt>
      <trkpt lat="48.39123" lon="2.54816">
        <ele>123.9</ele>
        <time>2013-01-28T13:47:24Z</time>
      </trkpt>
      <trkpt lat="48.39123" lon="2.54816">
        <ele>123.9</ele>
        <time>2013-01-28T13:47:25Z</time>
      </trkpt>
      <trkpt lat="48.39116" lon="2.5484">
        <ele>116.9</ele>
        <time>2013-01-28T13:48:35Z</time>
      </trkpt>
      <trkpt lat="48.39108" lon="2.54858">
        <ele>117.5</ele>
        <time>2013-01-28T13:48:40Z</time>
      </trkpt>
      <trkpt lat="48.39104" lon="2.54868">
        <ele>116.9</ele>
        <time>2013-01-28T13:48:43Z</time>
      </trkpt>
      <trkpt lat="48.39073" lon="2.54862">
        <ele>122.6</ele>
        <time>2013-01-28T13:49:51Z</time>
      </trkpt>
      <trkpt lat="48.3906" lon="2.54853">
        <ele>124.3</ele>
        <time>2013-01-28T13:49:54Z</time>
      </trkpt>
      <trkpt lat="48.39049" lon="2.54848">
        <ele>124.4</ele>
        <time>2013-01-28T13:49:57Z</time>
      </trkpt>
      <trkpt lat="48.39019" lon="2.54836">
        <ele>122.5</ele>
        <time>2013-01-28T13:50:04Z</time>
      </trkpt>
      <trkpt lat="48.38999" lon="2.54831">
        <ele>122.4</ele>
        <time>2013-01-28T13:50:09Z</time>
      </trkpt>
      <trkpt lat="48.38976" lon="2.54829">
        <ele>123.2</ele>
        <time>2013-01-28T13:50:15Z</time>
      </trkpt>
      <trkpt lat="48.38959" lon="2.54821">
        <ele>126.5</ele>
        <time>2013-01-28T13:50:20Z</time>
      </trkpt>
      <trkpt lat="48.3894" lon="2.548">
        <ele>127</ele>
        <time>2013-01-28T13:50:27Z</time>
      </trkpt>
      <trkpt lat="48.38918" lon="2.54785">
        <ele>127</ele>
        <time>2013-01-28T13:50:34Z</time>
      </trkpt>
      <trkpt lat="48.38898" lon="2.54779">
        <ele>130.9</ele>
        <time>2013-01-28T13:50:41Z</time>
      </trkpt>
      <trkpt lat="48.38888" lon="2.5477">
        <ele>129.9</ele>
        <time>2013-01-28T13:50:47Z</time>
      </trkpt>
      <trkpt lat="48.38869" lon="2.54766">
        <ele>133.1</ele>
        <time>2013-01-28T13:51:01Z</time>
      </trkpt>
      <trkpt lat="48.38865" lon="2.54764">
        <ele>130.5</ele>
        <time>2013-01-28T13:51:08Z</time>
      </trkpt>
      <trkpt lat="48.38862" lon="2.54756">
        <ele>124.3</ele>
        <time>2013-01-28T13:51:21Z</time>
      </trkpt>
      <trkpt lat="48.38826" lon="2.54741">
        <ele>117.8</ele>
        <time>2013-01-28T13:51:40Z</time>
      </trkpt>
      <trkpt lat="48.38816" lon="2.54712">
        <ele>130.9</ele>
        <time>2013-01-28T13:52:00Z</time>
      </trkpt>
      <trkpt lat="48.38816" lon="2.54695">
        <ele>133.5</ele>
        <time>2013-01-28T13:52:12Z</time>
      </trkpt>
      <trkpt lat="48.38807" lon="2.54688">
        <ele>141.2</ele>
        <time>2013-01-28T13:52:27Z</time>
      </trkpt>
      <trkpt lat="48.38804" lon="2.54688">
        <ele>145</ele>
        <time>2013-01-28T13:52:34Z</time>
      </trkpt>
      <trkpt lat="48.38807" lon="2.54688">
        <ele>141.2</ele>
        <time>2013-01-28T13:52:43Z</time>
      </trkpt>
      <trkpt lat="48.38796" lon="2.54675">
        <ele>150.1</ele>
        <time>2013-01-28T13:53:59Z</time>
      </trkpt>
      <trkpt lat="48.38775" lon="2.54671">
        <ele>154.3</ele>
        <time>2013-01-28T13:54:14Z</time>
      </trkpt>
      <trkpt lat="48.38761" lon="2.5466">
        <ele>158.9</ele>
        <time>2013-01-28T13:54:25Z</time>
      </trkpt>
      <trkpt lat="48.38761" lon="2.54659">
        <ele>159.1</ele>
        <time>2013-01-28T13:54:34Z</time>
      </trkpt>
      <trkpt lat="48.38741" lon="2.54644">
        <ele>158.5</ele>
        <time>2013-01-28T13:57:50Z</time>
      </trkpt>
      <trkpt lat="48.38726" lon="2.54621">
        <ele>158.4</ele>
        <time>2013-01-28T13:58:02Z</time>
      </trkpt>
      <trkpt lat="48.38718" lon="2.54597">
        <ele>160.6</ele>
        <time>2013-01-28T13:58:10Z</time>
      </trkpt>
      <trkpt lat="48.38706" lon="2.54572">
        <ele>163.3</ele>
        <time>2013-01-28T13:58:18Z</time>
      </trkpt>
      <trkpt lat="48.38676" lon="2.54542">
        <ele>159.7</ele>
        <time>2013-01-28T13:58:28Z</time>
      </trkpt>
      <trkpt lat="48.3866" lon="2.54519">
        <ele>156.2</ele>
        <time>2013-01-28T13:58:36Z</time>
      </trkpt>
      <trkpt lat="48.3865" lon="2.54507">
        <ele>157.2</ele>
        <time>2013-01-28T13:58:42Z</time>
      </trkpt>
      <trkpt lat="48.38642" lon="2.54531">
        <ele>156.9</ele>
        <time>2013-01-28T13:58:50Z</time>
      </trkpt>
      <trkpt lat="48.38636" lon="2.54571">
        <ele>158.3</ele>
        <time>2013-01-28T13:58:59Z</time>
      </trkpt>
      <trkpt lat="48.38629" lon="2.54606">
        <ele>157.3</ele>
        <time>2013-01-28T13:59:05Z</time>
      </trkpt>
      <trkpt lat="48.38615" lon="2.54656">
        <ele>157.9</ele>
        <time>2013-01-28T13:59:11Z</time>
      </trkpt>
      <trkpt lat="48.38603" lon="2.54709">
        <ele>157.5</ele>
        <time>2013-01-28T13:59:17Z</time>
      </trkpt>
      <trkpt lat="48.38594" lon="2.54763">
        <ele>160.7</ele>
        <time>2013-01-28T13:59:24Z</time>
      </trkpt>
      <trkpt lat="48.38581" lon="2.54781">
        <ele>156.2</ele>
        <time>2013-01-28T13:59:30Z</time>
      </trkpt>
      <trkpt lat="48.38571" lon="2.54797">
        <ele>156.7</ele>
        <time>2013-01-28T13:59:40Z</time>
      </trkpt>
      <trkpt lat="48.38574" lon="2.54803">
        <ele>157.2</ele>
        <time>2013-01-28T13:59:44Z</time>
      </trkpt>
      <trkpt lat="48.38575" lon="2.54804">
        <ele>156.3</ele>
        <time>2013-01-28T13:59:53Z</time>
      </trkpt>
      <trkpt lat="48.38566" lon="2.54785">
        <ele>157.5</ele>
        <time>2013-01-28T14:00:10Z</time>
      </trkpt>
      <trkpt lat="48.38551" lon="2.54757">
        <ele>158.2</ele>
        <time>2013-01-28T14:00:14Z</time>
      </trkpt>
      <trkpt lat="48.38529" lon="2.54716">
        <ele>160</ele>
        <time>2013-01-28T14:00:20Z</time>
      </trkpt>
      <trkpt lat="48.38519" lon="2.54685">
        <ele>159.6</ele>
        <time>2013-01-28T14:00:26Z</time>
      </trkpt>
      <trkpt lat="48.38506" lon="2.54665">
        <ele>156.6</ele>
        <time>2013-01-28T14:00:32Z</time>
      </trkpt>
      <trkpt lat="48.38496" lon="2.54646">
        <ele>156.2</ele>
        <time>2013-01-28T14:00:37Z</time>
      </trkpt>
      <trkpt lat="48.38487" lon="2.54621">
        <ele>158</ele>
        <time>2013-01-28T14:00:44Z</time>
      </trkpt>
      <trkpt lat="48.38482" lon="2.54606">
        <ele>160.8</ele>
        <time>2013-01-28T14:00:53Z</time>
      </trkpt>
      <trkpt lat="48.38475" lon="2.54586">
        <ele>164.7</ele>
        <time>2013-01-28T14:01:02Z</time>
      </trkpt>
      <trkpt lat="48.38475" lon="2.54586">
        <ele>163.8</ele>
        <time>2013-01-28T14:01:11Z</time>
      </trkpt>
      <trkpt lat="48.3846" lon="2.54551">
        <ele>185.8</ele>
        <time>2013-01-28T14:01:38Z</time>
      </trkpt>
      <trkpt lat="48.3845" lon="2.54524">
        <ele>166.2</ele>
        <time>2013-01-28T14:01:50Z</time>
      </trkpt>
      <trkpt lat="48.38444" lon="2.54497">
        <ele>161</ele>
        <time>2013-01-28T14:01:55Z</time>
      </trkpt>
      <trkpt lat="48.38437" lon="2.54459">
        <ele>162</ele>
        <time>2013-01-28T14:02:01Z</time>
      </trkpt>
      <trkpt lat="48.38421" lon="2.54418">
        <ele>160.9</ele>
        <time>2013-01-28T14:02:06Z</time>
      </trkpt>
      <trkpt lat="48.38416" lon="2.54373">
        <ele>154.4</ele>
        <time>2013-01-28T14:02:12Z</time>
      </trkpt>
      <trkpt lat="48.38416" lon="2.54321">
        <ele>151.4</ele>
        <time>2013-01-28T14:02:18Z</time>
      </trkpt>
      <trkpt lat="48.38417" lon="2.54314">
        <ele>150.5</ele>
        <time>2013-01-28T14:02:23Z</time>
      </trkpt>
      <trkpt lat="48.38409" lon="2.54304">
        <ele>148.2</ele>
        <time>2013-01-28T14:02:33Z</time>
      </trkpt>
      <trkpt lat="48.384" lon="2.54229">
        <ele>144.6</ele>
        <time>2013-01-28T14:02:42Z</time>
      </trkpt>
      <trkpt lat="48.38397" lon="2.54221">
        <ele>142.7</ele>
        <time>2013-01-28T14:02:44Z</time>
      </trkpt>
      <trkpt lat="48.38399" lon="2.54209">
        <ele>140.3</ele>
        <time>2013-01-28T14:02:58Z</time>
      </trkpt>
      <trkpt lat="48.38399" lon="2.54209">
        <ele>140.3</ele>
        <time>2013-01-28T14:03:05Z</time>
      </trkpt>
      <trkpt lat="48.38399" lon="2.54209">
        <ele>140.3</ele>
        <time>2013-01-28T14:03:06Z</time>
      </trkpt>
      <trkpt lat="48.38384" lon="2.54175">
        <ele>136.6</ele>
        <time>2013-01-28T14:03:23Z</time>
      </trkpt>
      <trkpt lat="48.38375" lon="2.5413">
        <ele>136.4</ele>
        <time>2013-01-28T14:03:28Z</time>
      </trkpt>
      <trkpt lat="48.38348" lon="2.5409">
        <ele>132.2</ele>
        <time>2013-01-28T14:03:34Z</time>
      </trkpt>
      <trkpt lat="48.38312" lon="2.54062">
        <ele>133.2</ele>
        <time>2013-01-28T14:03:40Z</time>
      </trkpt>
      <trkpt lat="48.38281" lon="2.54042">
        <ele>128.1</ele>
        <time>2013-01-28T14:03:45Z</time>
      </trkpt>
      <trkpt lat="48.38261" lon="2.54017">
        <ele>127.1</ele>
        <time>2013-01-28T14:03:51Z</time>
      </trkpt>
      <trkpt lat="48.38252" lon="2.53987">
        <ele>124.5</ele>
        <time>2013-01-28T14:03:57Z</time>
      </trkpt>
      <trkpt lat="48.38253" lon="2.53955">
        <ele>122.5</ele>
        <time>2013-01-28T14:04:04Z</time>
      </trkpt>
      <trkpt lat="48.3826" lon="2.53925">
        <ele>125</ele>
        <time>2013-01-28T14:04:09Z</time>
      </trkpt>
      <trkpt lat="48.38263" lon="2.53892">
        <ele>119.8</ele>
        <time>2013-01-28T14:04:15Z</time>
      </trkpt>
      <trkpt lat="48.38269" lon="2.53853">
        <ele>119.9</ele>
        <time>2013-01-28T14:04:21Z</time>
      </trkpt>
      <trkpt lat="48.38269" lon="2.53809">
        <ele>121.1</ele>
        <time>2013-01-28T14:04:27Z</time>
      </trkpt>
      <trkpt lat="48.38265" lon="2.53758">
        <ele>120.3</ele>
        <time>2013-01-28T14:04:33Z</time>
      </trkpt>
      <trkpt lat="48.38259" lon="2.53708">
        <ele>119.2</ele>
        <time>2013-01-28T14:04:39Z</time>
      </trkpt>
      <trkpt lat="48.38261" lon="2.53673">
        <ele>118.3</ele>
        <time>2013-01-28T14:04:44Z</time>
      </trkpt>
      <trkpt lat="48.38256" lon="2.53629">
        <ele>117.6</ele>
        <time>2013-01-28T14:04:51Z</time>
      </trkpt>
      <trkpt lat="48.38236" lon="2.53614">
        <ele>119.6</ele>
        <time>2013-01-28T14:04:56Z</time>
      </trkpt>
      <trkpt lat="48.38206" lon="2.53593">
        <ele>119.8</ele>
        <time>2013-01-28T14:05:03Z</time>
      </trkpt>
      <trkpt lat="48.38181" lon="2.53573">
        <ele>118.5</ele>
        <time>2013-01-28T14:05:08Z</time>
      </trkpt>
      <trkpt lat="48.38166" lon="2.53562">
        <ele>118.3</ele>
        <time>2013-01-28T14:05:11Z</time>
      </trkpt>
      <trkpt lat="48.38139" lon="2.53535">
        <ele>117.3</ele>
        <time>2013-01-28T14:05:17Z</time>
      </trkpt>
      <trkpt lat="48.38131" lon="2.5351">
        <ele>119.4</ele>
        <time>2013-01-28T14:05:23Z</time>
      </trkpt>
      <trkpt lat="48.38127" lon="2.53485">
        <ele>117.6</ele>
        <time>2013-01-28T14:05:29Z</time>
      </trkpt>
      <trkpt lat="48.38117" lon="2.53453">
        <ele>115</ele>
        <time>2013-01-28T14:05:36Z</time>
      </trkpt>
      <trkpt lat="48.38097" lon="2.53417">
        <ele>115.3</ele>
        <time>2013-01-28T14:05:43Z</time>
      </trkpt>
      <trkpt lat="48.38076" lon="2.53383">
        <ele>114.8</ele>
        <time>2013-01-28T14:05:48Z</time>
      </trkpt>
      <trkpt lat="48.38047" lon="2.53345">
        <ele>114.2</ele>
        <time>2013-01-28T14:05:54Z</time>
      </trkpt>
      <trkpt lat="48.38019" lon="2.53307">
        <ele>112.9</ele>
        <time>2013-01-28T14:06:00Z</time>
      </trkpt>
      <trkpt lat="48.37999" lon="2.53276">
        <ele>112.9</ele>
        <time>2013-01-28T14:06:06Z</time>
      </trkpt>
      <trkpt lat="48.37983" lon="2.53251">
        <ele>112.2</ele>
        <time>2013-01-28T14:06:12Z</time>
      </trkpt>
      <trkpt lat="48.3797" lon="2.53241">
        <ele>112.2</ele>
        <time>2013-01-28T14:06:18Z</time>
      </trkpt>
      <trkpt lat="48.37956" lon="2.53232">
        <ele>112.5</ele>
        <time>2013-01-28T14:06:25Z</time>
      </trkpt>
      <trkpt lat="48.37949" lon="2.53217">
        <ele>113.1</ele>
        <time>2013-01-28T14:06:31Z</time>
      </trkpt>
      <trkpt lat="48.37941" lon="2.53205">
        <ele>110.2</ele>
        <time>2013-01-28T14:06:35Z</time>
      </trkpt>
      <trkpt lat="48.37927" lon="2.53194">
        <ele>109.2</ele>
        <time>2013-01-28T14:06:41Z</time>
      </trkpt>
      <trkpt lat="48.37915" lon="2.53215">
        <ele>108.9</ele>
        <time>2013-01-28T14:06:46Z</time>
      </trkpt>
      <trkpt lat="48.37899" lon="2.53254">
        <ele>107.5</ele>
        <time>2013-01-28T14:06:52Z</time>
      </trkpt>
      <trkpt lat="48.37884" lon="2.53283">
        <ele>109.6</ele>
        <time>2013-01-28T14:06:57Z</time>
      </trkpt>
      <trkpt lat="48.37867" lon="2.53299">
        <ele>111.2</ele>
        <time>2013-01-28T14:07:02Z</time>
      </trkpt>
      <trkpt lat="48.37856" lon="2.53316">
        <ele>111.9</ele>
        <time>2013-01-28T14:07:08Z</time>
      </trkpt>
      <trkpt lat="48.37845" lon="2.53331">
        <ele>113.1</ele>
        <time>2013-01-28T14:07:17Z</time>
      </trkpt>
      <trkpt lat="48.37822" lon="2.53351">
        <ele>115.6</ele>
        <time>2013-01-28T14:07:34Z</time>
      </trkpt>
      <trkpt lat="48.37805" lon="2.53351">
        <ele>117.6</ele>
        <time>2013-01-28T14:07:48Z</time>
      </trkpt>
      <trkpt lat="48.37778" lon="2.53348">
        <ele>127.6</ele>
        <time>2013-01-28T14:08:17Z</time>
      </trkpt>
      <trkpt lat="48.37763" lon="2.53354">
        <ele>129.6</ele>
        <time>2013-01-28T14:08:25Z</time>
      </trkpt>
      <trkpt lat="48.37752" lon="2.53361">
        <ele>128.5</ele>
        <time>2013-01-28T14:08:33Z</time>
      </trkpt>
      <trkpt lat="48.37739" lon="2.53353">
        <ele>128.6</ele>
        <time>2013-01-28T14:08:46Z</time>
      </trkpt>
      <trkpt lat="48.37739" lon="2.53351">
        <ele>130</ele>
        <time>2013-01-28T14:08:55Z</time>
      </trkpt>
      <trkpt lat="48.37711" lon="2.53352">
        <ele>137.9</ele>
        <time>2013-01-28T14:10:05Z</time>
      </trkpt>
      <trkpt lat="48.37709" lon="2.53379">
        <ele>135.8</ele>
        <time>2013-01-28T14:10:23Z</time>
      </trkpt>
      <trkpt lat="48.37719" lon="2.53398">
        <ele>137.2</ele>
        <time>2013-01-28T14:10:34Z</time>
      </trkpt>
      <trkpt lat="48.37724" lon="2.5342">
        <ele>137.6</ele>
        <time>2013-01-28T14:10:47Z</time>
      </trkpt>
      <trkpt lat="48.37724" lon="2.5342">
        <ele>137.6</ele>
        <time>2013-01-28T14:10:54Z</time>
      </trkpt>
      <trkpt lat="48.37724" lon="2.5342">
        <ele>137.6</ele>
        <time>2013-01-28T14:10:55Z</time>
      </trkpt>
      <trkpt lat="48.37724" lon="2.5342">
        <ele>93</ele>
        <time>2013-01-28T14:13:32Z</time>
      </trkpt>
      <trkpt lat="48.37724" lon="2.5342">
        <ele>93</ele>
        <time>2013-01-28T14:18:31Z</time>
      </trkpt>
      <trkpt lat="48.37717" lon="2.53427">
        <ele>136.8</ele>
        <time>2013-01-28T14:18:31Z</time>
      </trkpt>
      <trkpt lat="48.37727" lon="2.53471">
        <ele>143.4</ele>
        <time>2013-01-28T14:21:27Z</time>
      </trkpt>
      <trkpt lat="48.37746" lon="2.53486">
        <ele>141.9</ele>
        <time>2013-01-28T14:21:47Z</time>
      </trkpt>
      <trkpt lat="48.37749" lon="2.53505">
        <ele>145.3</ele>
        <time>2013-01-28T14:22:01Z</time>
      </trkpt>
      <trkpt lat="48.37749" lon="2.53505">
        <ele>145.3</ele>
        <time>2013-01-28T14:22:08Z</time>
      </trkpt>
      <trkpt lat="48.37749" lon="2.53505">
        <ele>145.3</ele>
        <time>2013-01-28T14:22:09Z</time>
      </trkpt>
      <trkpt lat="48.3775" lon="2.53538">
        <ele>137.5</ele>
        <time>2013-01-28T14:23:46Z</time>
      </trkpt>
      <trkpt lat="48.37748" lon="2.53559">
        <ele>132.6</ele>
        <time>2013-01-28T14:23:58Z</time>
      </trkpt>
      <trkpt lat="48.37736" lon="2.53583">
        <ele>137.1</ele>
        <time>2013-01-28T14:24:07Z</time>
      </trkpt>
      <trkpt lat="48.37723" lon="2.53595">
        <ele>137.2</ele>
        <time>2013-01-28T14:24:19Z</time>
      </trkpt>
      <trkpt lat="48.37728" lon="2.53641">
        <ele>128.8</ele>
        <time>2013-01-28T14:24:36Z</time>
      </trkpt>
      <trkpt lat="48.37743" lon="2.53681">
        <ele>128.2</ele>
        <time>2013-01-28T14:24:54Z</time>
      </trkpt>
      <trkpt lat="48.37742" lon="2.53711">
        <ele>131.6</ele>
        <time>2013-01-28T14:25:05Z</time>
      </trkpt>
      <trkpt lat="48.37741" lon="2.53725">
        <ele>133.2</ele>
        <time>2013-01-28T14:25:08Z</time>
      </trkpt>
      <trkpt lat="48.37741" lon="2.53745">
        <ele>134</ele>
        <time>2013-01-28T14:25:12Z</time>
      </trkpt>
      <trkpt lat="48.37736" lon="2.53755">
        <ele>133.8</ele>
        <time>2013-01-28T14:25:19Z</time>
      </trkpt>
      <trkpt lat="48.37753" lon="2.53794">
        <ele>129.7</ele>
        <time>2013-01-28T14:25:37Z</time>
      </trkpt>
      <trkpt lat="48.37761" lon="2.53822">
        <ele>123.7</ele>
        <time>2013-01-28T14:25:49Z</time>
      </trkpt>
      <trkpt lat="48.37756" lon="2.53825">
        <ele>124.6</ele>
        <time>2013-01-28T14:25:53Z</time>
      </trkpt>
      <trkpt lat="48.37755" lon="2.53826">
        <ele>126.2</ele>
        <time>2013-01-28T14:25:59Z</time>
      </trkpt>
      <trkpt lat="48.37745" lon="2.53847">
        <ele>128</ele>
        <time>2013-01-28T14:26:12Z</time>
      </trkpt>
      <trkpt lat="48.37725" lon="2.53865">
        <ele>122.5</ele>
        <time>2013-01-28T14:26:25Z</time>
      </trkpt>
      <trkpt lat="48.37708" lon="2.53881">
        <ele>123.2</ele>
        <time>2013-01-28T14:26:34Z</time>
      </trkpt>
      <trkpt lat="48.37708" lon="2.53881">
        <ele>123.2</ele>
        <time>2013-01-28T14:26:39Z</time>
      </trkpt>
      <trkpt lat="48.37708" lon="2.53888">
        <ele>123.4</ele>
        <time>2013-01-28T14:26:41Z</time>
      </trkpt>
      <trkpt lat="48.3768" lon="2.53883">
        <ele>117.3</ele>
        <time>2013-01-28T14:27:18Z</time>
      </trkpt>
      <trkpt lat="48.37673" lon="2.53899">
        <ele>119.5</ele>
        <time>2013-01-28T14:27:27Z</time>
      </trkpt>
      <trkpt lat="48.37689" lon="2.53941">
        <ele>118.9</ele>
        <time>2013-01-28T14:27:39Z</time>
      </trkpt>
      <trkpt lat="48.37693" lon="2.53958">
        <ele>122.8</ele>
        <time>2013-01-28T14:27:43Z</time>
      </trkpt>
      <trkpt lat="48.377" lon="2.53974">
        <ele>120</ele>
        <time>2013-01-28T14:27:48Z</time>
      </trkpt>
      <trkpt lat="48.37716" lon="2.54001">
        <ele>116.7</ele>
        <time>2013-01-28T14:27:55Z</time>
      </trkpt>
      <trkpt lat="48.37743" lon="2.5403">
        <ele>118.4</ele>
        <time>2013-01-28T14:28:02Z</time>
      </trkpt>
      <trkpt lat="48.37763" lon="2.54059">
        <ele>117.7</ele>
        <time>2013-01-28T14:28:07Z</time>
      </trkpt>
      <trkpt lat="48.3779" lon="2.54082">
        <ele>116.7</ele>
        <time>2013-01-28T14:28:13Z</time>
      </trkpt>
      <trkpt lat="48.37806" lon="2.54095">
        <ele>117.6</ele>
        <time>2013-01-28T14:28:18Z</time>
      </trkpt>
      <trkpt lat="48.3781" lon="2.54119">
        <ele>117.6</ele>
        <time>2013-01-28T14:28:27Z</time>
      </trkpt>
      <trkpt lat="48.37801" lon="2.54165">
        <ele>114.7</ele>
        <time>2013-01-28T14:28:36Z</time>
      </trkpt>
      <trkpt lat="48.37783" lon="2.54201">
        <ele>116.6</ele>
        <time>2013-01-28T14:28:42Z</time>
      </trkpt>
      <trkpt lat="48.3777" lon="2.54217">
        <ele>113.9</ele>
        <time>2013-01-28T14:28:47Z</time>
      </trkpt>
      <trkpt lat="48.3776" lon="2.54231">
        <ele>116.4</ele>
        <time>2013-01-28T14:28:51Z</time>
      </trkpt>
      <trkpt lat="48.37753" lon="2.54244">
        <ele>115.5</ele>
        <time>2013-01-28T14:28:53Z</time>
      </trkpt>
      <trkpt lat="48.37748" lon="2.54257">
        <ele>116.8</ele>
        <time>2013-01-28T14:28:56Z</time>
      </trkpt>
      <trkpt lat="48.3774" lon="2.54274">
        <ele>114.5</ele>
        <time>2013-01-28T14:29:00Z</time>
      </trkpt>
      <trkpt lat="48.3773" lon="2.54296">
        <ele>109.3</ele>
        <time>2013-01-28T14:29:06Z</time>
      </trkpt>
      <trkpt lat="48.37719" lon="2.54339">
        <ele>112.2</ele>
        <time>2013-01-28T14:29:15Z</time>
      </trkpt>
      <trkpt lat="48.37714" lon="2.54365">
        <ele>114.7</ele>
        <time>2013-01-28T14:29:21Z</time>
      </trkpt>
      <trkpt lat="48.37713" lon="2.54381">
        <ele>113.9</ele>
        <time>2013-01-28T14:29:26Z</time>
      </trkpt>
      <trkpt lat="48.37716" lon="2.54394">
        <ele>117.9</ele>
        <time>2013-01-28T14:29:36Z</time>
      </trkpt>
      <trkpt lat="48.37709" lon="2.54414">
        <ele>117.2</ele>
        <time>2013-01-28T14:29:49Z</time>
      </trkpt>
      <trkpt lat="48.37694" lon="2.54447">
        <ele>117.2</ele>
        <time>2013-01-28T14:29:59Z</time>
      </trkpt>
      <trkpt lat="48.37685" lon="2.54475">
        <ele>123.3</ele>
        <time>2013-01-28T14:30:08Z</time>
      </trkpt>
      <trkpt lat="48.3768" lon="2.54513">
        <ele>127.8</ele>
        <time>2013-01-28T14:30:19Z</time>
      </trkpt>
      <trkpt lat="48.37675" lon="2.54539">
        <ele>134.2</ele>
        <time>2013-01-28T14:30:27Z</time>
      </trkpt>
      <trkpt lat="48.37673" lon="2.54566">
        <ele>131.9</ele>
        <time>2013-01-28T14:30:36Z</time>
      </trkpt>
      <trkpt lat="48.37672" lon="2.54596">
        <ele>131.8</ele>
        <time>2013-01-28T14:30:47Z</time>
      </trkpt>
      <trkpt lat="48.37669" lon="2.54623">
        <ele>133.3</ele>
        <time>2013-01-28T14:30:59Z</time>
      </trkpt>
      <trkpt lat="48.37665" lon="2.54635">
        <ele>132.8</ele>
        <time>2013-01-28T14:31:05Z</time>
      </trkpt>
      <trkpt lat="48.37662" lon="2.54646">
        <ele>141.7</ele>
        <time>2013-01-28T14:31:19Z</time>
      </trkpt>
      <trkpt lat="48.37654" lon="2.54681">
        <ele>143.8</ele>
        <time>2013-01-28T14:31:57Z</time>
      </trkpt>
      <trkpt lat="48.37642" lon="2.54706">
        <ele>144.5</ele>
        <time>2013-01-28T14:32:16Z</time>
      </trkpt>
      <trkpt lat="48.37634" lon="2.54722">
        <ele>147.9</ele>
        <time>2013-01-28T14:32:28Z</time>
      </trkpt>
      <trkpt lat="48.37631" lon="2.54724">
        <ele>148.5</ele>
        <time>2013-01-28T14:32:30Z</time>
      </trkpt>
      <trkpt lat="48.37629" lon="2.54734">
        <ele>148.1</ele>
        <time>2013-01-28T14:32:42Z</time>
      </trkpt>
      <trkpt lat="48.37622" lon="2.54771">
        <ele>154.1</ele>
        <time>2013-01-28T14:33:44Z</time>
      </trkpt>
      <trkpt lat="48.37622" lon="2.54774">
        <ele>154.3</ele>
        <time>2013-01-28T14:33:46Z</time>
      </trkpt>
      <trkpt lat="48.37625" lon="2.54777">
        <ele>155.7</ele>
        <time>2013-01-28T14:33:53Z</time>
      </trkpt>
      <trkpt lat="48.3764" lon="2.54815">
        <ele>148.1</ele>
        <time>2013-01-28T14:34:36Z</time>
      </trkpt>
      <trkpt lat="48.3765" lon="2.54821">
        <ele>149</ele>
        <time>2013-01-28T14:34:46Z</time>
      </trkpt>
      <trkpt lat="48.3765" lon="2.54862">
        <ele>145.9</ele>
        <time>2013-01-28T14:35:20Z</time>
      </trkpt>
      <trkpt lat="48.37647" lon="2.54902">
        <ele>144.1</ele>
        <time>2013-01-28T14:35:36Z</time>
      </trkpt>
      <trkpt lat="48.37646" lon="2.54917">
        <ele>139</ele>
        <time>2013-01-28T14:35:47Z</time>
      </trkpt>
      <trkpt lat="48.37645" lon="2.54923">
        <ele>142.4</ele>
        <time>2013-01-28T14:35:50Z</time>
      </trkpt>
      <trkpt lat="48.37646" lon="2.54917">
        <ele>139</ele>
        <time>2013-01-28T14:35:57Z</time>
      </trkpt>
      <trkpt lat="48.37637" lon="2.54936">
        <ele>146.8</ele>
        <time>2013-01-28T14:36:50Z</time>
      </trkpt>
      <trkpt lat="48.37628" lon="2.54949">
        <ele>147.2</ele>
        <time>2013-01-28T14:36:58Z</time>
      </trkpt>
      <trkpt lat="48.37599" lon="2.54953">
        <ele>143.1</ele>
        <time>2013-01-28T14:37:19Z</time>
      </trkpt>
      <trkpt lat="48.37582" lon="2.54935">
        <ele>142.5</ele>
        <time>2013-01-28T14:37:29Z</time>
      </trkpt>
      <trkpt lat="48.37568" lon="2.5493">
        <ele>136.3</ele>
        <time>2013-01-28T14:37:35Z</time>
      </trkpt>
      <trkpt lat="48.37568" lon="2.5493">
        <ele>136.3</ele>
        <time>2013-01-28T14:37:42Z</time>
      </trkpt>
      <trkpt lat="48.37568" lon="2.5493">
        <ele>136.3</ele>
        <time>2013-01-28T14:37:43Z</time>
      </trkpt>
      <trkpt lat="48.37561" lon="2.54947">
        <ele>137.8</ele>
        <time>2013-01-28T14:38:29Z</time>
      </trkpt>
      <trkpt lat="48.3755" lon="2.5496">
        <ele>136.9</ele>
        <time>2013-01-28T14:38:39Z</time>
      </trkpt>
      <trkpt lat="48.37543" lon="2.54951">
        <ele>136.6</ele>
        <time>2013-01-28T14:38:50Z</time>
      </trkpt>
      <trkpt lat="48.37514" lon="2.54913">
        <ele>136.1</ele>
        <time>2013-01-28T14:39:02Z</time>
      </trkpt>
      <trkpt lat="48.37494" lon="2.54906">
        <ele>134.6</ele>
        <time>2013-01-28T14:39:08Z</time>
      </trkpt>
      <trkpt lat="48.3749" lon="2.54925">
        <ele>126.5</ele>
        <time>2013-01-28T14:39:17Z</time>
      </trkpt>
      <trkpt lat="48.37489" lon="2.54956">
        <ele>127.7</ele>
        <time>2013-01-28T14:39:28Z</time>
      </trkpt>
      <trkpt lat="48.37489" lon="2.54985">
        <ele>129.8</ele>
        <time>2013-01-28T14:39:38Z</time>
      </trkpt>
      <trkpt lat="48.37486" lon="2.55016">
        <ele>131.1</ele>
        <time>2013-01-28T14:39:48Z</time>
      </trkpt>
      <trkpt lat="48.37484" lon="2.55053">
        <ele>129.5</ele>
        <time>2013-01-28T14:40:00Z</time>
      </trkpt>
      <trkpt lat="48.37486" lon="2.55074">
        <ele>130</ele>
        <time>2013-01-28T14:40:05Z</time>
      </trkpt>
      <trkpt lat="48.37487" lon="2.55107">
        <ele>124.8</ele>
        <time>2013-01-28T14:40:12Z</time>
      </trkpt>
      <trkpt lat="48.37488" lon="2.55144">
        <ele>126.3</ele>
        <time>2013-01-28T14:40:19Z</time>
      </trkpt>
      <trkpt lat="48.37487" lon="2.55163">
        <ele>125.1</ele>
        <time>2013-01-28T14:40:22Z</time>
      </trkpt>
      <trkpt lat="48.3749" lon="2.55191">
        <ele>125.8</ele>
        <time>2013-01-28T14:40:27Z</time>
      </trkpt>
      <trkpt lat="48.37499" lon="2.55222">
        <ele>126.3</ele>
        <time>2013-01-28T14:40:33Z</time>
      </trkpt>
      <trkpt lat="48.37518" lon="2.55226">
        <ele>128.3</ele>
        <time>2013-01-28T14:40:39Z</time>
      </trkpt>
      <trkpt lat="48.37536" lon="2.55242">
        <ele>129.8</ele>
        <time>2013-01-28T14:40:46Z</time>
      </trkpt>
      <trkpt lat="48.37543" lon="2.55259">
        <ele>130.1</ele>
        <time>2013-01-28T14:40:52Z</time>
      </trkpt>
      <trkpt lat="48.37555" lon="2.55286">
        <ele>130.4</ele>
        <time>2013-01-28T14:41:00Z</time>
      </trkpt>
      <trkpt lat="48.37564" lon="2.55301">
        <ele>131</ele>
        <time>2013-01-28T14:41:06Z</time>
      </trkpt>
      <trkpt lat="48.37579" lon="2.55325">
        <ele>131.2</ele>
        <time>2013-01-28T14:41:16Z</time>
      </trkpt>
      <trkpt lat="48.37591" lon="2.55335">
        <ele>130.9</ele>
        <time>2013-01-28T14:41:27Z</time>
      </trkpt>
      <trkpt lat="48.37611" lon="2.55324">
        <ele>133.8</ele>
        <time>2013-01-28T14:41:43Z</time>
      </trkpt>
      <trkpt lat="48.37625" lon="2.55334">
        <ele>132.3</ele>
        <time>2013-01-28T14:41:57Z</time>
      </trkpt>
      <trkpt lat="48.37651" lon="2.55306">
        <ele>146.3</ele>
        <time>2013-01-28T14:43:15Z</time>
      </trkpt>
      <trkpt lat="48.37664" lon="2.55306">
        <ele>147.6</ele>
        <time>2013-01-28T14:43:27Z</time>
      </trkpt>
      <trkpt lat="48.37664" lon="2.55309">
        <ele>145.6</ele>
        <time>2013-01-28T14:43:37Z</time>
      </trkpt>
      <trkpt lat="48.37691" lon="2.55307">
        <ele>157.4</ele>
        <time>2013-01-28T14:44:33Z</time>
      </trkpt>
      <trkpt lat="48.37717" lon="2.55288">
        <ele>164</ele>
        <time>2013-01-28T14:45:32Z</time>
      </trkpt>
      <trkpt lat="48.37747" lon="2.55292">
        <ele>167.1</ele>
        <time>2013-01-28T14:46:15Z</time>
      </trkpt>
      <trkpt lat="48.37754" lon="2.553">
        <ele>167</ele>
        <time>2013-01-28T14:46:24Z</time>
      </trkpt>
      <trkpt lat="48.3776" lon="2.55292">
        <ele>167.4</ele>
        <time>2013-01-28T14:46:39Z</time>
      </trkpt>
      <trkpt lat="48.37776" lon="2.55279">
        <ele>167.3</ele>
        <time>2013-01-28T14:46:56Z</time>
      </trkpt>
      <trkpt lat="48.37791" lon="2.55275">
        <ele>164.4</ele>
        <time>2013-01-28T14:47:08Z</time>
      </trkpt>
      <trkpt lat="48.37819" lon="2.5526">
        <ele>152.5</ele>
        <time>2013-01-28T14:47:23Z</time>
      </trkpt>
      <trkpt lat="48.37835" lon="2.55243">
        <ele>149.3</ele>
        <time>2013-01-28T14:47:33Z</time>
      </trkpt>
      <trkpt lat="48.37845" lon="2.55227">
        <ele>149.1</ele>
        <time>2013-01-28T14:47:42Z</time>
      </trkpt>
      <trkpt lat="48.37863" lon="2.55203">
        <ele>149.4</ele>
        <time>2013-01-28T14:47:59Z</time>
      </trkpt>
      <trkpt lat="48.37878" lon="2.552">
        <ele>148.5</ele>
        <time>2013-01-28T14:48:09Z</time>
      </trkpt>
      <trkpt lat="48.37897" lon="2.55186">
        <ele>148.3</ele>
        <time>2013-01-28T14:48:28Z</time>
      </trkpt>
      <trkpt lat="48.379" lon="2.55185">
        <ele>149.2</ele>
        <time>2013-01-28T14:48:35Z</time>
      </trkpt>
      <trkpt lat="48.37902" lon="2.55187">
        <ele>151.5</ele>
        <time>2013-01-28T14:48:43Z</time>
      </trkpt>
      <trkpt lat="48.37934" lon="2.55182">
        <ele>155.4</ele>
        <time>2013-01-28T14:49:38Z</time>
      </trkpt>
      <trkpt lat="48.37959" lon="2.55148">
        <ele>151.8</ele>
        <time>2013-01-28T14:49:49Z</time>
      </trkpt>
      <trkpt lat="48.37979" lon="2.55158">
        <ele>145.4</ele>
        <time>2013-01-28T14:50:01Z</time>
      </trkpt>
      <trkpt lat="48.38" lon="2.55172">
        <ele>143.7</ele>
        <time>2013-01-28T14:50:08Z</time>
      </trkpt>
      <trkpt lat="48.38015" lon="2.55178">
        <ele>151.8</ele>
        <time>2013-01-28T14:50:15Z</time>
      </trkpt>
      <trkpt lat="48.38029" lon="2.55194">
        <ele>154.9</ele>
        <time>2013-01-28T14:50:21Z</time>
      </trkpt>
      <trkpt lat="48.38037" lon="2.55206">
        <ele>163.4</ele>
        <time>2013-01-28T14:50:30Z</time>
      </trkpt>
      <trkpt lat="48.38051" lon="2.55222">
        <ele>161.5</ele>
        <time>2013-01-28T14:50:40Z</time>
      </trkpt>
      <trkpt lat="48.38049" lon="2.55249">
        <ele>159</ele>
        <time>2013-01-28T14:50:50Z</time>
      </trkpt>
      <trkpt lat="48.38041" lon="2.55289">
        <ele>161.6</ele>
        <time>2013-01-28T14:51:00Z</time>
      </trkpt>
      <trkpt lat="48.38033" lon="2.55328">
        <ele>153.4</ele>
        <time>2013-01-28T14:51:07Z</time>
      </trkpt>
      <trkpt lat="48.3803" lon="2.55353">
        <ele>152.8</ele>
        <time>2013-01-28T14:51:11Z</time>
      </trkpt>
      <trkpt lat="48.38027" lon="2.55378">
        <ele>150.9</ele>
        <time>2013-01-28T14:51:16Z</time>
      </trkpt>
      <trkpt lat="48.38027" lon="2.55415">
        <ele>149.1</ele>
        <time>2013-01-28T14:51:22Z</time>
      </trkpt>
      <trkpt lat="48.38028" lon="2.55439">
        <ele>147.7</ele>
        <time>2013-01-28T14:51:25Z</time>
      </trkpt>
      <trkpt lat="48.38024" lon="2.5547">
        <ele>146.3</ele>
        <time>2013-01-28T14:51:30Z</time>
      </trkpt>
      <trkpt lat="48.38014" lon="2.55507">
        <ele>145.8</ele>
        <time>2013-01-28T14:51:36Z</time>
      </trkpt>
      <trkpt lat="48.38014" lon="2.55539">
        <ele>145.5</ele>
        <time>2013-01-28T14:51:41Z</time>
      </trkpt>
      <trkpt lat="48.38021" lon="2.55569">
        <ele>145.8</ele>
        <time>2013-01-28T14:51:46Z</time>
      </trkpt>
      <trkpt lat="48.38023" lon="2.55601">
        <ele>144.5</ele>
        <time>2013-01-28T14:51:51Z</time>
      </trkpt>
      <trkpt lat="48.3802" lon="2.5564">
        <ele>143.9</ele>
        <time>2013-01-28T14:51:57Z</time>
      </trkpt>
      <trkpt lat="48.38016" lon="2.55679">
        <ele>143</ele>
        <time>2013-01-28T14:52:03Z</time>
      </trkpt>
      <trkpt lat="48.38015" lon="2.557">
        <ele>142.1</ele>
        <time>2013-01-28T14:52:06Z</time>
      </trkpt>
      <trkpt lat="48.38027" lon="2.55723">
        <ele>141.3</ele>
        <time>2013-01-28T14:52:10Z</time>
      </trkpt>
      <trkpt lat="48.38034" lon="2.5575">
        <ele>140.2</ele>
        <time>2013-01-28T14:52:15Z</time>
      </trkpt>
      <trkpt lat="48.38033" lon="2.55787">
        <ele>139.5</ele>
        <time>2013-01-28T14:52:21Z</time>
      </trkpt>
      <trkpt lat="48.38032" lon="2.55819">
        <ele>140.2</ele>
        <time>2013-01-28T14:52:26Z</time>
      </trkpt>
      <trkpt lat="48.3803" lon="2.55845">
        <ele>139.5</ele>
        <time>2013-01-28T14:52:30Z</time>
      </trkpt>
      <trkpt lat="48.38031" lon="2.5587">
        <ele>140.7</ele>
        <time>2013-01-28T14:52:34Z</time>
      </trkpt>
      <trkpt lat="48.38034" lon="2.55901">
        <ele>140.1</ele>
        <time>2013-01-28T14:52:39Z</time>
      </trkpt>
      <trkpt lat="48.38037" lon="2.55929">
        <ele>141.1</ele>
        <time>2013-01-28T14:52:44Z</time>
      </trkpt>
      <trkpt lat="48.38042" lon="2.55968">
        <ele>140.5</ele>
        <time>2013-01-28T14:52:51Z</time>
      </trkpt>
      <trkpt lat="48.38044" lon="2.55984">
        <ele>140</ele>
        <time>2013-01-28T14:52:54Z</time>
      </trkpt>
      <trkpt lat="48.38046" lon="2.55999">
        <ele>140</ele>
        <time>2013-01-28T14:52:57Z</time>
      </trkpt>
      <trkpt lat="48.38055" lon="2.56013">
        <ele>139.9</ele>
        <time>2013-01-28T14:53:04Z</time>
      </trkpt>
      <trkpt lat="48.38067" lon="2.5596">
        <ele>137.2</ele>
        <time>2013-01-28T14:53:15Z</time>
      </trkpt>
      <trkpt lat="48.38082" lon="2.55932">
        <ele>137.8</ele>
        <time>2013-01-28T14:53:21Z</time>
      </trkpt>
      <trkpt lat="48.38095" lon="2.55902">
        <ele>140.7</ele>
        <time>2013-01-28T14:53:27Z</time>
      </trkpt>
      <trkpt lat="48.38105" lon="2.55888">
        <ele>142.4</ele>
        <time>2013-01-28T14:53:31Z</time>
      </trkpt>
      <trkpt lat="48.38123" lon="2.5588">
        <ele>142.7</ele>
        <time>2013-01-28T14:53:36Z</time>
      </trkpt>
      <trkpt lat="48.38136" lon="2.55859">
        <ele>146.7</ele>
        <time>2013-01-28T14:53:42Z</time>
      </trkpt>
      <trkpt lat="48.3814" lon="2.55837">
        <ele>143</ele>
        <time>2013-01-28T14:53:46Z</time>
      </trkpt>
      <trkpt lat="48.38147" lon="2.55803">
        <ele>144.7</ele>
        <time>2013-01-28T14:53:53Z</time>
      </trkpt>
      <trkpt lat="48.3815" lon="2.55793">
        <ele>146.1</ele>
        <time>2013-01-28T14:53:56Z</time>
      </trkpt>
      <trkpt lat="48.38164" lon="2.55763">
        <ele>148.4</ele>
        <time>2013-01-28T14:54:06Z</time>
      </trkpt>
      <trkpt lat="48.38182" lon="2.55739">
        <ele>149</ele>
        <time>2013-01-28T14:54:13Z</time>
      </trkpt>
      <trkpt lat="48.38196" lon="2.55703">
        <ele>150.9</ele>
        <time>2013-01-28T14:54:19Z</time>
      </trkpt>
      <trkpt lat="48.38201" lon="2.55683">
        <ele>149.4</ele>
        <time>2013-01-28T14:54:23Z</time>
      </trkpt>
      <trkpt lat="48.38206" lon="2.55663">
        <ele>149.1</ele>
        <time>2013-01-28T14:54:26Z</time>
      </trkpt>
      <trkpt lat="48.38213" lon="2.55629">
        <ele>148.1</ele>
        <time>2013-01-28T14:54:31Z</time>
      </trkpt>
      <trkpt lat="48.38224" lon="2.55592">
        <ele>147.4</ele>
        <time>2013-01-28T14:54:37Z</time>
      </trkpt>
      <trkpt lat="48.38226" lon="2.55572">
        <ele>146.8</ele>
        <time>2013-01-28T14:54:40Z</time>
      </trkpt>
      <trkpt lat="48.38232" lon="2.55529">
        <ele>145.8</ele>
        <time>2013-01-28T14:54:46Z</time>
      </trkpt>
      <trkpt lat="48.38241" lon="2.55487">
        <ele>144.4</ele>
        <time>2013-01-28T14:54:52Z</time>
      </trkpt>
      <trkpt lat="48.3825" lon="2.55441">
        <ele>146</ele>
        <time>2013-01-28T14:54:58Z</time>
      </trkpt>
      <trkpt lat="48.38256" lon="2.55403">
        <ele>146.1</ele>
        <time>2013-01-28T14:55:03Z</time>
      </trkpt>
      <trkpt lat="48.38254" lon="2.55355">
        <ele>145</ele>
        <time>2013-01-28T14:55:09Z</time>
      </trkpt>
      <trkpt lat="48.38251" lon="2.55313">
        <ele>142.4</ele>
        <time>2013-01-28T14:55:14Z</time>
      </trkpt>
      <trkpt lat="48.3825" lon="2.55264">
        <ele>142.8</ele>
        <time>2013-01-28T14:55:20Z</time>
      </trkpt>
      <trkpt lat="48.3826" lon="2.5521">
        <ele>141.2</ele>
        <time>2013-01-28T14:55:26Z</time>
      </trkpt>
      <trkpt lat="48.38263" lon="2.55185">
        <ele>141.6</ele>
        <time>2013-01-28T14:55:29Z</time>
      </trkpt>
      <trkpt lat="48.38271" lon="2.55131">
        <ele>139.9</ele>
        <time>2013-01-28T14:55:35Z</time>
      </trkpt>
      <trkpt lat="48.38267" lon="2.55074">
        <ele>140.5</ele>
        <time>2013-01-28T14:55:42Z</time>
      </trkpt>
      <trkpt lat="48.38274" lon="2.55046">
        <ele>140.2</ele>
        <time>2013-01-28T14:55:47Z</time>
      </trkpt>
      <trkpt lat="48.38285" lon="2.55031">
        <ele>138.7</ele>
        <time>2013-01-28T14:55:56Z</time>
      </trkpt>
      <trkpt lat="48.38303" lon="2.55026">
        <ele>145.4</ele>
        <time>2013-01-28T14:56:06Z</time>
      </trkpt>
      <trkpt lat="48.38319" lon="2.5503">
        <ele>147.9</ele>
        <time>2013-01-28T14:56:19Z</time>
      </trkpt>
      <trkpt lat="48.38344" lon="2.55064">
        <ele>154.1</ele>
        <time>2013-01-28T14:56:37Z</time>
      </trkpt>
      <trkpt lat="48.38349" lon="2.55078">
        <ele>156.3</ele>
        <time>2013-01-28T14:56:46Z</time>
      </trkpt>
      <trkpt lat="48.38381" lon="2.55082">
        <ele>159.4</ele>
        <time>2013-01-28T14:57:03Z</time>
      </trkpt>
      <trkpt lat="48.38399" lon="2.55094">
        <ele>158.6</ele>
        <time>2013-01-28T14:57:12Z</time>
      </trkpt>
      <trkpt lat="48.38436" lon="2.55117">
        <ele>155.7</ele>
        <time>2013-01-28T14:57:20Z</time>
      </trkpt>
      <trkpt lat="48.38451" lon="2.55127">
        <ele>154.6</ele>
        <time>2013-01-28T14:57:23Z</time>
      </trkpt>
      <trkpt lat="48.38483" lon="2.55146">
        <ele>152.9</ele>
        <time>2013-01-28T14:57:29Z</time>
      </trkpt>
      <trkpt lat="48.38499" lon="2.55157">
        <ele>152.9</ele>
        <time>2013-01-28T14:57:32Z</time>
      </trkpt>
      <trkpt lat="48.38513" lon="2.55169">
        <ele>151.8</ele>
        <time>2013-01-28T14:57:38Z</time>
      </trkpt>
      <trkpt lat="48.38515" lon="2.55201">
        <ele>151.3</ele>
        <time>2013-01-28T14:57:49Z</time>
      </trkpt>
      <trkpt lat="48.38521" lon="2.55238">
        <ele>152.1</ele>
        <time>2013-01-28T14:57:56Z</time>
      </trkpt>
      <trkpt lat="48.38514" lon="2.5529">
        <ele>151.5</ele>
        <time>2013-01-28T14:58:03Z</time>
      </trkpt>
      <trkpt lat="48.3851" lon="2.55341">
        <ele>148.3</ele>
        <time>2013-01-28T14:58:09Z</time>
      </trkpt>
      <trkpt lat="48.38505" lon="2.55398">
        <ele>147</ele>
        <time>2013-01-28T14:58:15Z</time>
      </trkpt>
      <trkpt lat="48.38499" lon="2.55443">
        <ele>145.8</ele>
        <time>2013-01-28T14:58:20Z</time>
      </trkpt>
      <trkpt lat="48.3849" lon="2.55511">
        <ele>145.1</ele>
        <time>2013-01-28T14:58:27Z</time>
      </trkpt>
      <trkpt lat="48.38479" lon="2.55559">
        <ele>144.5</ele>
        <time>2013-01-28T14:58:32Z</time>
      </trkpt>
      <trkpt lat="48.38465" lon="2.55607">
        <ele>145.3</ele>
        <time>2013-01-28T14:58:37Z</time>
      </trkpt>
      <trkpt lat="48.3845" lon="2.55657">
        <ele>142.7</ele>
        <time>2013-01-28T14:58:43Z</time>
      </trkpt>
      <trkpt lat="48.38443" lon="2.55701">
        <ele>142</ele>
        <time>2013-01-28T14:58:50Z</time>
      </trkpt>
      <trkpt lat="48.38439" lon="2.55721">
        <ele>137.3</ele>
        <time>2013-01-28T14:58:57Z</time>
      </trkpt>
      <trkpt lat="48.38439" lon="2.55721">
        <ele>137.3</ele>
        <time>2013-01-28T14:59:02Z</time>
      </trkpt>
      <trkpt lat="48.38439" lon="2.55721">
        <ele>137.3</ele>
        <time>2013-01-28T14:59:03Z</time>
      </trkpt>
      <trkpt lat="48.38439" lon="2.55721">
        <ele>103.2</ele>
        <time>2013-01-28T14:59:20Z</time>
      </trkpt>
      <trkpt lat="48.38439" lon="2.55721">
        <ele>103.2</ele>
        <time>2013-01-28T15:00:22Z</time>
      </trkpt>
      <trkpt lat="48.38436" lon="2.55721">
        <ele>142.9</ele>
        <time>2013-01-28T15:00:22Z</time>
      </trkpt>
      <trkpt lat="48.38443" lon="2.55703">
        <ele>138.7</ele>
        <time>2013-01-28T15:00:59Z</time>
      </trkpt>
      <trkpt lat="48.38448" lon="2.55674">
        <ele>137.9</ele>
        <time>2013-01-28T15:01:07Z</time>
      </trkpt>
      <trkpt lat="48.38455" lon="2.55643">
        <ele>138</ele>
        <time>2013-01-28T15:01:14Z</time>
      </trkpt>
      <trkpt lat="48.38462" lon="2.55607">
        <ele>141.4</ele>
        <time>2013-01-28T15:01:21Z</time>
      </trkpt>
      <trkpt lat="48.38469" lon="2.55581">
        <ele>138</ele>
        <time>2013-01-28T15:01:26Z</time>
      </trkpt>
      <trkpt lat="48.38478" lon="2.55548">
        <ele>136.2</ele>
        <time>2013-01-28T15:01:33Z</time>
      </trkpt>
      <trkpt lat="48.38486" lon="2.55517">
        <ele>138.8</ele>
        <time>2013-01-28T15:01:40Z</time>
      </trkpt>
      <trkpt lat="48.38493" lon="2.55493">
        <ele>138.7</ele>
        <time>2013-01-28T15:01:45Z</time>
      </trkpt>
      <trkpt lat="48.38501" lon="2.55458">
        <ele>138.4</ele>
        <time>2013-01-28T15:01:53Z</time>
      </trkpt>
      <trkpt lat="48.38504" lon="2.55427">
        <ele>137.4</ele>
        <time>2013-01-28T15:02:00Z</time>
      </trkpt>
      <trkpt lat="48.38507" lon="2.55403">
        <ele>137</ele>
        <time>2013-01-28T15:02:05Z</time>
      </trkpt>
      <trkpt lat="48.38511" lon="2.55375">
        <ele>138.2</ele>
        <time>2013-01-28T15:02:12Z</time>
      </trkpt>
      <trkpt lat="48.38512" lon="2.5535">
        <ele>139.7</ele>
        <time>2013-01-28T15:02:17Z</time>
      </trkpt>
      <trkpt lat="48.38513" lon="2.55315">
        <ele>148.3</ele>
        <time>2013-01-28T15:02:25Z</time>
      </trkpt>
      <trkpt lat="48.38518" lon="2.5528">
        <ele>145.5</ele>
        <time>2013-01-28T15:02:32Z</time>
      </trkpt>
      <trkpt lat="48.38521" lon="2.55256">
        <ele>147.5</ele>
        <time>2013-01-28T15:02:37Z</time>
      </trkpt>
      <trkpt lat="48.3852" lon="2.55228">
        <ele>151.5</ele>
        <time>2013-01-28T15:02:47Z</time>
      </trkpt>
      <trkpt lat="48.38518" lon="2.55206">
        <ele>151.4</ele>
        <time>2013-01-28T15:02:58Z</time>
      </trkpt>
      <trkpt lat="48.38518" lon="2.55192">
        <ele>147.5</ele>
        <time>2013-01-28T15:03:02Z</time>
      </trkpt>
      <trkpt lat="48.38523" lon="2.55161">
        <ele>147.9</ele>
        <time>2013-01-28T15:03:10Z</time>
      </trkpt>
      <trkpt lat="48.38528" lon="2.55135">
        <ele>153</ele>
        <time>2013-01-28T15:03:17Z</time>
      </trkpt>
      <trkpt lat="48.38537" lon="2.55104">
        <ele>157.1</ele>
        <time>2013-01-28T15:03:27Z</time>
      </trkpt>
      <trkpt lat="48.38546" lon="2.55056">
        <ele>159.6</ele>
        <time>2013-01-28T15:03:36Z</time>
      </trkpt>
      <trkpt lat="48.38556" lon="2.55024">
        <ele>156.6</ele>
        <time>2013-01-28T15:03:43Z</time>
      </trkpt>
      <trkpt lat="48.38565" lon="2.54992">
        <ele>155.4</ele>
        <time>2013-01-28T15:03:50Z</time>
      </trkpt>
      <trkpt lat="48.38566" lon="2.54962">
        <ele>157.9</ele>
        <time>2013-01-28T15:03:56Z</time>
      </trkpt>
      <trkpt lat="48.38571" lon="2.54929">
        <ele>159.1</ele>
        <time>2013-01-28T15:04:04Z</time>
      </trkpt>
      <trkpt lat="48.38577" lon="2.54892">
        <ele>156</ele>
        <time>2013-01-28T15:04:11Z</time>
      </trkpt>
      <trkpt lat="48.3858" lon="2.54863">
        <ele>158.2</ele>
        <time>2013-01-28T15:04:17Z</time>
      </trkpt>
      <trkpt lat="48.38589" lon="2.54828">
        <ele>152.8</ele>
        <time>2013-01-28T15:04:24Z</time>
      </trkpt>
      <trkpt lat="48.38591" lon="2.54789">
        <ele>152.7</ele>
        <time>2013-01-28T15:04:31Z</time>
      </trkpt>
      <trkpt lat="48.38595" lon="2.54755">
        <ele>153.8</ele>
        <time>2013-01-28T15:04:37Z</time>
      </trkpt>
      <trkpt lat="48.386" lon="2.54721">
        <ele>155.8</ele>
        <time>2013-01-28T15:04:43Z</time>
      </trkpt>
      <trkpt lat="48.38607" lon="2.54683">
        <ele>155.7</ele>
        <time>2013-01-28T15:04:50Z</time>
      </trkpt>
      <trkpt lat="48.38613" lon="2.54656">
        <ele>157.8</ele>
        <time>2013-01-28T15:04:56Z</time>
      </trkpt>
      <trkpt lat="48.38623" lon="2.54621">
        <ele>155.4</ele>
        <time>2013-01-28T15:05:03Z</time>
      </trkpt>
      <trkpt lat="48.38628" lon="2.54592">
        <ele>157.3</ele>
        <time>2013-01-28T15:05:09Z</time>
      </trkpt>
      <trkpt lat="48.38638" lon="2.54559">
        <ele>155.9</ele>
        <time>2013-01-28T15:05:16Z</time>
      </trkpt>
      <trkpt lat="48.38649" lon="2.54521">
        <ele>155</ele>
        <time>2013-01-28T15:05:23Z</time>
      </trkpt>
      <trkpt lat="48.38655" lon="2.54502">
        <ele>156</ele>
        <time>2013-01-28T15:05:27Z</time>
      </trkpt>
      <trkpt lat="48.38657" lon="2.54479">
        <ele>157.8</ele>
        <time>2013-01-28T15:05:32Z</time>
      </trkpt>
      <trkpt lat="48.38662" lon="2.54447">
        <ele>157.8</ele>
        <time>2013-01-28T15:05:38Z</time>
      </trkpt>
      <trkpt lat="48.38663" lon="2.54426">
        <ele>158.8</ele>
        <time>2013-01-28T15:05:42Z</time>
      </trkpt>
      <trkpt lat="48.38664" lon="2.54398">
        <ele>159.3</ele>
        <time>2013-01-28T15:05:48Z</time>
      </trkpt>
      <trkpt lat="48.38679" lon="2.54371">
        <ele>159.8</ele>
        <time>2013-01-28T15:05:56Z</time>
      </trkpt>
      <trkpt lat="48.38697" lon="2.54342">
        <ele>160.4</ele>
        <time>2013-01-28T15:06:05Z</time>
      </trkpt>
      <trkpt lat="48.38719" lon="2.54319">
        <ele>160.2</ele>
        <time>2013-01-28T15:06:12Z</time>
      </trkpt>
      <trkpt lat="48.38736" lon="2.54303">
        <ele>160</ele>
        <time>2013-01-28T15:06:18Z</time>
      </trkpt>
      <trkpt lat="48.38746" lon="2.5429">
        <ele>160.9</ele>
        <time>2013-01-28T15:06:22Z</time>
      </trkpt>
      <trkpt lat="48.38757" lon="2.54276">
        <ele>162.5</ele>
        <time>2013-01-28T15:06:26Z</time>
      </trkpt>
      <trkpt lat="48.38766" lon="2.5425">
        <ele>163</ele>
        <time>2013-01-28T15:06:34Z</time>
      </trkpt>
      <trkpt lat="48.38765" lon="2.54224">
        <ele>162.2</ele>
        <time>2013-01-28T15:06:40Z</time>
      </trkpt>
      <trkpt lat="48.38765" lon="2.54202">
        <ele>159.8</ele>
        <time>2013-01-28T15:06:45Z</time>
      </trkpt>
      <trkpt lat="48.38787" lon="2.54192">
        <ele>162.3</ele>
        <time>2013-01-28T15:06:51Z</time>
      </trkpt>
      <trkpt lat="48.38803" lon="2.54177">
        <ele>160.6</ele>
        <time>2013-01-28T15:06:57Z</time>
      </trkpt>
      <trkpt lat="48.38809" lon="2.54144">
        <ele>156.3</ele>
        <time>2013-01-28T15:07:03Z</time>
      </trkpt>
      <trkpt lat="48.3881" lon="2.54122">
        <ele>154.8</ele>
        <time>2013-01-28T15:07:07Z</time>
      </trkpt>
      <trkpt lat="48.38816" lon="2.54085">
        <ele>156</ele>
        <time>2013-01-28T15:07:14Z</time>
      </trkpt>
      <trkpt lat="48.38821" lon="2.54053">
        <ele>158.3</ele>
        <time>2013-01-28T15:07:21Z</time>
      </trkpt>
      <trkpt lat="48.38825" lon="2.54039">
        <ele>154.6</ele>
        <time>2013-01-28T15:07:24Z</time>
      </trkpt>
      <trkpt lat="48.38833" lon="2.54016">
        <ele>154.8</ele>
        <time>2013-01-28T15:07:29Z</time>
      </trkpt>
      <trkpt lat="48.38838" lon="2.5399">
        <ele>151.3</ele>
        <time>2013-01-28T15:07:35Z</time>
      </trkpt>
      <trkpt lat="48.3885" lon="2.53965">
        <ele>151.9</ele>
        <time>2013-01-28T15:07:41Z</time>
      </trkpt>
      <trkpt lat="48.38866" lon="2.53932">
        <ele>156.6</ele>
        <time>2013-01-28T15:07:49Z</time>
      </trkpt>
      <trkpt lat="48.38881" lon="2.5392">
        <ele>158.5</ele>
        <time>2013-01-28T15:07:56Z</time>
      </trkpt>
      <trkpt lat="48.38886" lon="2.53889">
        <ele>160.3</ele>
        <time>2013-01-28T15:08:05Z</time>
      </trkpt>
      <trkpt lat="48.3889" lon="2.53855">
        <ele>158.3</ele>
        <time>2013-01-28T15:08:12Z</time>
      </trkpt>
      <trkpt lat="48.38895" lon="2.5382">
        <ele>160.5</ele>
        <time>2013-01-28T15:08:19Z</time>
      </trkpt>
      <trkpt lat="48.38897" lon="2.53786">
        <ele>158.4</ele>
        <time>2013-01-28T15:08:26Z</time>
      </trkpt>
      <trkpt lat="48.38905" lon="2.53765">
        <ele>159.6</ele>
        <time>2013-01-28T15:08:31Z</time>
      </trkpt>
      <trkpt lat="48.38921" lon="2.53737">
        <ele>162.6</ele>
        <time>2013-01-28T15:08:38Z</time>
      </trkpt>
      <trkpt lat="48.38935" lon="2.53721">
        <ele>164.9</ele>
        <time>2013-01-28T15:08:43Z</time>
      </trkpt>
      <trkpt lat="48.38953" lon="2.53696">
        <ele>165.9</ele>
        <time>2013-01-28T15:08:50Z</time>
      </trkpt>
      <trkpt lat="48.38973" lon="2.53674">
        <ele>166.6</ele>
        <time>2013-01-28T15:08:57Z</time>
      </trkpt>
      <trkpt lat="48.38996" lon="2.53668">
        <ele>167.6</ele>
        <time>2013-01-28T15:09:04Z</time>
      </trkpt>
      <trkpt lat="48.39028" lon="2.5365">
        <ele>167.5</ele>
        <time>2013-01-28T15:09:12Z</time>
      </trkpt>
      <trkpt lat="48.39043" lon="2.53625">
        <ele>167.6</ele>
        <time>2013-01-28T15:09:18Z</time>
      </trkpt>
      <trkpt lat="48.39061" lon="2.536">
        <ele>166.5</ele>
        <time>2013-01-28T15:09:24Z</time>
      </trkpt>
      <trkpt lat="48.39086" lon="2.5359">
        <ele>165.7</ele>
        <time>2013-01-28T15:09:30Z</time>
      </trkpt>
      <trkpt lat="48.39104" lon="2.53571">
        <ele>166.3</ele>
        <time>2013-01-28T15:09:34Z</time>
      </trkpt>
      <trkpt lat="48.39113" lon="2.53552">
        <ele>167.2</ele>
        <time>2013-01-28T15:09:37Z</time>
      </trkpt>
      <trkpt lat="48.39135" lon="2.53516">
        <ele>167</ele>
        <time>2013-01-28T15:09:44Z</time>
      </trkpt>
      <trkpt lat="48.39147" lon="2.53483">
        <ele>166.1</ele>
        <time>2013-01-28T15:09:49Z</time>
      </trkpt>
      <trkpt lat="48.39168" lon="2.53448">
        <ele>164.7</ele>
        <time>2013-01-28T15:09:55Z</time>
      </trkpt>
      <trkpt lat="48.3918" lon="2.5342">
        <ele>162.9</ele>
        <time>2013-01-28T15:10:00Z</time>
      </trkpt>
      <trkpt lat="48.39193" lon="2.5339">
        <ele>160.6</ele>
        <time>2013-01-28T15:10:06Z</time>
      </trkpt>
      <trkpt lat="48.39212" lon="2.53363">
        <ele>159.9</ele>
        <time>2013-01-28T15:10:13Z</time>
      </trkpt>
      <trkpt lat="48.39225" lon="2.5336">
        <ele>158.5</ele>
        <time>2013-01-28T15:10:19Z</time>
      </trkpt>
      <trkpt lat="48.39235" lon="2.53401">
        <ele>157.8</ele>
        <time>2013-01-28T15:10:25Z</time>
      </trkpt>
      <trkpt lat="48.39245" lon="2.53445">
        <ele>156.2</ele>
        <time>2013-01-28T15:10:32Z</time>
      </trkpt>
      <trkpt lat="48.39239" lon="2.5347">
        <ele>162.8</ele>
        <time>2013-01-28T15:10:37Z</time>
      </trkpt>
      <trkpt lat="48.39244" lon="2.53515">
        <ele>163.8</ele>
        <time>2013-01-28T15:10:45Z</time>
      </trkpt>
      <trkpt lat="48.39245" lon="2.53551">
        <ele>164.1</ele>
        <time>2013-01-28T15:10:50Z</time>
      </trkpt>
      <trkpt lat="48.39254" lon="2.53584">
        <ele>160.9</ele>
        <time>2013-01-28T15:10:55Z</time>
      </trkpt>
      <trkpt lat="48.39254" lon="2.5363">
        <ele>163.1</ele>
        <time>2013-01-28T15:11:02Z</time>
      </trkpt>
      <trkpt lat="48.3925" lon="2.53662">
        <ele>158.8</ele>
        <time>2013-01-28T15:11:07Z</time>
      </trkpt>
      <trkpt lat="48.39249" lon="2.53695">
        <ele>161.4</ele>
        <time>2013-01-28T15:11:13Z</time>
      </trkpt>
      <trkpt lat="48.3925" lon="2.53724">
        <ele>162.7</ele>
        <time>2013-01-28T15:11:20Z</time>
      </trkpt>
      <trkpt lat="48.3925" lon="2.53724">
        <ele>162.7</ele>
        <time>2013-01-28T15:11:25Z</time>
      </trkpt>
      <trkpt lat="48.3925" lon="2.53724">
        <ele>162.7</ele>
        <time>2013-01-28T15:11:26Z</time>
      </trkpt>
      <trkpt lat="48.39246" lon="2.53743">
        <ele>155.7</ele>
        <time>2013-01-28T15:11:33Z</time>
      </trkpt>
      <trkpt lat="48.39243" lon="2.5377">
        <ele>153.1</ele>
        <time>2013-01-28T15:11:39Z</time>
      </trkpt>
      <trkpt lat="48.39254" lon="2.53781">
        <ele>146.4</ele>
        <time>2013-01-28T15:11:46Z</time>
      </trkpt>
      <trkpt lat="48.39264" lon="2.53806">
        <ele>150.2</ele>
        <time>2013-01-28T15:11:56Z</time>
      </trkpt>
      <trkpt lat="48.39277" lon="2.53821">
        <ele>152.6</ele>
        <time>2013-01-28T15:12:03Z</time>
      </trkpt>
      <trkpt lat="48.39279" lon="2.5386">
        <ele>156.5</ele>
        <time>2013-01-28T15:12:09Z</time>
      </trkpt>
      <trkpt lat="48.39265" lon="2.53888">
        <ele>155.9</ele>
        <time>2013-01-28T15:12:15Z</time>
      </trkpt>
      <trkpt lat="48.39257" lon="2.5391">
        <ele>156.5</ele>
        <time>2013-01-28T15:12:21Z</time>
      </trkpt>
      <trkpt lat="48.39246" lon="2.53922">
        <ele>153.8</ele>
        <time>2013-01-28T15:12:26Z</time>
      </trkpt>
      <trkpt lat="48.39234" lon="2.53939">
        <ele>155.3</ele>
        <time>2013-01-28T15:12:34Z</time>
      </trkpt>
      <trkpt lat="48.39232" lon="2.5397">
        <ele>155.9</ele>
        <time>2013-01-28T15:12:45Z</time>
      </trkpt>
      <trkpt lat="48.39244" lon="2.54013">
        <ele>152.7</ele>
        <time>2013-01-28T15:12:54Z</time>
      </trkpt>
      <trkpt lat="48.3925" lon="2.54056">
        <ele>155.5</ele>
        <time>2013-01-28T15:13:01Z</time>
      </trkpt>
      <trkpt lat="48.39247" lon="2.54083">
        <ele>159.3</ele>
        <time>2013-01-28T15:13:07Z</time>
      </trkpt>
      <trkpt lat="48.39255" lon="2.54109">
        <ele>157.6</ele>
        <time>2013-01-28T15:13:15Z</time>
      </trkpt>
      <trkpt lat="48.39255" lon="2.54125">
        <ele>156.1</ele>
        <time>2013-01-28T15:13:25Z</time>
      </trkpt>
      <trkpt lat="48.39229" lon="2.54161">
        <ele>157.4</ele>
        <time>2013-01-28T15:13:41Z</time>
      </trkpt>
      <trkpt lat="48.39217" lon="2.54181">
        <ele>157.8</ele>
        <time>2013-01-28T15:13:46Z</time>
      </trkpt>
      <trkpt lat="48.39209" lon="2.54223">
        <ele>156.4</ele>
        <time>2013-01-28T15:13:52Z</time>
      </trkpt>
      <trkpt lat="48.39209" lon="2.54255">
        <ele>156.1</ele>
        <time>2013-01-28T15:13:57Z</time>
      </trkpt>
      <trkpt lat="48.39208" lon="2.54302">
        <ele>152.6</ele>
        <time>2013-01-28T15:14:02Z</time>
      </trkpt>
      <trkpt lat="48.39209" lon="2.54333">
        <ele>152.4</ele>
        <time>2013-01-28T15:14:07Z</time>
      </trkpt>
      <trkpt lat="48.39209" lon="2.54359">
        <ele>145.5</ele>
        <time>2013-01-28T15:14:13Z</time>
      </trkpt>
      <trkpt lat="48.3919" lon="2.54387">
        <ele>141</ele>
        <time>2013-01-28T15:14:18Z</time>
      </trkpt>
      <trkpt lat="48.39176" lon="2.54421">
        <ele>137.6</ele>
        <time>2013-01-28T15:14:24Z</time>
      </trkpt>
      <trkpt lat="48.39166" lon="2.54478">
        <ele>135</ele>
        <time>2013-01-28T15:14:30Z</time>
      </trkpt>
      <trkpt lat="48.39156" lon="2.54531">
        <ele>132.4</ele>
        <time>2013-01-28T15:14:36Z</time>
      </trkpt>
      <trkpt lat="48.3916" lon="2.54568">
        <ele>128.9</ele>
        <time>2013-01-28T15:14:42Z</time>
      </trkpt>
      <trkpt lat="48.39167" lon="2.546">
        <ele>127.1</ele>
        <time>2013-01-28T15:14:49Z</time>
      </trkpt>
      <trkpt lat="48.39166" lon="2.54678">
        <ele>125.9</ele>
        <time>2013-01-28T15:14:56Z</time>
      </trkpt>
      <trkpt lat="48.39151" lon="2.54732">
        <ele>123.4</ele>
        <time>2013-01-28T15:15:01Z</time>
      </trkpt>
      <trkpt lat="48.39143" lon="2.54759">
        <ele>119.9</ele>
        <time>2013-01-28T15:15:04Z</time>
      </trkpt>
      <trkpt lat="48.3913" lon="2.54808">
        <ele>118.5</ele>
        <time>2013-01-28T15:15:09Z</time>
      </trkpt>
      <trkpt lat="48.39126" lon="2.54851">
        <ele>115.2</ele>
        <time>2013-01-28T15:15:15Z</time>
      </trkpt>
      <trkpt lat="48.39123" lon="2.54858">
        <ele>117.6</ele>
        <time>2013-01-28T15:15:19Z</time>
      </trkpt>
      <trkpt lat="48.39121" lon="2.5486">
        <ele>117</ele>
        <time>2013-01-28T15:15:26Z</time>
      </trkpt>
      <trkpt lat="48.39133" lon="2.54878">
        <ele>117.1</ele>
        <time>2013-01-28T15:15:51Z</time>
      </trkpt>
      <trkpt lat="48.39137" lon="2.54931">
        <ele>116.8</ele>
        <time>2013-01-28T15:16:03Z</time>
      </trkpt>
      <trkpt lat="48.39152" lon="2.5495">
        <ele>117.3</ele>
        <time>2013-01-28T15:16:08Z</time>
      </trkpt>
      <trkpt lat="48.39178" lon="2.54983">
        <ele>113.8</ele>
        <time>2013-01-28T15:16:15Z</time>
      </trkpt>
      <trkpt lat="48.392" lon="2.55008">
        <ele>112.8</ele>
        <time>2013-01-28T15:16:21Z</time>
      </trkpt>
      <trkpt lat="48.39219" lon="2.55033">
        <ele>109.9</ele>
        <time>2013-01-28T15:16:26Z</time>
      </trkpt>
      <trkpt lat="48.39245" lon="2.55063">
        <ele>106</ele>
        <time>2013-01-28T15:16:32Z</time>
      </trkpt>
      <trkpt lat="48.39268" lon="2.5509">
        <ele>108.4</ele>
        <time>2013-01-28T15:16:38Z</time>
      </trkpt>
      <trkpt lat="48.39294" lon="2.55117">
        <ele>110.2</ele>
        <time>2013-01-28T15:16:44Z</time>
      </trkpt>
      <trkpt lat="48.39315" lon="2.55144">
        <ele>110.1</ele>
        <time>2013-01-28T15:16:49Z</time>
      </trkpt>
      <trkpt lat="48.39346" lon="2.55182">
        <ele>107.1</ele>
        <time>2013-01-28T15:16:55Z</time>
      </trkpt>
      <trkpt lat="48.39379" lon="2.55216">
        <ele>105.7</ele>
        <time>2013-01-28T15:17:01Z</time>
      </trkpt>
      <trkpt lat="48.39409" lon="2.55236">
        <ele>110</ele>
        <time>2013-01-28T15:17:07Z</time>
      </trkpt>
      <trkpt lat="48.39439" lon="2.5525">
        <ele>107.1</ele>
        <time>2013-01-28T15:17:13Z</time>
      </trkpt>
      <trkpt lat="48.39452" lon="2.55226">
        <ele>110.4</ele>
        <time>2013-01-28T15:17:18Z</time>
      </trkpt>
      <trkpt lat="48.39471" lon="2.55201">
        <ele>110.6</ele>
        <time>2013-01-28T15:17:25Z</time>
      </trkpt>
      <trkpt lat="48.39479" lon="2.55174">
        <ele>112.4</ele>
        <time>2013-01-28T15:17:31Z</time>
      </trkpt>
      <trkpt lat="48.39493" lon="2.55132">
        <ele>114.3</ele>
        <time>2013-01-28T15:17:39Z</time>
      </trkpt>
      <trkpt lat="48.3951" lon="2.55089">
        <ele>116.3</ele>
        <time>2013-01-28T15:17:45Z</time>
      </trkpt>
      <trkpt lat="48.39526" lon="2.55046">
        <ele>115</ele>
        <time>2013-01-28T15:17:51Z</time>
      </trkpt>
      <trkpt lat="48.39548" lon="2.55003">
        <ele>115.9</ele>
        <time>2013-01-28T15:17:57Z</time>
      </trkpt>
      <trkpt lat="48.39568" lon="2.54957">
        <ele>115.3</ele>
        <time>2013-01-28T15:18:03Z</time>
      </trkpt>
      <trkpt lat="48.39578" lon="2.54927">
        <ele>115</ele>
        <time>2013-01-28T15:18:07Z</time>
      </trkpt>
      <trkpt lat="48.39588" lon="2.5489">
        <ele>115.4</ele>
        <time>2013-01-28T15:18:12Z</time>
      </trkpt>
      <trkpt lat="48.39597" lon="2.54852">
        <ele>118.8</ele>
        <time>2013-01-28T15:18:17Z</time>
      </trkpt>
      <trkpt lat="48.3961" lon="2.54809">
        <ele>119.3</ele>
        <time>2013-01-28T15:18:23Z</time>
      </trkpt>
      <trkpt lat="48.39621" lon="2.54766">
        <ele>119.8</ele>
        <time>2013-01-28T15:18:29Z</time>
      </trkpt>
      <trkpt lat="48.39634" lon="2.54728">
        <ele>118</ele>
        <time>2013-01-28T15:18:34Z</time>
      </trkpt>
      <trkpt lat="48.39643" lon="2.54689">
        <ele>118.8</ele>
        <time>2013-01-28T15:18:40Z</time>
      </trkpt>
      <trkpt lat="48.39651" lon="2.54654">
        <ele>114.5</ele>
        <time>2013-01-28T15:18:45Z</time>
      </trkpt>
      <trkpt lat="48.39665" lon="2.54608">
        <ele>115.1</ele>
        <time>2013-01-28T15:18:52Z</time>
      </trkpt>
      <trkpt lat="48.39683" lon="2.54581">
        <ele>116.9</ele>
        <time>2013-01-28T15:18:57Z</time>
      </trkpt>
      <trkpt lat="48.39703" lon="2.54551">
        <ele>115.5</ele>
        <time>2013-01-28T15:19:03Z</time>
      </trkpt>
      <trkpt lat="48.39723" lon="2.54536">
        <ele>116.8</ele>
        <time>2013-01-28T15:19:08Z</time>
      </trkpt>
      <trkpt lat="48.39745" lon="2.54538">
        <ele>117</ele>
        <time>2013-01-28T15:19:14Z</time>
      </trkpt>
      <trkpt lat="48.39758" lon="2.54546">
        <ele>116.7</ele>
        <time>2013-01-28T15:19:20Z</time>
      </trkpt>
      <trkpt lat="48.39782" lon="2.54563">
        <ele>115.1</ele>
        <time>2013-01-28T15:19:25Z</time>
      </trkpt>
      <trkpt lat="48.3982" lon="2.54579">
        <ele>115.3</ele>
        <time>2013-01-28T15:19:31Z</time>
      </trkpt>
      <trkpt lat="48.39854" lon="2.54597">
        <ele>114</ele>
        <time>2013-01-28T15:19:36Z</time>
      </trkpt>
      <trkpt lat="48.39904" lon="2.54605">
        <ele>113.7</ele>
        <time>2013-01-28T15:19:43Z</time>
      </trkpt>
      <trkpt lat="48.39939" lon="2.54614">
        <ele>114.8</ele>
        <time>2013-01-28T15:19:48Z</time>
      </trkpt>
      <trkpt lat="48.39987" lon="2.54634">
        <ele>115.9</ele>
        <time>2013-01-28T15:19:55Z</time>
      </trkpt>
      <trkpt lat="48.40015" lon="2.54648">
        <ele>114</ele>
        <time>2013-01-28T15:20:00Z</time>
      </trkpt>
      <trkpt lat="48.4005" lon="2.54661">
        <ele>115.5</ele>
        <time>2013-01-28T15:20:06Z</time>
      </trkpt>
      <trkpt lat="48.40081" lon="2.54671">
        <ele>117.3</ele>
        <time>2013-01-28T15:20:12Z</time>
      </trkpt>
      <trkpt lat="48.40101" lon="2.54677">
        <ele>119.1</ele>
        <time>2013-01-28T15:20:17Z</time>
      </trkpt>
      <trkpt lat="48.40121" lon="2.54692">
        <ele>116.4</ele>
        <time>2013-01-28T15:20:24Z</time>
      </trkpt>
      <trkpt lat="48.40126" lon="2.54695">
        <ele>117.2</ele>
        <time>2013-01-28T15:20:27Z</time>
      </trkpt>
      <trkpt lat="48.40128" lon="2.54699">
        <ele>117.9</ele>
        <time>2013-01-28T15:20:38Z</time>
      </trkpt>
      <trkpt lat="48.40128" lon="2.54699">
        <ele>117.9</ele>
        <time>2013-01-28T15:20:45Z</time>
      </trkpt>
      <trkpt lat="48.40128" lon="2.54699">
        <ele>117.9</ele>
        <time>2013-01-28T15:20:46Z</time>
      </trkpt>
      <trkpt lat="48.40128" lon="2.54699">
        <ele>75.6</ele>
        <time>2013-01-28T15:24:21Z</time>
      </trkpt>
    </trkseg>
  </trk>
</gpx>